Provisional Data: Bowman Creek near Noxen, PA


Please select a monitoring station.
Please select start date.
Please select start date.

Toggle Unit: C/F Toggle Unit: C/F
Sample Time Temperature (C) Temperature (F) Specific Conductivity (mS/cm) pH   Turbidity (NTU+) DO (mg/L)
6/29/2021 12:00:00 AM 20.29 68.522 0.057 6.87 1.85 7.98
6/29/2021 12:15:00 AM 20.21 68.378 0.057 6.87 2 8.01
6/29/2021 12:30:00 AM 20.14 68.252 0.057 6.88 2.26 8.03
6/29/2021 12:45:00 AM 20.07 68.126 0.057 6.87 2.17 8.01
6/29/2021 1:00:00 AM 20.01 68.018 0.057 6.87 1.93 8.04
6/29/2021 1:15:00 AM 19.94 67.892 0.057 6.87 1.95 8.07
6/29/2021 1:30:00 AM 19.89 67.802 0.057 6.87 2.36 8.09
6/29/2021 1:45:00 AM 19.83 67.694 0.057 6.87 2.11 8.1
6/29/2021 2:00:00 AM 19.77 67.586 0.057 6.87 1.88 8.09
6/29/2021 2:15:00 AM 19.71 67.478 0.057 6.86 1.99 8.08
6/29/2021 2:30:00 AM 19.65 67.37 0.057 6.87 1.73 8.12
6/29/2021 2:45:00 AM 19.6 67.28 0.057 6.86 1.96 8.13
6/29/2021 3:00:00 AM 19.54 67.172 0.057 6.86 1.87 8.14
6/29/2021 3:15:00 AM 19.49 67.082 0.057 6.86 1.8 8.14
6/29/2021 3:30:00 AM 19.44 66.992 0.057 6.86 1.85 8.13
6/29/2021 3:45:00 AM 19.4 66.92 0.057 6.86 1.96 8.16
6/29/2021 4:00:00 AM 19.35 66.83 0.057 6.86 1.81 8.17
6/29/2021 4:15:00 AM 19.3 66.74 0.057 6.86 1.89 8.19
6/29/2021 4:30:00 AM 19.24 66.632 0.057 6.86 1.85 8.17
6/29/2021 4:45:00 AM 19.19 66.542 0.057 6.86 1.9 8.22
6/29/2021 5:00:00 AM 19.14 66.452 0.057 6.85 2.02 8.21
6/29/2021 5:15:00 AM 19.09 66.362 0.057 6.85 1.99 8.2
6/29/2021 5:30:00 AM 19.04 66.272 0.057 6.85 2.01 8.25
6/29/2021 5:45:00 AM 18.98 66.164 0.057 6.85 2.01 8.26
6/29/2021 6:00:00 AM 18.93 66.074 0.057 6.85 1.82 8.28
6/29/2021 6:15:00 AM 18.89 66.002 0.057 6.86 2.07 8.33
6/29/2021 6:30:00 AM 18.85 65.93 0.057 6.85 2.08 8.36
6/29/2021 6:45:00 AM 18.83 65.894 0.057 6.88 2.03 8.46
6/29/2021 7:00:00 AM 18.81 65.858 0.057 6.89 1.9 8.52
6/29/2021 7:15:00 AM 18.8 65.84 0.057 6.9 1.9 8.56
6/29/2021 7:30:00 AM 18.79 65.82201 0.057 6.91 1.8 8.62
6/29/2021 7:45:00 AM 18.79 65.82201 0.057 6.91 1.87 8.67
6/29/2021 8:00:00 AM 18.79 65.82201 0.057 6.92 1.94 8.72
6/29/2021 8:15:00 AM 18.81 65.858 0.057 6.92 1.81 8.75
6/29/2021 8:30:00 AM 18.85 65.93 0.057 6.94 1.79 8.83
6/29/2021 8:45:00 AM 18.89 66.002 0.057 6.95 1.8 8.85
6/29/2021 9:00:00 AM 18.97 66.146 0.057 6.96 1.78 8.91
6/29/2021 9:15:00 AM 19.07 66.326 0.057 6.97 1.86 8.94
6/29/2021 9:30:00 AM 19.23 66.614 0.057 7.01 1.68 8.98
6/29/2021 9:45:00 AM 19.39 66.902 0.057 7.03 1.64 9.03
6/29/2021 10:00:00 AM 19.56 67.208 0.057 7.03 1.85 9.03
6/29/2021 10:15:00 AM 19.77 67.586 0.057 7.06 1.67 9.07
6/29/2021 10:30:00 AM 20 68 0.057 7.07 1.84 9.04
6/29/2021 10:45:00 AM 20.26 68.468 0.057 7.08 4.53 9.02
6/29/2021 11:00:00 AM 20.54 68.972 0.057 7.1 1.73 9.06
6/29/2021 11:15:00 AM 20.84 69.512 0.057 7.12 1.85 9.05
6/29/2021 11:30:00 AM 21.16 70.088 0.057 7.14 1.55 9.04
6/29/2021 11:45:00 AM 21.39 70.502 0.057 7.14 1.69 8.95
6/29/2021 12:00:00 PM 21.4 70.52 0.057 7.13 1.72 8.83
6/29/2021 12:15:00 PM 21.45 70.61 0.057 7.13 1.52 8.86
6/29/2021 12:30:00 PM 21.39 70.502 0.057 7.12 1.8 8.77
6/29/2021 12:45:00 PM 21.41 70.538 0.057 7.12 2.1 8.8
6/29/2021 1:00:00 PM 21.41 70.538 0.056 7.13 1.75 8.76
6/29/2021 1:15:00 PM 21.45 70.61 0.056 7.12 1.65 8.77
6/29/2021 1:30:00 PM 21.52 70.736 0.056 7.12 1.7 8.72
6/29/2021 1:45:00 PM 21.88 71.384 0.056 7.15 2.2 8.75
6/29/2021 2:00:00 PM 22.22 71.996 0.056 7.16 1.87 8.72
6/29/2021 2:15:00 PM 22.44 72.392 0.056 7.16 1.66 8.69
6/29/2021 2:30:00 PM 22.77 72.986 0.056 7.17 1.72 8.63
6/29/2021 2:45:00 PM 23.07 73.526 0.056 7.18 1.74 8.58
6/29/2021 3:00:00 PM 23.42 74.156 0.055 7.18 1.69 8.54
6/29/2021 3:15:00 PM 23.68 74.624 0.055 7.2 1.75 8.48
6/29/2021 3:30:00 PM 23.86 74.948 0.055 7.19 1.78 8.41
6/29/2021 3:45:00 PM 23.99 75.182 0.055 7.18 1.79 8.34
6/29/2021 4:00:00 PM 24.11 75.398 0.055 7.19 1.71 8.27
6/29/2021 4:15:00 PM 24.18 75.524 0.055 7.17 1.88 8.22
6/29/2021 4:30:00 PM 24.2 75.56 0.055 7.16 1.76 8.17
6/29/2021 4:45:00 PM 24.21 75.578 0.055 7.14 1.82 8.1
6/29/2021 5:00:00 PM 24.19 75.542 0.055 7.14 1.65 8.04
6/29/2021 5:15:00 PM 24.15 75.47 0.055 7.11 1.81 8.02
6/29/2021 5:30:00 PM 24.08 75.344 0.055 7.11 1.99 7.98
6/29/2021 5:45:00 PM 24.01 75.218 0.055 7.11 1.77 7.96
6/29/2021 6:00:00 PM 23.93 75.074 0.054 7.1 1.65 7.92
6/29/2021 6:15:00 PM 23.84 74.912 0.054 7.09 1.73 7.94
6/29/2021 6:30:00 PM 23.72 74.696 0.055 7.07 1.84 7.9
6/29/2021 6:45:00 PM 23.6 74.48 0.055 7.06 2.11 7.9
6/29/2021 7:00:00 PM 23.46 74.228 0.054 7.05 2.29 7.92
6/29/2021 7:15:00 PM 23.29 73.922 0.054 7.05 1.71 7.94
6/29/2021 7:30:00 PM 23.12 73.616 0.054 7.03 1.9 7.92
6/29/2021 7:45:00 PM 22.95 73.31 0.054 7.02 1.75 7.92
6/29/2021 8:00:00 PM 22.77 72.986 0.054 7.01 1.72 7.92
6/29/2021 8:15:00 PM 22.61 72.698 0.054 6.99 2.11 7.9
6/29/2021 8:30:00 PM 22.45 72.41 0.054 6.98 1.83 7.84
6/29/2021 8:45:00 PM 22.31 72.158 0.054 6.95 1.77 7.78
6/29/2021 9:00:00 PM 22.18 71.924 0.054 6.94 1.84 7.81
6/29/2021 9:15:00 PM 22.07 71.726 0.054 6.93 1.86 7.79
6/29/2021 9:30:00 PM 21.96 71.528 0.054 6.92 1.85 7.8
6/29/2021 9:45:00 PM 21.86 71.348 0.054 6.9 2.1 7.76
6/29/2021 10:00:00 PM 21.76 71.168 0.054 6.91 1.86 7.81
6/29/2021 10:15:00 PM 21.67 71.006 0.054 6.9 1.93 7.82
6/29/2021 10:30:00 PM 21.59 70.862 0.054 6.89 1.82 7.79
6/29/2021 10:45:00 PM 21.51 70.718 0.054 6.89 1.94 7.83
6/29/2021 11:00:00 PM 21.45 70.61 0.054 6.9 1.74 7.87
6/29/2021 11:15:00 PM 21.4 70.52 0.054 6.9 1.73 7.84
6/29/2021 11:30:00 PM 21.34 70.412 0.054 6.91 1.73 7.88
6/29/2021 11:45:00 PM 21.28 70.304 0.054 6.9 1.8 7.88
6/30/2021 12:00:00 AM 21.23 70.214 0.053 6.92 2.18 7.9
6/30/2021 12:15:00 AM 21.2 70.16 0.051 6.92 3.3 8.05
6/30/2021 12:30:00 AM 21.15 70.07 0.05 6.9 3.02 8.04
6/30/2021 12:45:00 AM 21.1 69.98 0.049 6.92 3.39 8.09
6/30/2021 1:00:00 AM 21.02 69.836 0.05 6.9 8.31 8.06
6/30/2021 1:15:00 AM 20.97 69.746 0.051 6.91 8.17 8.03
6/30/2021 1:30:00 AM 20.9 69.62 0.052 6.92 11.02 8.03
6/30/2021 1:45:00 AM 20.85 69.53 0.053 6.92 10.96 8
6/30/2021 2:00:00 AM 20.83 69.494 0.053 6.91 12.59 8.05
6/30/2021 2:15:00 AM 20.85 69.53 0.053 6.93 11.34 8.08
6/30/2021 2:30:00 AM 20.86 69.548 0.059 6.95 14.58 8.09
6/30/2021 2:45:00 AM 20.79 69.422 0.066 6.98 26.89 8.09
6/30/2021 3:00:00 AM 20.73 69.314 0.07 7.01 88.66 8.09
6/30/2021 3:15:00 AM 20.69 69.242 0.079 7.01 98.6 8.12
6/30/2021 3:30:00 AM 20.65 69.17 0.081 7.01 58.59 8.13
6/30/2021 3:45:00 AM 20.58 69.044 0.074 6.99 67.82 8.15
6/30/2021 4:00:00 AM 20.49 68.882 0.067 6.97 46.26 8.18
6/30/2021 4:15:00 AM 20.36 68.648 0.062 6.95 59.51 8.2
6/30/2021 4:30:00 AM 20.21 68.378 0.059 6.94 50.55 8.21
6/30/2021 4:45:00 AM 20.05 68.09 0.057 6.93 52.08 8.25
6/30/2021 5:00:00 AM 19.89 67.802 0.055 6.92 70.21 8.28
6/30/2021 5:15:00 AM 19.75 67.55 0.054 6.91 52.96 8.31
6/30/2021 5:30:00 AM 19.63 67.334 0.052 6.9 39.67 8.34
6/30/2021 5:45:00 AM 19.53 67.154 0.051 6.89 41.33 8.35
6/30/2021 6:00:00 AM 19.45 67.01 0.05 6.89 32.67 8.36
6/30/2021 6:15:00 AM 19.4 66.92 0.05 6.89 24.03 8.4
6/30/2021 6:30:00 AM 19.35 66.83 0.05 6.89 29.27 8.43
6/30/2021 6:45:00 AM 19.32 66.776 0.05 6.9 23.42 8.46
6/30/2021 7:00:00 AM 19.28 66.704 0.051 6.9 15.8 8.47
6/30/2021 7:15:00 AM 19.24 66.632 0.051 6.91 18.85 8.51
6/30/2021 7:30:00 AM 19.22 66.596 0.051 6.91 16.06 8.55
6/30/2021 7:45:00 AM 19.2 66.56 0.052 6.91 15.86 8.59
6/30/2021 8:00:00 AM 19.19 66.542 0.052 6.92 12.84 8.63
6/30/2021 8:15:00 AM 19.2 66.56 0.052 6.93 12.19 8.67
6/30/2021 8:30:00 AM 19.23 66.614 0.052 6.94 11.92 8.7
6/30/2021 8:45:00 AM 19.27 66.686 0.052 6.95 10.42 8.73
6/30/2021 9:00:00 AM 19.33 66.794 0.051 6.96 11 8.76
6/30/2021 9:15:00 AM 19.4 66.92 0.051 6.97 8.68 8.79
6/30/2021 9:30:00 AM 19.48 67.064 0.051 6.98 8.29 8.8
6/30/2021 9:45:00 AM 19.59 67.262 0.051 6.99 8.96 8.84
6/30/2021 10:00:00 AM 19.72 67.496 0.05 7.01 9.83 8.85
6/30/2021 10:15:00 AM 19.86 67.748 0.05 7.02 8.13 8.88
6/30/2021 10:30:00 AM 20.04 68.07201 0.05 7.03 7.42 8.87
6/30/2021 10:45:00 AM 20.24 68.432 0.05 7.04 7.91 8.87
6/30/2021 11:00:00 AM 20.45 68.81 0.05 7.06 10.17 8.88
6/30/2021 11:15:00 AM 20.67 69.206 0.05 7.07 7.56 8.87
6/30/2021 11:30:00 AM 20.92 69.656 0.05 7.08 6.87 8.85
6/30/2021 11:45:00 AM 21.16 70.088 0.05 7.09 6.24 8.82
6/30/2021 12:00:00 PM 21.44 70.592 0.05 7.1 6.32 8.77
6/30/2021 12:15:00 PM 21.71 71.078 0.05 7.11 5.72 8.73
6/30/2021 12:30:00 PM 22.01 71.618 0.05 7.13 5.45 8.71
6/30/2021 12:45:00 PM 22.3 72.14 0.05 7.14 5.22 8.66
6/30/2021 1:00:00 PM 22.53 72.554 0.05 7.15 4.74 8.61
6/30/2021 1:15:00 PM 22.6 72.68 0.05 7.13 4.79 8.54
6/30/2021 1:30:00 PM 22.73 72.914 0.05 7.13 4.86 8.49
6/30/2021 1:45:00 PM 22.83 73.094 0.05 7.13 4.31 8.46
6/30/2021 2:00:00 PM 23 73.4 0.05 7.14 4.42 8.46
6/30/2021 2:15:00 PM 23.09 73.562 0.05 7.14 4.18 8.43
6/30/2021 2:30:00 PM 23.28 73.904 0.05 7.15 4.45 8.42
6/30/2021 2:45:00 PM 23.45 74.21 0.05 7.15 3.63 8.37
6/30/2021 3:00:00 PM 23.56 74.408 0.051 7.15 3.75 8.34
6/30/2021 3:15:00 PM 23.72 74.696 0.051 7.16 3.8 8.33
6/30/2021 3:30:00 PM 23.78 74.804 0.051 7.17 3.39 8.28
6/30/2021 3:45:00 PM 23.72 74.696 0.051 7.14 3.73 8.23
6/30/2021 4:00:00 PM 23.77 74.786 0.051 7.15 3.35 8.19
6/30/2021 4:15:00 PM 23.79 74.82201 0.051 7.17 3.27 8.19
6/30/2021 4:30:00 PM 23.69 74.642 0.051 7.12 3.61 8.04
6/30/2021 4:45:00 PM 23.54 74.372 0.051 7.1 3.44 8.01
6/30/2021 5:00:00 PM 23.42 74.156 0.051 7.08 3.36 8.02
6/30/2021 5:15:00 PM 23.27 73.886 0.051 7.09 3.07 8.01
6/30/2021 5:30:00 PM 23.06 73.508 0.051 7.05 3.29 7.94
6/30/2021 5:45:00 PM 22.88 73.184 0.051 7.03 3.15 7.86
6/30/2021 6:00:00 PM 22.7 72.86 0.052 7.01 3.23 7.87
6/30/2021 6:15:00 PM 22.53 72.554 0.052 7.01 3.09 7.86
6/30/2021 6:30:00 PM 22.37 72.266 0.052 6.99 3.28 7.88
6/30/2021 6:45:00 PM 22.22 71.996 0.053 6.98 3 7.88
6/30/2021 7:00:00 PM 22.07 71.726 0.053 6.98 2.99 7.9
6/30/2021 7:15:00 PM 21.94 71.492 0.053 6.97 3.27 7.94
6/30/2021 7:30:00 PM 21.82 71.276 0.053 6.97 2.93 7.95
6/30/2021 7:45:00 PM 21.7 71.06 0.053 6.96 2.95 7.94
6/30/2021 8:00:00 PM 21.61 70.898 0.053 6.96 3.18 7.96
6/30/2021 8:15:00 PM 21.52 70.736 0.053 6.96 2.88 7.96
6/30/2021 8:30:00 PM 21.43 70.574 0.053 6.95 2.94 7.96
6/30/2021 8:45:00 PM 21.35 70.43 0.054 6.95 3.12 7.95
6/30/2021 9:00:00 PM 21.27 70.286 0.054 6.94 2.89 7.96
6/30/2021 9:15:00 PM 21.19 70.142 0.054 6.94 2.92 7.96
6/30/2021 9:30:00 PM 21.12 70.016 0.054 6.93 2.98 7.96
6/30/2021 9:45:00 PM 21.05 69.89 0.055 6.94 3.03 7.96
6/30/2021 10:00:00 PM 20.97 69.746 0.055 6.94 2.9 7.98
6/30/2021 10:15:00 PM 20.89 69.602 0.055 6.94 2.69 8
6/30/2021 10:30:00 PM 20.81 69.458 0.055 6.94 2.86 8
6/30/2021 10:45:00 PM 20.74 69.332 0.055 6.93 3.01 7.99
6/30/2021 11:00:00 PM 20.66 69.188 0.055 6.93 2.76 8.02
6/30/2021 11:15:00 PM 20.59 69.062 0.055 6.92 2.83 8.02
6/30/2021 11:30:00 PM 20.52 68.936 0.055 6.92 3.06 8.05
6/30/2021 11:45:00 PM 20.45 68.81 0.055 6.92 2.77 8.05
7/1/2021 12:00:00 AM 20.38 68.684 0.055 6.91 2.83 8.07
7/1/2021 12:15:00 AM 20.31 68.558 0.055 6.92 2.67 8.08
7/1/2021 12:30:00 AM 20.25 68.45 0.055 6.92 2.76 8.08
7/1/2021 12:45:00 AM 20.18 68.324 0.055 6.91 2.8 8.1
7/1/2021 1:00:00 AM 20.12 68.216 0.055 6.91 2.72 8.1
7/1/2021 1:15:00 AM 20.07 68.126 0.055 6.91 2.64 8.11
7/1/2021 1:30:00 AM 20.01 68.018 0.055 6.91 2.7 8.1
7/1/2021 1:45:00 AM 19.96 67.92799 0.055 6.91 2.84 8.13
7/1/2021 2:00:00 AM 19.9 67.82 0.055 6.92 2.62 8.15
7/1/2021 2:15:00 AM 19.85 67.73 0.056 6.91 2.73 8.16
7/1/2021 2:30:00 AM 19.8 67.64 0.056 6.91 2.77 8.15
7/1/2021 2:45:00 AM 19.74 67.532 0.056 6.91 2.64 8.18
7/1/2021 3:00:00 AM 19.69 67.442 0.056 6.91 2.41 8.18
7/1/2021 3:15:00 AM 19.64 67.352 0.056 6.91 2.74 8.19
7/1/2021 3:30:00 AM 19.58 67.244 0.056 6.91 2.71 8.2
7/1/2021 3:45:00 AM 19.53 67.154 0.056 6.9 2.79 8.21
7/1/2021 4:00:00 AM 19.48 67.064 0.056 6.91 2.57 8.22
7/1/2021 4:15:00 AM 19.44 66.992 0.056 6.91 2.61 8.21
7/1/2021 4:30:00 AM 19.39 66.902 0.056 6.91 2.78 8.23
7/1/2021 4:45:00 AM 19.35 66.83 0.056 6.89 2.9 8.22
7/1/2021 5:00:00 AM 19.3 66.74 0.056 6.9 2.49 8.23
7/1/2021 5:15:00 AM 19.25 66.65 0.056 6.9 2.97 8.25
7/1/2021 5:30:00 AM 19.21 66.578 0.056 6.89 2.73 8.22
7/1/2021 5:45:00 AM 19.16 66.488 0.056 6.9 2.76 8.27
7/1/2021 6:00:00 AM 19.12 66.416 0.056 6.9 2.6 8.3
7/1/2021 6:15:00 AM 19.08 66.344 0.056 6.89 2.97 8.32
7/1/2021 6:30:00 AM 19.05 66.29 0.056 6.9 2.81 8.35
7/1/2021 6:45:00 AM 19.01 66.218 0.056 6.9 2.8 8.35
7/1/2021 7:00:00 AM 18.98 66.164 0.056 6.91 2.87 8.37
7/1/2021 7:15:00 AM 18.95 66.11 0.056 6.9 2.78 8.38
7/1/2021 7:30:00 AM 18.93 66.074 0.055 6.91 2.75 8.43
7/1/2021 7:45:00 AM 18.92 66.056 0.055 6.91 2.51 8.46
7/1/2021 8:00:00 AM 18.9 66.02 0.056 6.92 2.52 8.52
7/1/2021 8:15:00 AM 18.88 65.984 0.056 6.92 2.74 8.52
7/1/2021 8:30:00 AM 18.87 65.966 0.055 6.94 2.59 8.55
7/1/2021 8:45:00 AM 18.87 65.966 0.055 6.95 2.49 8.6
7/1/2021 9:00:00 AM 18.89 66.002 0.055 6.96 2.45 8.7
7/1/2021 9:15:00 AM 18.9 66.02 0.055 6.97 2.65 8.75
7/1/2021 9:30:00 AM 18.93 66.074 0.056 6.99 2.8 8.78
7/1/2021 9:45:00 AM 18.94 66.092 0.055 6.99 2.57 8.79
7/1/2021 10:00:00 AM 18.94 66.092 0.055 6.99 2.75 8.78
7/1/2021 10:15:00 AM 18.96 66.128 0.055 7 2.78 8.79
7/1/2021 10:30:00 AM 18.96 66.128 0.055 7 2.53 8.79
7/1/2021 10:45:00 AM 18.97 66.146 0.055 7.01 2.51 8.78
7/1/2021 11:00:00 AM 18.98 66.164 0.056 7.02 2.66 8.83
7/1/2021 11:15:00 AM 19.01 66.218 0.056 7.03 2.58 8.86
7/1/2021 11:30:00 AM 19.04 66.272 0.056 7.03 2.59 8.88
7/1/2021 11:45:00 AM 19.05 66.29 0.056 7.04 2.7 8.86
7/1/2021 12:00:00 PM 19.07 66.326 0.056 7.05 2.75 8.85
7/1/2021 12:15:00 PM 19.08 66.344 0.056 7.04 2.88 8.85
7/1/2021 12:30:00 PM 19.1 66.38 0.057 7.05 3.68 8.88
7/1/2021 12:45:00 PM 19.19 66.542 0.057 7.07 2.9 8.95
7/1/2021 1:00:00 PM 19.25 66.65 0.057 7.09 3.28 8.95
7/1/2021 1:15:00 PM 19.29 66.722 0.057 7.1 3.02 8.96
7/1/2021 1:30:00 PM 19.33 66.794 0.057 7.09 3.59 8.94
7/1/2021 1:45:00 PM 19.34 66.812 0.058 7.09 2.88 8.89
7/1/2021 2:00:00 PM 19.35 66.83 0.058 7.09 2.62 8.83
7/1/2021 2:15:00 PM 19.33 66.794 0.058 7.07 3.22 8.77
7/1/2021 2:30:00 PM 19.31 66.758 0.058 7.07 3.13 8.74
7/1/2021 2:45:00 PM 19.29 66.722 0.057 7.05 2.79 8.75
7/1/2021 3:00:00 PM 19.29 66.722 0.058 7.07 3.61 8.79
7/1/2021 3:15:00 PM 19.31 66.758 0.057 7.07 2.75 8.82
7/1/2021 3:30:00 PM 19.31 66.758 0.058 7.08 2.66 8.8
7/1/2021 3:45:00 PM 19.31 66.758 0.058 7.07 3.1 8.78
7/1/2021 4:00:00 PM 19.3 66.74 0.058 7.08 2.9 8.75
7/1/2021 4:15:00 PM 19.31 66.758 0.058 7.08 2.71 8.79
7/1/2021 4:30:00 PM 19.31 66.758 0.058 7.08 3.34 8.77
7/1/2021 4:45:00 PM 19.29 66.722 0.058 7.07 2.64 8.76
7/1/2021 5:00:00 PM 19.28 66.704 0.058 7.08 2.7 8.76
7/1/2021 5:15:00 PM 19.26 66.668 0.058 7.07 2.66 8.73
7/1/2021 5:30:00 PM 19.24 66.632 0.058 7.06 2.8 8.7
7/1/2021 5:45:00 PM 19.22 66.596 0.058 7.05 2.81 8.69
7/1/2021 6:00:00 PM 19.23 66.614 0.057 7.06 2.76 8.74
7/1/2021 6:15:00 PM 19.23 66.614 0.057 7.06 2.66 8.74
7/1/2021 6:30:00 PM 19.21 66.578 0.057 7.06 2.6 8.73
7/1/2021 6:45:00 PM 19.19 66.542 0.057 7.05 2.67 8.66
7/1/2021 7:00:00 PM 19.16 66.488 0.057 7.03 2.58 8.6
7/1/2021 7:15:00 PM 19.12 66.416 0.057 7.01 2.78 8.54
7/1/2021 7:30:00 PM 19.08 66.344 0.057 7 2.64 8.5
7/1/2021 7:45:00 PM 19.04 66.272 0.057 6.99 2.6 8.48
7/1/2021 8:00:00 PM 18.99 66.182 0.057 6.98 2.65 8.47
7/1/2021 8:15:00 PM 18.94 66.092 0.058 6.98 3.06 8.45
7/1/2021 8:30:00 PM 18.91 66.038 0.057 6.97 2.81 8.44
7/1/2021 8:45:00 PM 18.87 65.966 0.057 6.96 2.56 8.42
7/1/2021 9:00:00 PM 18.83 65.894 0.057 6.96 2.66 8.42
7/1/2021 9:15:00 PM 18.79 65.82201 0.057 6.95 2.65 8.41
7/1/2021 9:30:00 PM 18.75 65.75 0.057 6.95 2.9 8.4
7/1/2021 9:45:00 PM 18.71 65.67799 0.057 6.95 2.72 8.42
7/1/2021 10:00:00 PM 18.67 65.606 0.057 6.95 2.38 8.42
7/1/2021 10:15:00 PM 18.63 65.534 0.057 6.94 2.49 8.44
7/1/2021 10:30:00 PM 18.59 65.462 0.057 6.94 2.52 8.45
7/1/2021 10:45:00 PM 18.56 65.408 0.057 6.94 2.47 8.45
7/1/2021 11:00:00 PM 18.52 65.336 0.057 6.95 2.63 8.45
7/1/2021 11:15:00 PM 18.49 65.282 0.057 6.94 2.63 8.47
7/1/2021 11:30:00 PM 18.45 65.21 0.057 6.94 2.75 8.49
7/1/2021 11:45:00 PM 18.41 65.138 0.057 6.94 2.64 8.49
7/2/2021 12:00:00 AM 18.38 65.084 0.057 6.94 2.61 8.5
7/2/2021 12:15:00 AM 18.35 65.03 0.057 6.94 2.56 8.5
7/2/2021 12:30:00 AM 18.32 64.976 0.057 6.94 2.7 8.5
7/2/2021 12:45:00 AM 18.29 64.922 0.057 6.94 2.51 8.51
7/2/2021 1:00:00 AM 18.26 64.868 0.057 6.94 2.52 8.52
7/2/2021 1:15:00 AM 18.23 64.814 0.057 6.93 2.67 8.52
7/2/2021 1:30:00 AM 18.2 64.76 0.057 6.94 2.62 8.51
7/2/2021 1:45:00 AM 18.18 64.724 0.057 6.94 2.64 8.52
7/2/2021 2:00:00 AM 18.15 64.67 0.057 6.93 2.6 8.53
7/2/2021 2:15:00 AM 18.12 64.616 0.057 6.94 2.7 8.54
7/2/2021 2:30:00 AM 18.09 64.562 0.057 6.93 2.65 8.54
7/2/2021 2:45:00 AM 18.07 64.526 0.056 6.93 2.6 8.55
7/2/2021 3:00:00 AM 18.03 64.454 0.056 6.93 2.49 8.56
7/2/2021 3:15:00 AM 18 64.4 0.056 6.93 2.57 8.57
7/2/2021 3:30:00 AM 17.97 64.346 0.056 6.92 2.76 8.57
7/2/2021 3:45:00 AM 17.93 64.274 0.056 6.92 2.81 8.58
7/2/2021 4:00:00 AM 17.89 64.202 0.056 6.92 2.49 8.57
7/2/2021 4:15:00 AM 17.86 64.148 0.056 6.92 2.65 8.59
7/2/2021 4:30:00 AM 17.83 64.094 0.056 6.91 2.45 8.6
7/2/2021 4:45:00 AM 17.79 64.022 0.055 6.93 2.63 8.62
7/2/2021 5:00:00 AM 17.77 63.986 0.055 6.91 3.73 8.57
7/2/2021 5:15:00 AM 17.74 63.932 0.055 6.92 2.74 8.62
7/2/2021 5:30:00 AM 17.7 63.86 0.055 6.92 2.62 8.6
7/2/2021 5:45:00 AM 17.67 63.806 0.055 6.92 2.68 8.64
7/2/2021 6:00:00 AM 17.65 63.77 0.055 6.92 3.08 8.64
7/2/2021 6:15:00 AM 17.62 63.716 0.055 6.92 4.63 8.67
7/2/2021 6:30:00 AM 17.59 63.662 0.055 6.93 2.7 8.69
7/2/2021 6:45:00 AM 17.57 63.626 0.055 6.94 2.55 8.72
7/2/2021 7:00:00 AM 17.56 63.608 0.055 6.94 2.53 8.76
7/2/2021 7:15:00 AM 17.55 63.59 0.055 6.95 2.54 8.79
7/2/2021 7:30:00 AM 17.54 63.572 0.054 6.97 2.66 8.86
7/2/2021 7:45:00 AM 17.54 63.572 0.054 6.97 2.69 8.9
7/2/2021 8:00:00 AM 17.54 63.572 0.054 6.99 2.65 8.96
7/2/2021 8:15:00 AM 17.55 63.59 0.054 7 2.38 8.98
7/2/2021 8:30:00 AM 17.56 63.608 0.054 7 2.71 9.01
7/2/2021 8:45:00 AM 17.59 63.662 0.054 7.02 2.55 9.04
7/2/2021 9:00:00 AM 17.62 63.716 0.053 7.02 2.5 9.09
7/2/2021 9:15:00 AM 17.65 63.77 0.053 7.03 2.48 9.12
7/2/2021 9:30:00 AM 17.71 63.878 0.053 7.04 2.42 9.16
7/2/2021 9:45:00 AM 17.76 63.968 0.053 7.05 2.95 9.17
7/2/2021 10:00:00 AM 17.79 64.022 0.053 7.06 2.4 9.18
7/2/2021 10:15:00 AM 17.97 64.346 0.053 7.07 2.41 9.2
7/2/2021 10:30:00 AM 18.05 64.49 0.053 7.08 2.31 9.18
7/2/2021 10:45:00 AM 18.17 64.706 0.053 7.09 2.93 9.19
7/2/2021 11:00:00 AM 18.33 64.994 0.053 7.09 2.42 9.16
7/2/2021 11:15:00 AM 18.56 65.408 0.052 7.1 2.51 9.17
7/2/2021 11:30:00 AM 18.74 65.732 0.052 7.11 2.43 9.13
7/2/2021 11:45:00 AM 18.79 65.82201 0.052 7.11 2.5 9.11
7/2/2021 12:00:00 PM 18.8 65.84 0.052 7.1 2.41 9.09
7/2/2021 12:15:00 PM 18.85 65.93 0.052 7.1 2.46 9.11
7/2/2021 12:30:00 PM 18.92 66.056 0.052 7.11 2.41 9.1
7/2/2021 12:45:00 PM 19.03 66.254 0.052 7.12 2.52 9.09
7/2/2021 1:00:00 PM 19.1 66.38 0.052 7.11 2.59 9.08
7/2/2021 1:15:00 PM 19.28 66.704 0.052 7.13 2.48 9.05
7/2/2021 1:30:00 PM 19.41 66.938 0.052 7.12 2.38 8.99
7/2/2021 1:45:00 PM 19.41 66.938 0.052 7.11 2.36 8.96
7/2/2021 2:00:00 PM 19.4 66.92 0.052 7.11 2.59 8.94
7/2/2021 2:15:00 PM 19.44 66.992 0.052 7.11 2.25 8.92
7/2/2021 2:30:00 PM 19.48 67.064 0.052 7.11 2.46 8.91
7/2/2021 2:45:00 PM 19.58 67.244 0.052 7.11 2.41 8.91
7/2/2021 3:00:00 PM 19.64 67.352 0.052 7.11 2.51 8.87
7/2/2021 3:15:00 PM 19.74 67.532 0.052 7.11 2.23 8.85
7/2/2021 3:30:00 PM 19.67 67.406 0.052 7.09 2.43 8.79
7/2/2021 3:45:00 PM 19.62 67.316 0.052 7.08 2.45 8.75
7/2/2021 4:00:00 PM 19.6 67.28 0.052 7.06 2.33 8.72
7/2/2021 4:15:00 PM 19.58 67.244 0.052 7.06 2.25 8.71
7/2/2021 4:30:00 PM 19.56 67.208 0.052 7.05 2.48 8.72
7/2/2021 4:45:00 PM 19.53 67.154 0.052 7.05 3.64 8.7
7/2/2021 5:00:00 PM 19.48 67.064 0.052 7.05 2.29 8.66
7/2/2021 5:15:00 PM 19.4 66.92 0.052 7.03 2.24 8.61
7/2/2021 5:30:00 PM 19.35 66.83 0.052 7.03 2.43 8.63
7/2/2021 5:45:00 PM 19.32 66.776 0.052 7.02 2.25 8.65
7/2/2021 6:00:00 PM 19.27 66.686 0.052 7.02 2.36 8.65
7/2/2021 6:15:00 PM 19.22 66.596 0.052 7.02 2.45 8.67
7/2/2021 6:30:00 PM 19.18 66.524 0.052 7.02 2.35 8.67
7/2/2021 6:45:00 PM 19.14 66.452 0.052 7.01 2.32 8.67
7/2/2021 7:00:00 PM 19.08 66.344 0.052 7 2.25 8.65
7/2/2021 7:15:00 PM 19 66.2 0.052 7 2.47 8.62
7/2/2021 7:30:00 PM 18.9 66.02 0.052 6.99 2.43 8.58
7/2/2021 7:45:00 PM 18.8 65.84 0.052 6.97 2.38 8.54
7/2/2021 8:00:00 PM 18.69 65.642 0.052 6.97 2.18 8.54
7/2/2021 8:15:00 PM 18.59 65.462 0.052 6.96 2.4 8.53
7/2/2021 8:30:00 PM 18.5 65.3 0.052 6.95 2.35 8.53
7/2/2021 8:45:00 PM 18.4 65.12 0.052 6.94 2.33 8.52
7/2/2021 9:00:00 PM 18.31 64.958 0.053 6.93 2.49 8.51
7/2/2021 9:15:00 PM 18.22 64.796 0.053 6.92 2.23 8.49
7/2/2021 9:30:00 PM 18.14 64.652 0.053 6.91 2.33 8.46
7/2/2021 9:45:00 PM 18.04 64.472 0.053 6.91 2.25 8.49
7/2/2021 10:00:00 PM 17.94 64.292 0.053 6.91 2.31 8.52
7/2/2021 10:15:00 PM 17.85 64.13 0.053 6.9 2.4 8.53
7/2/2021 10:30:00 PM 17.77 63.986 0.053 6.89 2.49 8.52
7/2/2021 10:45:00 PM 17.69 63.842 0.053 6.89 2.25 8.55
7/2/2021 11:00:00 PM 17.61 63.698 0.053 6.88 2.41 8.54
7/2/2021 11:15:00 PM 17.53 63.554 0.053 6.89 2.36 8.56
7/2/2021 11:30:00 PM 17.45 63.41 0.053 6.9 2.23 8.59
7/2/2021 11:45:00 PM 17.38 63.284 0.053 6.89 2.37 8.6
7/3/2021 12:00:00 AM 17.32 63.176 0.053 6.89 2.37 8.59
7/3/2021 12:15:00 AM 17.26 63.068 0.053 6.89 2.34 8.62
7/3/2021 12:30:00 AM 17.19 62.942 0.053 6.88 2.24 8.64
7/3/2021 12:45:00 AM 17.12 62.816 0.053 6.88 2.39 8.65
7/3/2021 1:00:00 AM 17.04 62.672 0.053 6.88 2.3 8.66
7/3/2021 1:15:00 AM 16.97 62.546 0.053 6.88 2.23 8.67
7/3/2021 1:30:00 AM 16.9 62.42 0.053 6.88 2.34 8.68
7/3/2021 1:45:00 AM 16.83 62.294 0.053 6.87 2.14 8.7
7/3/2021 2:00:00 AM 16.78 62.204 0.053 6.87 2.1 8.71
7/3/2021 2:15:00 AM 16.72 62.096 0.053 6.88 2.28 8.71
7/3/2021 2:30:00 AM 16.67 62.006 0.053 6.87 2.06 8.72
7/3/2021 2:45:00 AM 16.62 61.916 0.053 6.88 2.32 8.74
7/3/2021 3:00:00 AM 16.58 61.844 0.053 6.87 2.44 8.76
7/3/2021 3:15:00 AM 16.53 61.754 0.053 6.87 2.15 8.76
7/3/2021 3:30:00 AM 16.49 61.682 0.053 6.87 2.14 8.78
7/3/2021 3:45:00 AM 16.44 61.592 0.053 6.87 2.29 8.79
7/3/2021 4:00:00 AM 16.4 61.52 0.053 6.87 2.26 8.81
7/3/2021 4:15:00 AM 16.36 61.448 0.053 6.87 2.28 8.8
7/3/2021 4:30:00 AM 16.33 61.394 0.053 6.87 2.36 8.82
7/3/2021 4:45:00 AM 16.29 61.322 0.053 6.87 2.08 8.83
7/3/2021 5:00:00 AM 16.24 61.232 0.054 6.86 2.22 8.83
7/3/2021 5:15:00 AM 16.2 61.16 0.054 6.86 2.3 8.84
7/3/2021 5:30:00 AM 16.18 61.124 0.054 6.87 2.25 8.84
7/3/2021 5:45:00 AM 16.16 61.088 0.054 6.87 2.32 8.84
7/3/2021 6:00:00 AM 16.13 61.034 0.054 6.87 2.35 8.85
7/3/2021 6:15:00 AM 16.1 60.98 0.054 6.87 2.38 8.87
7/3/2021 6:30:00 AM 16.07 60.926 0.054 6.87 2.14 8.89
7/3/2021 6:45:00 AM 16.05 60.89 0.054 6.87 2.34 8.92
7/3/2021 7:00:00 AM 16.03 60.854 0.054 6.87 2.32 8.95
7/3/2021 7:15:00 AM 16.01 60.818 0.054 6.87 2.45 8.96
7/3/2021 7:30:00 AM 15.99 60.782 0.054 6.88 2.17 8.97
7/3/2021 7:45:00 AM 15.99 60.782 0.054 6.89 2.24 9.01
7/3/2021 8:00:00 AM 16 60.8 0.054 6.89 2.17 9.05
7/3/2021 8:15:00 AM 16.03 60.854 0.054 6.91 2.34 9.14
7/3/2021 8:30:00 AM 16.07 60.926 0.054 6.93 2.21 9.21
7/3/2021 8:45:00 AM 16.11 60.998 0.053 6.95 2.99 9.27
7/3/2021 9:00:00 AM 16.15 61.07 0.053 6.95 2.32 9.28
7/3/2021 9:15:00 AM 16.2 61.16 0.053 6.97 2.27 9.33
7/3/2021 9:30:00 AM 16.35 61.43 0.053 6.99 2.45 9.39
7/3/2021 9:45:00 AM 16.41 61.538 0.053 6.99 2.72 9.4
7/3/2021 10:00:00 AM 16.43 61.574 0.053 6.98 2.21 9.37
7/3/2021 10:15:00 AM 16.48 61.664 0.053 6.99 2.25 9.37
7/3/2021 10:30:00 AM 16.6 61.88 0.053 7 2 9.37
7/3/2021 10:45:00 AM 16.69 62.042 0.053 7 2.08 9.35
7/3/2021 11:00:00 AM 16.69 62.042 0.053 7 2.19 9.26
7/3/2021 11:15:00 AM 16.66 61.988 0.053 6.99 2.09 9.21
7/3/2021 11:30:00 AM 16.67 62.006 0.053 6.97 2 9.15
7/3/2021 11:45:00 AM 16.73 62.114 0.053 6.98 2.09 9.2
7/3/2021 12:00:00 PM 16.81 62.258 0.053 6.99 2.19 9.26
7/3/2021 12:15:00 PM 17.03 62.654 0.053 7.02 2.17 9.29
7/3/2021 12:30:00 PM 17.33 63.194 0.053 7.03 2.07 9.33
7/3/2021 12:45:00 PM 17.7 63.86 0.053 7.04 2.09 9.27
7/3/2021 1:00:00 PM 17.99 64.382 0.053 7.04 2.03 9.25
7/3/2021 1:15:00 PM 18.12 64.616 0.053 7.05 2.12 9.18
7/3/2021 1:30:00 PM 18.21 64.778 0.053 7.05 2.32 9.17
7/3/2021 1:45:00 PM 18.41 65.138 0.053 7.06 2.28 9.17
7/3/2021 2:00:00 PM 18.38 65.084 0.053 7.05 2.14 9.09
7/3/2021 2:15:00 PM 18.34 65.012 0.053 7.05 2.11 9.12
7/3/2021 2:30:00 PM 18.49 65.282 0.053 7.06 2.02 9.12
7/3/2021 2:45:00 PM 18.75 65.75 0.053 7.08 2.29 9.12
7/3/2021 3:00:00 PM 18.79 65.82201 0.053 7.08 2.23 9.08
7/3/2021 3:15:00 PM 18.69 65.642 0.054 7.07 2.14 9.06
7/3/2021 3:30:00 PM 18.57 65.426 0.054 7.05 2.04 8.95
7/3/2021 3:45:00 PM 18.57 65.426 0.054 7.06 2.14 9
7/3/2021 4:00:00 PM 18.62 65.516 0.054 7.06 2.28 8.98
7/3/2021 4:15:00 PM 18.68 65.624 0.054 7.07 2.22 8.97
7/3/2021 4:30:00 PM 18.64 65.552 0.055 7.06 2.25 8.95
7/3/2021 4:45:00 PM 18.62 65.516 0.055 7.06 2.14 8.97
7/3/2021 5:00:00 PM 18.58 65.444 0.055 7.06 2.08 8.95
7/3/2021 5:15:00 PM 18.49 65.282 0.055 7.05 2.31 8.96
7/3/2021 5:30:00 PM 18.42 65.156 0.055 7.04 2.51 8.92
7/3/2021 5:45:00 PM 18.44 65.192 0.055 7.05 2.15 8.94
7/3/2021 6:00:00 PM 18.45 65.21 0.055 7.05 2.17 8.95
7/3/2021 6:15:00 PM 18.37 65.066 0.055 7.05 2.26 8.93
7/3/2021 6:30:00 PM 18.26 64.868 0.055 7.04 2.27 8.94
7/3/2021 6:45:00 PM 18.18 64.724 0.055 7.03 2.28 8.86
7/3/2021 7:00:00 PM 18.07 64.526 0.055 7.01 2.11 8.8
7/3/2021 7:15:00 PM 17.89 64.202 0.054 6.98 2.28 8.8
7/3/2021 7:30:00 PM 17.79 64.022 0.054 6.97 2.48 8.77
7/3/2021 7:45:00 PM 17.7 63.86 0.053 6.96 2.17 8.78
7/3/2021 8:00:00 PM 17.6 63.68 0.053 6.96 2.34 8.79
7/3/2021 8:15:00 PM 17.52 63.536 0.054 6.95 2.27 8.8
7/3/2021 8:30:00 PM 17.44 63.392 0.054 6.96 4.1 8.77
7/3/2021 8:45:00 PM 17.38 63.284 0.055 6.94 4.51 8.74
7/3/2021 9:00:00 PM 17.32 63.176 0.055 6.94 4.29 8.73
7/3/2021 9:15:00 PM 17.27 63.086 0.055 6.93 3.25 8.7
7/3/2021 9:30:00 PM 17.22 62.996 0.055 6.93 3.12 8.71
7/3/2021 9:45:00 PM 17.16 62.888 0.056 6.93 3.16 8.73
7/3/2021 10:00:00 PM 17.09 62.762 0.057 6.93 2.89 8.73
7/3/2021 10:15:00 PM 17.02 62.636 0.057 6.93 2.85 8.74
7/3/2021 10:30:00 PM 16.96 62.528 0.057 6.93 2.31 8.76
7/3/2021 10:45:00 PM 16.91 62.438 0.057 6.94 2.62 8.76
7/3/2021 11:00:00 PM 16.86 62.348 0.057 6.92 2.63 8.76
7/3/2021 11:15:00 PM 16.82 62.276 0.058 6.93 2.58 8.78
7/3/2021 11:30:00 PM 16.77 62.186 0.058 6.93 2.5 8.78
7/3/2021 11:45:00 PM 16.72 62.096 0.058 6.93 2.46 8.79
7/4/2021 12:00:00 AM 16.68 62.024 0.059 6.94 2.54 8.81
7/4/2021 12:15:00 AM 16.64 61.952 0.059 6.94 2.91 8.83
7/4/2021 12:30:00 AM 16.6 61.88 0.059 6.94 4.49 8.8
7/4/2021 12:45:00 AM 16.55 61.79 0.059 6.93 3.94 8.84
7/4/2021 1:00:00 AM 16.51 61.718 0.059 6.93 3.41 8.85
7/4/2021 1:15:00 AM 16.46 61.628 0.058 6.93 2.78 8.87
7/4/2021 1:30:00 AM 16.41 61.538 0.058 6.93 2.65 8.87
7/4/2021 1:45:00 AM 16.37 61.466 0.058 6.93 3.15 8.88
7/4/2021 2:00:00 AM 16.32 61.376 0.058 6.93 3.71 8.88
7/4/2021 2:15:00 AM 16.26 61.268 0.057 6.93 3.12 8.9
7/4/2021 2:30:00 AM 16.21 61.178 0.057 6.92 2.34 8.91
7/4/2021 2:45:00 AM 16.16 61.088 0.057 6.92 2.24 8.91
7/4/2021 3:00:00 AM 16.09 60.962 0.057 6.92 2.33 8.93
7/4/2021 3:15:00 AM 16.03 60.854 0.057 6.92 2.3 8.94
7/4/2021 3:30:00 AM 15.97 60.746 0.057 6.92 2.39 8.96
7/4/2021 3:45:00 AM 15.91 60.638 0.057 6.92 2.24 8.97
7/4/2021 4:00:00 AM 15.84 60.512 0.057 6.91 2.27 8.98
7/4/2021 4:15:00 AM 15.78 60.404 0.056 6.91 2.2 9.01
7/4/2021 4:30:00 AM 15.72 60.296 0.056 6.91 2.4 9.03
7/4/2021 4:45:00 AM 15.65 60.17 0.056 6.91 2.29 9.02
7/4/2021 5:00:00 AM 15.58 60.044 0.056 6.91 2.38 9.06
7/4/2021 5:15:00 AM 15.52 59.936 0.056 6.9 2.43 9.06
7/4/2021 5:30:00 AM 15.45 59.81 0.055 6.9 2.47 9.07
7/4/2021 5:45:00 AM 15.4 59.72 0.055 6.9 2.33 9.08
7/4/2021 6:00:00 AM 15.34 59.612 0.055 6.9 2.31 9.1
7/4/2021 6:15:00 AM 15.29 59.522 0.055 6.9 2.42 9.14
7/4/2021 6:30:00 AM 15.24 59.432 0.055 6.9 2.24 9.17
7/4/2021 6:45:00 AM 15.2 59.36 0.054 6.89 2.23 9.22
7/4/2021 7:00:00 AM 15.18 59.324 0.054 6.9 2.24 9.25
7/4/2021 7:15:00 AM 15.15 59.27 0.054 6.91 2.25 9.31
7/4/2021 7:30:00 AM 15.14 59.252 0.054 6.93 2.27 9.38
7/4/2021 7:45:00 AM 15.15 59.27 0.054 6.94 2.29 9.44
7/4/2021 8:00:00 AM 15.16 59.288 0.053 6.94 2.16 9.48
7/4/2021 8:15:00 AM 15.2 59.36 0.053 6.96 2.11 9.51
7/4/2021 8:30:00 AM 15.22 59.396 0.053 6.97 2.16 9.52
7/4/2021 8:45:00 AM 15.27 59.486 0.053 6.97 2.08 9.52
7/4/2021 9:00:00 AM 15.36 59.648 0.053 6.97 2.13 9.52
7/4/2021 9:15:00 AM 15.5 59.9 0.053 6.98 2.22 9.53
7/4/2021 9:30:00 AM 15.65 60.17 0.053 6.99 2.31 9.55
7/4/2021 9:45:00 AM 15.83 60.494 0.053 7 2.13 9.54
7/4/2021 10:00:00 AM 15.96 60.728 0.053 7 2.33 9.55
7/4/2021 10:15:00 AM 16.18 61.124 0.052 7.02 2.1 9.56
7/4/2021 10:30:00 AM 16.29 61.322 0.052 7.02 2.07 9.54
7/4/2021 10:45:00 AM 16.32 61.376 0.052 7.01 2.1 9.52
7/4/2021 11:00:00 AM 16.44 61.592 0.052 7.02 2.19 9.52
7/4/2021 11:15:00 AM 16.62 61.916 0.052 7.03 2.16 9.51
7/4/2021 11:30:00 AM 16.67 62.006 0.052 7.04 2.22 9.49
7/4/2021 11:45:00 AM 16.85 62.33 0.052 7.04 2.28 9.45
7/4/2021 12:00:00 PM 16.98 62.564 0.052 7.03 2.13 9.42
7/4/2021 12:15:00 PM 17.19 62.942 0.052 7.04 2.42 9.42
7/4/2021 12:30:00 PM 17.58 63.644 0.052 7.05 2.2 9.38
7/4/2021 12:45:00 PM 18.01 64.418 0.052 7.07 2.17 9.34
7/4/2021 1:00:00 PM 18.36 65.048 0.052 7.07 2.26 9.27
7/4/2021 1:15:00 PM 18.74 65.732 0.051 7.08 2.25 9.23
7/4/2021 1:30:00 PM 19.15 66.47 0.052 7.08 2.08 9.14
7/4/2021 1:45:00 PM 19.48 67.064 0.052 7.08 2.04 9.07
7/4/2021 2:00:00 PM 19.71 67.478 0.052 7.08 2.26 8.99
7/4/2021 2:15:00 PM 19.73 67.514 0.052 7.07 2.06 8.94
7/4/2021 2:30:00 PM 19.99 67.982 0.052 7.08 2.06 8.94
7/4/2021 2:45:00 PM 20.22 68.396 0.052 7.09 2.28 8.89
7/4/2021 3:00:00 PM 20.28 68.504 0.052 7.08 2.16 8.8
7/4/2021 3:15:00 PM 20.44 68.792 0.052 7.08 2.13 8.79
7/4/2021 3:30:00 PM 20.55 68.99 0.052 7.08 2.13 8.73
7/4/2021 3:45:00 PM 20.62 69.116 0.052 7.08 2.15 8.71
7/4/2021 4:00:00 PM 20.61 69.098 0.052 7.08 2.06 8.69
7/4/2021 4:15:00 PM 20.57 69.026 0.052 7.07 2.15 8.66
7/4/2021 4:30:00 PM 20.53 68.954 0.052 7.06 2.36 8.64
7/4/2021 4:45:00 PM 20.53 68.954 0.052 7.05 2.2 8.61
7/4/2021 5:00:00 PM 20.48 68.864 0.052 7.04 2.2 8.57
7/4/2021 5:15:00 PM 20.43 68.774 0.052 7.03 2.19 8.52
7/4/2021 5:30:00 PM 20.34 68.612 0.052 7.02 2.19 8.52
7/4/2021 5:45:00 PM 20.22 68.396 0.052 7.01 12.11 8.48
7/4/2021 6:00:00 PM 20.14 68.252 0.052 7 2.25 8.46
7/4/2021 6:15:00 PM 20.05 68.09 0.052 6.99 2.16 8.47
7/4/2021 6:30:00 PM 19.96 67.92799 0.052 6.99 2.24 8.47
7/4/2021 6:45:00 PM 19.84 67.712 0.052 6.98 2.15 8.48
7/4/2021 7:00:00 PM 19.7 67.46 0.052 6.97 2.24 8.49
7/4/2021 7:15:00 PM 19.57 67.226 0.052 6.96 2.11 8.47
7/4/2021 7:30:00 PM 19.44 66.992 0.052 6.95 2.31 8.46
7/4/2021 7:45:00 PM 19.3 66.74 0.052 6.93 2.12 8.45
7/4/2021 8:00:00 PM 19.17 66.506 0.052 6.93 2.23 8.45
7/4/2021 8:15:00 PM 19.05 66.29 0.052 6.93 2.19 8.46
7/4/2021 8:30:00 PM 18.95 66.11 0.052 6.92 2.01 8.46
7/4/2021 8:45:00 PM 18.86 65.948 0.052 6.91 2.11 8.44
7/4/2021 9:00:00 PM 18.77 65.786 0.053 6.9 2.21 8.42
7/4/2021 9:15:00 PM 18.7 65.66 0.053 6.89 1.99 8.42
7/4/2021 9:30:00 PM 18.62 65.516 0.053 6.9 2 8.44
7/4/2021 9:45:00 PM 18.55 65.39 0.053 6.88 2.56 8.41
7/4/2021 10:00:00 PM 18.47 65.246 0.053 6.88 2.14 8.44
7/4/2021 10:15:00 PM 18.4 65.12 0.053 6.88 2.07 8.47
7/4/2021 10:30:00 PM 18.32 64.976 0.053 6.87 1.94 8.45
7/4/2021 10:45:00 PM 18.24 64.832 0.053 6.87 2.06 8.45
7/4/2021 11:00:00 PM 18.16 64.688 0.053 6.86 2.08 8.46
7/4/2021 11:15:00 PM 18.07 64.526 0.053 6.86 2.17 8.49
7/4/2021 11:30:00 PM 17.99 64.382 0.053 6.87 2.19 8.52
7/4/2021 11:45:00 PM 17.9 64.22 0.053 6.87 2.24 8.54
7/5/2021 12:00:00 AM 17.81 64.058 0.053 6.86 2.09 8.54
7/5/2021 12:15:00 AM 17.72 63.896 0.053 6.86 2.19 8.57
7/5/2021 12:30:00 AM 17.63 63.734 0.053 6.87 2 8.58
7/5/2021 12:45:00 AM 17.55 63.59 0.053 6.86 2 8.59
7/5/2021 1:00:00 AM 17.48 63.464 0.053 6.85 2.36 8.59
7/5/2021 1:15:00 AM 17.41 63.338 0.053 6.86 1.98 8.62
7/5/2021 1:30:00 AM 17.33 63.194 0.053 6.85 2.01 8.62
7/5/2021 1:45:00 AM 17.27 63.086 0.054 6.86 2.12 8.65
7/5/2021 2:00:00 AM 17.19 62.942 0.054 6.85 2.18 8.66
7/5/2021 2:15:00 AM 17.12 62.816 0.054 6.86 2.02 8.68
7/5/2021 2:30:00 AM 17.05 62.69 0.054 6.86 1.9 8.69
7/5/2021 2:45:00 AM 16.98 62.564 0.054 6.85 2.04 8.71
7/5/2021 3:00:00 AM 16.91 62.438 0.054 6.85 1.91 8.72
7/5/2021 3:15:00 AM 16.84 62.312 0.054 6.85 1.99 8.74
7/5/2021 3:30:00 AM 16.77 62.186 0.054 6.85 2.22 8.74
7/5/2021 3:45:00 AM 16.69 62.042 0.054 6.85 1.98 8.76
7/5/2021 4:00:00 AM 16.63 61.934 0.054 6.84 2.04 8.76
7/5/2021 4:15:00 AM 16.56 61.808 0.054 6.84 2.11 8.76
7/5/2021 4:30:00 AM 16.49 61.682 0.054 6.83 2.24 8.75
7/5/2021 4:45:00 AM 16.42 61.556 0.054 6.84 2.14 8.8
7/5/2021 5:00:00 AM 16.35 61.43 0.054 6.84 2.51 8.81
7/5/2021 5:15:00 AM 16.29 61.322 0.054 6.84 2.27 8.83
7/5/2021 5:30:00 AM 16.23 61.214 0.054 6.84 2 8.82
7/5/2021 5:45:00 AM 16.16 61.088 0.054 6.84 2.12 8.85
7/5/2021 6:00:00 AM 16.09 60.962 0.055 6.84 2.1 8.85
7/5/2021 6:15:00 AM 16.03 60.854 0.055 6.85 2.29 8.93
7/5/2021 6:30:00 AM 15.98 60.764 0.055 6.85 2.14 8.94
7/5/2021 6:45:00 AM 15.92 60.656 0.054 6.86 1.89 9.03
7/5/2021 7:00:00 AM 15.89 60.602 0.054 6.87 1.86 9.08
7/5/2021 7:15:00 AM 15.86 60.548 0.055 6.88 2 9.1
7/5/2021 7:30:00 AM 15.83 60.494 0.054 6.89 1.91 9.16
7/5/2021 7:45:00 AM 15.83 60.494 0.055 6.89 1.9 9.2
7/5/2021 8:00:00 AM 15.82 60.476 0.055 6.9 3.57 9.25
7/5/2021 8:15:00 AM 15.83 60.494 0.055 6.91 1.82 9.28
7/5/2021 8:30:00 AM 15.87 60.566 0.055 6.92 1.93 9.33
7/5/2021 8:45:00 AM 15.94 60.692 0.054 6.94 1.85 9.37
7/5/2021 9:00:00 AM 16.04 60.872 0.055 6.95 2.07 9.39
7/5/2021 9:15:00 AM 16.16 61.088 0.055 6.95 1.97 9.4
7/5/2021 9:30:00 AM 16.3 61.34 0.054 6.97 2.44 9.43
7/5/2021 9:45:00 AM 16.46 61.628 0.054 6.98 1.97 9.46
7/5/2021 10:00:00 AM 16.63 61.934 0.054 6.97 1.83 9.47
7/5/2021 10:15:00 AM 16.8 62.24 0.055 6.98 1.97 9.43
7/5/2021 10:30:00 AM 17 62.6 0.054 7 1.86 9.46
7/5/2021 10:45:00 AM 17.22 62.996 0.055 7 1.9 9.45
7/5/2021 11:00:00 AM 17.48 63.464 0.054 7.02 2.04 9.44
7/5/2021 11:15:00 AM 17.73 63.914 0.054 7.03 1.75 9.43
7/5/2021 11:30:00 AM 18 64.4 0.054 7.03 1.82 9.42
7/5/2021 11:45:00 AM 18.25 64.85 0.054 7.03 1.92 9.33
7/5/2021 12:00:00 PM 18.55 65.39 0.054 7.06 2.04 9.32
7/5/2021 12:15:00 PM 18.83 65.894 0.054 7.07 2.13 9.26
7/5/2021 12:30:00 PM 19.12 66.416 0.054 7.07 1.94 9.26
7/5/2021 12:45:00 PM 19.44 66.992 0.054 7.09 1.9 9.2
7/5/2021 1:00:00 PM 19.7 67.46 0.054 7.08 1.79 9.15
7/5/2021 1:15:00 PM 19.98 67.964 0.054 7.09 1.99 9.06
7/5/2021 1:30:00 PM 20.26 68.468 0.054 7.1 1.9 9.03
7/5/2021 1:45:00 PM 20.48 68.864 0.054 7.1 1.91 8.99
7/5/2021 2:00:00 PM 20.62 69.116 0.054 7.1 1.9 8.95
7/5/2021 2:15:00 PM 20.8 69.44 0.054 7.1 1.96 8.84
7/5/2021 2:30:00 PM 21.01 69.818 0.054 7.1 1.83 8.83
7/5/2021 2:45:00 PM 21.26 70.268 0.054 7.12 1.93 8.83
7/5/2021 3:00:00 PM 21.36 70.448 0.054 7.1 2.01 8.73
7/5/2021 3:15:00 PM 21.5 70.7 0.054 7.11 1.94 8.71
7/5/2021 3:30:00 PM 21.63 70.934 0.054 7.11 1.93 8.68
7/5/2021 3:45:00 PM 21.69 71.042 0.055 7.1 1.83 8.62
7/5/2021 4:00:00 PM 21.77 71.186 0.054 7.11 2.05 8.61
7/5/2021 4:15:00 PM 21.78 71.204 0.054 7.09 1.82 8.54
7/5/2021 4:30:00 PM 21.78 71.204 0.055 7.08 1.92 8.51
7/5/2021 4:45:00 PM 21.76 71.168 0.055 7.08 2 8.47
7/5/2021 5:00:00 PM 21.73 71.114 0.055 7.08 2.02 8.45
7/5/2021 5:15:00 PM 21.65 70.97 0.055 7.06 2.07 8.41
7/5/2021 5:30:00 PM 21.6 70.88 0.055 7.06 1.85 8.39
7/5/2021 5:45:00 PM 21.52 70.736 0.055 7.05 1.83 8.39
7/5/2021 6:00:00 PM 21.44 70.592 0.055 7.04 1.82 8.35
7/5/2021 6:15:00 PM 21.34 70.412 0.055 7.04 1.99 8.38
7/5/2021 6:30:00 PM 21.24 70.232 0.055 7.03 1.87 8.34
7/5/2021 6:45:00 PM 21.11 69.998 0.055 7.01 1.7 8.34
7/5/2021 7:00:00 PM 20.96 69.728 0.055 6.99 1.93 8.25
7/5/2021 7:15:00 PM 20.82 69.476 0.055 6.99 1.83 8.3
7/5/2021 7:30:00 PM 20.66 69.188 0.055 6.97 1.93 8.29
7/5/2021 7:45:00 PM 20.5 68.9 0.055 6.96 1.82 8.3
7/5/2021 8:00:00 PM 20.36 68.648 0.055 6.95 2.22 8.29
7/5/2021 8:15:00 PM 20.22 68.396 0.055 6.94 1.9 8.26
7/5/2021 8:30:00 PM 20.09 68.162 0.056 6.93 1.87 8.23
7/5/2021 8:45:00 PM 19.97 67.946 0.056 6.91 1.91 8.2
7/5/2021 9:00:00 PM 19.86 67.748 0.056 6.89 1.92 8.16
7/5/2021 9:15:00 PM 19.76 67.568 0.056 6.88 1.86 8.18
7/5/2021 9:30:00 PM 19.67 67.406 0.056 6.88 1.86 8.14
7/5/2021 9:45:00 PM 19.57 67.226 0.056 6.89 2.02 8.19
7/5/2021 10:00:00 PM 19.49 67.082 0.056 6.88 13.39 8.11
7/5/2021 10:15:00 PM 19.4 66.92 0.056 6.87 2.55 8.18
7/5/2021 10:30:00 PM 19.32 66.776 0.056 6.88 1.79 8.23
7/5/2021 10:45:00 PM 19.25 66.65 0.056 6.87 1.81 8.21
7/5/2021 11:00:00 PM 19.17 66.506 0.056 6.87 1.97 8.23
7/5/2021 11:15:00 PM 19.1 66.38 0.056 6.86 1.79 8.24
7/5/2021 11:30:00 PM 19.03 66.254 0.057 6.85 1.84 8.21
7/5/2021 11:45:00 PM 18.96 66.128 0.056 6.87 2 8.26
7/6/2021 12:00:00 AM 18.89 66.002 0.057 6.86 1.89 8.26
7/6/2021 12:15:00 AM 18.82 65.876 0.056 6.86 1.73 8.28
7/6/2021 12:30:00 AM 18.75 65.75 0.056 6.87 2.11 8.3
7/6/2021 12:45:00 AM 18.68 65.624 0.057 6.87 1.81 8.3
7/6/2021 1:00:00 AM 18.62 65.516 0.057 6.87 1.83 8.28
7/6/2021 1:15:00 AM 18.56 65.408 0.056 6.87 1.89 8.35
7/6/2021 1:30:00 AM 18.5 65.3 0.057 6.86 1.79 8.35
7/6/2021 1:45:00 AM 18.43 65.174 0.057 6.85 1.84 8.29
7/6/2021 2:00:00 AM 18.38 65.084 0.057 6.86 1.93 8.36
7/6/2021 2:15:00 AM 18.32 64.976 0.057 6.87 1.87 8.37
7/6/2021 2:30:00 AM 18.26 64.868 0.057 6.85 1.9 8.36
7/6/2021 2:45:00 AM 18.2 64.76 0.057 6.86 1.91 8.38
7/6/2021 3:00:00 AM 18.14 64.652 0.057 6.85 2.03 8.38
7/6/2021 3:15:00 AM 18.09 64.562 0.057 6.86 1.78 8.41
7/6/2021 3:30:00 AM 18.03 64.454 0.057 6.86 2.16 8.41
7/6/2021 3:45:00 AM 17.97 64.346 0.057 6.83 1.82 8.32
7/6/2021 4:00:00 AM 17.92 64.256 0.057 6.85 2.23 8.45
7/6/2021 4:15:00 AM 17.86 64.148 0.057 6.84 1.74 8.44
7/6/2021 4:30:00 AM 17.81 64.058 0.057 6.85 1.94 8.45
7/6/2021 4:45:00 AM 17.75 63.95 0.057 6.85 1.92 8.48
7/6/2021 5:00:00 AM 17.7 63.86 0.057 6.85 1.9 8.47
7/6/2021 5:15:00 AM 17.65 63.77 0.057 6.85 1.86 8.51
7/6/2021 5:30:00 AM 17.6 63.68 0.057 6.85 1.8 8.49
7/6/2021 5:45:00 AM 17.55 63.59 0.057 6.86 1.82 8.52
7/6/2021 6:00:00 AM 17.51 63.518 0.057 6.84 1.87 8.44
7/6/2021 6:15:00 AM 17.47 63.446 0.057 6.86 1.81 8.58
7/6/2021 6:30:00 AM 17.44 63.392 0.057 6.86 1.79 8.58
7/6/2021 6:45:00 AM 17.41 63.338 0.057 6.87 1.84 8.65
7/6/2021 7:00:00 AM 17.39 63.302 0.058 6.87 1.73 8.68
7/6/2021 7:15:00 AM 17.39 63.302 0.057 6.89 1.76 8.79
7/6/2021 7:30:00 AM 17.4 63.32 0.057 6.89 1.9 8.84
7/6/2021 7:45:00 AM 17.41 63.338 0.057 6.92 1.64 8.92
7/6/2021 8:00:00 AM 17.43 63.374 0.057 6.91 1.76 8.92
7/6/2021 8:15:00 AM 17.45 63.41 0.057 6.93 2.25 8.95
7/6/2021 8:30:00 AM 17.5 63.5 0.057 6.93 1.82 9.03
7/6/2021 8:45:00 AM 17.57 63.626 0.057 6.96 1.65 9.1
7/6/2021 9:00:00 AM 17.66 63.788 0.057 6.97 1.77 9.12
7/6/2021 9:15:00 AM 17.79 64.022 0.057 6.98 1.82 9.18
7/6/2021 9:30:00 AM 17.95 64.31 0.057 7 1.67 9.17
7/6/2021 9:45:00 AM 18.12 64.616 0.057 7.01 2.3 9.14
7/6/2021 10:00:00 AM 18.3 64.94 0.057 7.03 1.75 9.16
7/6/2021 10:15:00 AM 18.51 65.318 0.057 7.03 2.08 9.15
7/6/2021 10:30:00 AM 18.75 65.75 0.057 7.05 1.74 9.17
7/6/2021 10:45:00 AM 19 66.2 0.057 7.07 1.78 9.13
7/6/2021 11:00:00 AM 19.2 66.56 0.057 7.06 1.79 9.08
7/6/2021 11:15:00 AM 19.46 67.028 0.057 7.08 1.65 9.12
7/6/2021 11:30:00 AM 19.69 67.442 0.057 7.09 1.72 9.11
7/6/2021 11:45:00 AM 19.98 67.964 0.057 7.1 1.82 9.08
7/6/2021 12:00:00 PM 20.22 68.396 0.057 7.09 1.78 9
7/6/2021 12:15:00 PM 20.5 68.9 0.057 7.11 1.72 9
7/6/2021 12:30:00 PM 20.74 69.332 0.057 7.11 1.75 8.95
7/6/2021 12:45:00 PM 20.99 69.782 0.057 7.12 1.79 8.9
7/6/2021 1:00:00 PM 21.25 70.25 0.057 7.14 1.77 8.86
7/6/2021 1:15:00 PM 21.51 70.718 0.057 7.14 1.65 8.84
7/6/2021 1:30:00 PM 21.73 71.114 0.057 7.14 2.12 8.77
7/6/2021 1:45:00 PM 21.91 71.438 0.057 7.14 1.73 8.72
7/6/2021 2:00:00 PM 22.1 71.78 0.057 7.14 2.04 8.7
7/6/2021 2:15:00 PM 22.33 72.194 0.057 7.16 1.94 8.67
7/6/2021 2:30:00 PM 22.52 72.536 0.057 7.16 1.95 8.62
7/6/2021 2:45:00 PM 22.61 72.698 0.057 7.12 1.97 8.57
7/6/2021 3:00:00 PM 22.8 73.04 0.057 7.15 1.79 8.52
7/6/2021 3:15:00 PM 22.92 73.256 0.057 7.14 1.84 8.47
7/6/2021 3:30:00 PM 23.04 73.472 0.057 7.16 1.94 8.45
7/6/2021 3:45:00 PM 23.03 73.454 0.057 7.15 1.78 8.36
7/6/2021 4:00:00 PM 22.77 72.986 0.057 7.11 1.89 8.15
7/6/2021 4:15:00 PM 22.5 72.5 0.057 7.05 1.99 8
7/6/2021 4:30:00 PM 22.33 72.194 0.057 7.03 1.89 7.93
7/6/2021 4:45:00 PM 22.22 71.996 0.057 7 2 7.87
7/6/2021 5:00:00 PM 22.11 71.798 0.057 7.01 1.78 7.93
7/6/2021 5:15:00 PM 22 71.6 0.057 7.01 1.72 8
7/6/2021 5:30:00 PM 21.88 71.384 0.057 7.03 1.71 8.1
7/6/2021 5:45:00 PM 21.78 71.204 0.057 7.03 1.76 8.21
7/6/2021 6:00:00 PM 21.68 71.024 0.057 7.03 1.77 8.22
7/6/2021 6:15:00 PM 21.6 70.88 0.057 7.05 1.85 8.26
7/6/2021 6:30:00 PM 21.51 70.718 0.057 7.03 1.82 8.24
7/6/2021 6:45:00 PM 21.38 70.484 0.057 7.01 1.81 8.2
7/6/2021 7:00:00 PM 21.31 70.358 0.057 7.03 2.01 8.23
7/6/2021 7:15:00 PM 21.23 70.214 0.057 7.03 1.81 8.22
7/6/2021 7:30:00 PM 21.14 70.052 0.057 7.02 1.84 8.21
7/6/2021 7:45:00 PM 21.02 69.836 0.057 7.01 1.75 8.19
7/6/2021 8:00:00 PM 20.9 69.62 0.058 7.01 1.83 8.14
7/6/2021 8:15:00 PM 20.77 69.386 0.058 6.99 1.92 8.14
7/6/2021 8:30:00 PM 20.66 69.188 0.059 6.98 1.77 8.07
7/6/2021 8:45:00 PM 20.53 68.954 0.06 6.96 1.93 8.06
7/6/2021 9:00:00 PM 20.43 68.774 0.06 6.95 1.74 8.05
7/6/2021 9:15:00 PM 20.34 68.612 0.06 6.95 1.95 7.94
7/6/2021 9:30:00 PM 20.25 68.45 0.061 6.94 1.91 8.03
7/6/2021 9:45:00 PM 20.17 68.306 0.061 6.94 2 8.01
7/6/2021 10:00:00 PM 20.09 68.162 0.061 6.93 1.92 8.04
7/6/2021 10:15:00 PM 20.01 68.018 0.061 6.93 2.15 8.07
7/6/2021 10:30:00 PM 19.95 67.91 0.062 6.93 2.34 8.06
7/6/2021 10:45:00 PM 19.89 67.802 0.063 6.93 2.43 8.04
7/6/2021 11:00:00 PM 19.83 67.694 0.063 6.93 2.76 8.07
7/6/2021 11:15:00 PM 19.77 67.586 0.063 6.93 2.68 8.09
7/6/2021 11:30:00 PM 19.71 67.478 0.063 6.92 2.56 8.09
7/6/2021 11:45:00 PM 19.65 67.37 0.063 6.93 2.63 8.12
7/7/2021 12:00:00 AM 19.59 67.262 0.062 6.93 2.44 8.14
7/7/2021 12:15:00 AM 19.53 67.154 0.061 6.91 2.22 8.1
7/7/2021 12:30:00 AM 19.47 67.046 0.061 6.91 2.07 8.11
7/7/2021 12:45:00 AM 19.41 66.938 0.06 6.91 2.07 8.16
7/7/2021 1:00:00 AM 19.35 66.83 0.06 6.91 2.11 8.16
7/7/2021 1:15:00 AM 19.29 66.722 0.06 6.9 3.97 8.16
7/7/2021 1:30:00 AM 19.23 66.614 0.059 6.9 2.51 8.19
7/7/2021 1:45:00 AM 19.16 66.488 0.059 6.89 2.49 8.19
7/7/2021 2:00:00 AM 19.1 66.38 0.059 6.91 2.42 8.23
7/7/2021 2:15:00 AM 19.05 66.29 0.059 6.89 2.39 8.22
7/7/2021 2:30:00 AM 18.99 66.182 0.059 6.88 2.6 8.17
7/7/2021 2:45:00 AM 18.92 66.056 0.059 6.9 2.24 8.26
7/7/2021 3:00:00 AM 18.86 65.948 0.059 6.89 2.6 8.27
7/7/2021 3:15:00 AM 18.8 65.84 0.058 6.9 2.35 8.25
7/7/2021 3:30:00 AM 18.75 65.75 0.058 6.9 2.25 8.29
7/7/2021 3:45:00 AM 18.7 65.66 0.058 6.9 2.29 8.3
7/7/2021 4:00:00 AM 18.65 65.57 0.058 6.89 2.16 8.19
7/7/2021 4:15:00 AM 18.6 65.48 0.058 6.89 2.12 8.32
7/7/2021 4:30:00 AM 18.55 65.39 0.058 6.89 2.06 8.35
7/7/2021 4:45:00 AM 18.5 65.3 0.058 6.89 1.98 8.37
7/7/2021 5:00:00 AM 18.46 65.228 0.058 6.89 1.97 8.39
7/7/2021 5:15:00 AM 18.42 65.156 0.057 6.89 1.95 8.38
7/7/2021 5:30:00 AM 18.38 65.084 0.057 6.9 1.92 8.39
7/7/2021 5:45:00 AM 18.35 65.03 0.057 6.89 2.08 8.4
7/7/2021 6:00:00 AM 18.32 64.976 0.057 6.89 2.01 8.42
7/7/2021 6:15:00 AM 18.29 64.922 0.057 6.9 2.3 8.44
7/7/2021 6:30:00 AM 18.27 64.886 0.057 6.9 2.08 8.49
7/7/2021 6:45:00 AM 18.26 64.868 0.057 6.91 1.8 8.54
7/7/2021 7:00:00 AM 18.25 64.85 0.057 6.91 1.96 8.59
7/7/2021 7:15:00 AM 18.24 64.832 0.057 6.94 1.83 8.65
7/7/2021 7:30:00 AM 18.24 64.832 0.056 6.95 1.88 8.72
7/7/2021 7:45:00 AM 18.24 64.832 0.056 6.96 1.96 8.8
7/7/2021 8:00:00 AM 18.26 64.868 0.056 6.96 1.96 8.85
7/7/2021 8:15:00 AM 18.27 64.886 0.056 6.97 2.09 8.88
7/7/2021 8:30:00 AM 18.31 64.958 0.056 6.99 1.95 8.92
7/7/2021 8:45:00 AM 18.35 65.03 0.055 6.99 2.01 8.94
7/7/2021 9:00:00 AM 18.42 65.156 0.055 7.01 2.03 8.99
7/7/2021 9:15:00 AM 18.5 65.3 0.055 7.01 2.19 9
7/7/2021 9:30:00 AM 18.62 65.516 0.055 7.02 1.95 9.04
7/7/2021 9:45:00 AM 18.76 65.768 0.055 7.03 2.02 9.03
7/7/2021 10:00:00 AM 18.92 66.056 0.055 7.04 1.99 9.03
7/7/2021 10:15:00 AM 19.1 66.38 0.054 7.06 1.92 9.08
7/7/2021 10:30:00 AM 19.3 66.74 0.054 7.08 1.96 9.09
7/7/2021 10:45:00 AM 19.41 66.938 0.054 7.08 1.88 9.03
7/7/2021 11:00:00 AM 19.57 67.226 0.054 7.09 1.9 9.05
7/7/2021 11:15:00 AM 19.8 67.64 0.054 7.1 2 9.08
7/7/2021 11:30:00 AM 19.98 67.964 0.054 7.13 1.96 9.05
7/7/2021 11:45:00 AM 20.06 68.108 0.054 7.12 2.01 9.01
7/7/2021 12:00:00 PM 20.26 68.468 0.054 7.12 1.96 8.96
7/7/2021 12:15:00 PM 20.53 68.954 0.054 7.14 2 8.96
7/7/2021 12:30:00 PM 20.75 69.35 0.054 7.14 1.89 8.9
7/7/2021 12:45:00 PM 20.99 69.782 0.054 7.15 1.87 8.86
7/7/2021 1:00:00 PM 21.19 70.142 0.054 7.16 1.93 8.84
7/7/2021 1:15:00 PM 21.4 70.52 0.054 7.15 1.91 8.79
7/7/2021 1:30:00 PM 21.64 70.952 0.054 7.17 2 8.77
7/7/2021 1:45:00 PM 21.9 71.42 0.053 7.18 1.9 8.74
7/7/2021 2:00:00 PM 22.15 71.87 0.053 7.19 1.95 8.6
7/7/2021 2:15:00 PM 22.4 72.32 0.053 7.19 2.08 8.61
7/7/2021 2:30:00 PM 22.69 72.842 0.053 7.19 1.85 8.6
7/7/2021 2:45:00 PM 22.87 73.166 0.053 7.2 2.12 8.56
7/7/2021 3:00:00 PM 22.98 73.364 0.053 7.2 1.84 8.51
7/7/2021 3:15:00 PM 22.99 73.382 0.053 7.18 1.98 8.43
7/7/2021 3:30:00 PM 23.07 73.526 0.053 7.17 2.25 8.42
7/7/2021 3:45:00 PM 23.2 73.76 0.053 7.18 2.16 8.4
7/7/2021 4:00:00 PM 23.25 73.85 0.053 7.17 1.77 8.37
7/7/2021 4:15:00 PM 23.28 73.904 0.053 7.16 1.93 8.34
7/7/2021 4:30:00 PM 23.27 73.886 0.053 7.17 2.03 8.31
7/7/2021 4:45:00 PM 23.22 73.796 0.053 7.15 2.01 8.28
7/7/2021 5:00:00 PM 23.13 73.634 0.053 7.15 2.06 8.19
7/7/2021 5:15:00 PM 23.03 73.454 0.054 7.12 1.95 8.19
7/7/2021 5:30:00 PM 22.99 73.382 0.054 7.12 1.9 8.15
7/7/2021 5:45:00 PM 22.91 73.238 0.054 7.1 2.06 8.17
7/7/2021 6:00:00 PM 22.82 73.076 0.054 7.1 1.93 8.15
7/7/2021 6:15:00 PM 22.72 72.896 0.054 7.09 1.99 8.14
7/7/2021 6:30:00 PM 22.6 72.68 0.054 7.08 1.97 8.14
7/7/2021 6:45:00 PM 22.46 72.42799 0.054 7.06 1.91 8.03
7/7/2021 7:00:00 PM 22.3 72.14 0.054 7.05 1.89 8.08
7/7/2021 7:15:00 PM 22.17 71.906 0.054 7.04 1.85 8.03
7/7/2021 7:30:00 PM 22.03 71.654 0.054 7.02 1.93 8.05
7/7/2021 7:45:00 PM 21.89 71.402 0.054 7.01 1.9 8.06
7/7/2021 8:00:00 PM 21.75 71.15 0.054 6.99 1.98 7.98
7/7/2021 8:15:00 PM 21.62 70.916 0.054 6.98 1.79 7.96
7/7/2021 8:30:00 PM 21.5 70.7 0.054 6.95 1.8 7.92
7/7/2021 8:45:00 PM 21.4 70.52 0.054 6.94 1.84 7.91
7/7/2021 9:00:00 PM 21.3 70.34 0.054 6.93 1.89 7.89
7/7/2021 9:15:00 PM 21.21 70.17799 0.055 6.92 1.78 7.89
7/7/2021 9:30:00 PM 21.14 70.052 0.054 6.92 2.36 7.92
7/7/2021 9:45:00 PM 21.04 69.872 0.054 6.92 2.18 7.86
7/7/2021 10:00:00 PM 20.95 69.71 0.054 6.91 2.06 7.81
7/7/2021 10:15:00 PM 20.85 69.53 0.055 6.91 1.87 7.88
7/7/2021 10:30:00 PM 20.76 69.368 0.054 6.92 1.91 7.91
7/7/2021 10:45:00 PM 20.68 69.224 0.054 6.92 2.02 7.93
7/7/2021 11:00:00 PM 20.61 69.098 0.054 6.93 2.35 7.92
7/7/2021 11:15:00 PM 20.55 68.99 0.054 6.93 2.99 7.91
7/7/2021 11:30:00 PM 20.48 68.864 0.054 6.93 1.88 7.89
7/7/2021 11:45:00 PM 20.42 68.756 0.054 6.93 1.88 8.01
7/8/2021 12:00:00 AM 20.36 68.648 0.054 6.93 1.89 8.01
7/8/2021 12:15:00 AM 20.3 68.54 0.054 6.93 2.03 8.02
7/8/2021 12:30:00 AM 20.24 68.432 0.054 6.93 2 8.02
7/8/2021 12:45:00 AM 20.18 68.324 0.054 6.93 1.99 8.03
7/8/2021 1:00:00 AM 20.13 68.234 0.053 6.93 2.07 8.03
7/8/2021 1:15:00 AM 20.08 68.144 0.053 6.92 2.08 8.04
7/8/2021 1:30:00 AM 20.02 68.036 0.053 6.93 2.44 8.07
7/8/2021 1:45:00 AM 19.97 67.946 0.053 6.93 2.38 8.08
7/8/2021 2:00:00 AM 19.91 67.838 0.054 6.93 2.62 8.07
7/8/2021 2:15:00 AM 19.85 67.73 0.054 6.93 2.63 8.11
7/8/2021 2:30:00 AM 19.79 67.622 0.054 6.93 2.88 8.11
7/8/2021 2:45:00 AM 19.73 67.514 0.055 6.93 3.4 8.12
7/8/2021 3:00:00 AM 19.66 67.388 0.055 6.93 3.3 8.13
7/8/2021 3:15:00 AM 19.6 67.28 0.056 6.93 3.43 8.1
7/8/2021 3:30:00 AM 19.53 67.154 0.056 6.93 3.3 8.15
7/8/2021 3:45:00 AM 19.46 67.028 0.056 6.93 3.2 8.16
7/8/2021 4:00:00 AM 19.4 66.92 0.056 6.93 3.47 8.18
7/8/2021 4:15:00 AM 19.33 66.794 0.056 6.93 3.1 8.2
7/8/2021 4:30:00 AM 19.28 66.704 0.057 6.94 3.61 8.19
7/8/2021 4:45:00 AM 19.21 66.578 0.057 6.94 3.18 8.22
7/8/2021 5:00:00 AM 19.16 66.488 0.057 6.93 3.36 8.23
7/8/2021 5:15:00 AM 19.1 66.38 0.057 6.94 3 8.24
7/8/2021 5:30:00 AM 19.05 66.29 0.058 6.94 2.9 8.26
7/8/2021 5:45:00 AM 19 66.2 0.058 6.94 2.74 8.28
7/8/2021 6:00:00 AM 18.96 66.128 0.058 6.94 2.62 8.29
7/8/2021 6:15:00 AM 18.92 66.056 0.058 6.95 2.42 8.26
7/8/2021 6:30:00 AM 18.88 65.984 0.057 6.96 2.23 8.34
7/8/2021 6:45:00 AM 18.86 65.948 0.057 6.96 2.38 8.4
7/8/2021 7:00:00 AM 18.84 65.912 0.057 6.97 2.28 8.45
7/8/2021 7:15:00 AM 18.82 65.876 0.057 6.99 2.16 8.52
7/8/2021 7:30:00 AM 18.81 65.858 0.056 6.99 2.28 8.53
7/8/2021 7:45:00 AM 18.8 65.84 0.056 6.99 2.25 8.54
7/8/2021 8:00:00 AM 18.8 65.84 0.056 7 2.45 8.63
7/8/2021 8:15:00 AM 18.82 65.876 0.056 7.02 2.19 8.71
7/8/2021 8:30:00 AM 18.82 65.876 0.055 7.03 2.29 8.73
7/8/2021 8:45:00 AM 18.83 65.894 0.055 7.03 2.16 8.77
7/8/2021 9:00:00 AM 18.86 65.948 0.055 7.05 2.2 8.82
7/8/2021 9:15:00 AM 18.92 66.056 0.054 7.06 3.03 8.89
7/8/2021 9:30:00 AM 18.99 66.182 0.053 7.07 2.99 8.89
7/8/2021 9:45:00 AM 19.11 66.398 0.051 7.09 3.72 8.95
7/8/2021 10:00:00 AM 19.21 66.578 0.048 7.08 4.46 8.95
7/8/2021 10:15:00 AM 19.24 66.632 0.046 7.05 4.93 8.89
7/8/2021 10:30:00 AM 19.24 66.632 0.045 7.02 4.16 8.84
7/8/2021 10:45:00 AM 19.26 66.668 0.044 7.02 4.41 8.86
7/8/2021 11:00:00 AM 19.3 66.74 0.044 7.02 5.18 8.89
7/8/2021 11:15:00 AM 19.36 66.848 0.043 7.03 4.59 8.91
7/8/2021 11:30:00 AM 19.42 66.956 0.043 7.04 4.51 8.92
7/8/2021 11:45:00 AM 19.47 67.046 0.042 7.04 4.53 8.92
7/8/2021 12:00:00 PM 19.52 67.136 0.042 7.04 4.49 8.92
7/8/2021 12:15:00 PM 19.55 67.19 0.042 7.04 4.47 8.92
7/8/2021 12:30:00 PM 19.57 67.226 0.041 7.04 4.37 8.91
7/8/2021 12:45:00 PM 19.57 67.226 0.041 7.03 4.88 8.87
7/8/2021 1:00:00 PM 19.57 67.226 0.041 7.01 5.26 8.84
7/8/2021 1:15:00 PM 19.55 67.19 0.041 7.01 5.21 8.79
7/8/2021 1:30:00 PM 19.53 67.154 0.041 7 4.83 8.79
7/8/2021 1:45:00 PM 19.54 67.172 0.041 7 4.85 8.82
7/8/2021 2:00:00 PM 19.55 67.19 0.041 7 4.86 8.84
7/8/2021 2:15:00 PM 19.54 67.172 0.041 7.01 4.91 8.81
7/8/2021 2:30:00 PM 19.56 67.208 0.041 7.01 4.39 8.85
7/8/2021 2:45:00 PM 19.57 67.226 0.041 7 4.43 8.83
7/8/2021 3:00:00 PM 19.58 67.244 0.041 7.01 4.3 8.85
7/8/2021 3:15:00 PM 19.61 67.298 0.041 7.01 4 8.87
7/8/2021 3:30:00 PM 19.63 67.334 0.041 7.02 5.09 8.87
7/8/2021 3:45:00 PM 19.65 67.37 0.041 7.02 4.42 8.87
7/8/2021 4:00:00 PM 19.67 67.406 0.041 7.02 4.13 8.86
7/8/2021 4:15:00 PM 19.7 67.46 0.042 7.02 4.03 8.86
7/8/2021 4:30:00 PM 19.73 67.514 0.042 7.03 3.8 8.87
7/8/2021 4:45:00 PM 19.74 67.532 0.042 7.02 4.26 8.83
7/8/2021 5:00:00 PM 19.73 67.514 0.042 7 3.94 8.77
7/8/2021 5:15:00 PM 19.71 67.478 0.042 6.98 3.56 8.72
7/8/2021 5:30:00 PM 19.68 67.424 0.042 6.96 3.67 8.68
7/8/2021 5:45:00 PM 19.65 67.37 0.042 6.95 3.81 8.66
7/8/2021 6:00:00 PM 19.62 67.316 0.042 6.95 3.49 8.63
7/8/2021 6:15:00 PM 19.6 67.28 0.042 6.93 3.54 8.62
7/8/2021 6:30:00 PM 19.58 67.244 0.042 6.93 3.58 8.6
7/8/2021 6:45:00 PM 19.54 67.172 0.043 6.92 3.54 8.58
7/8/2021 7:00:00 PM 19.51 67.118 0.043 6.92 3.29 8.53
7/8/2021 7:15:00 PM 19.48 67.064 0.043 6.91 3.48 8.51
7/8/2021 7:30:00 PM 19.45 67.01 0.043 6.91 3.4 8.5
7/8/2021 7:45:00 PM 19.42 66.956 0.043 6.91 3.26 8.5
7/8/2021 8:00:00 PM 19.38 66.884 0.043 6.9 3.42 8.48
7/8/2021 8:15:00 PM 19.34 66.812 0.043 6.89 3.44 8.47
7/8/2021 8:30:00 PM 19.31 66.758 0.043 6.89 3.66 8.47
7/8/2021 8:45:00 PM 19.27 66.686 0.043 6.89 3.28 8.45
7/8/2021 9:00:00 PM 19.23 66.614 0.043 6.89 3.24 8.45
7/8/2021 9:15:00 PM 19.19 66.542 0.043 6.88 3.61 8.46
7/8/2021 9:30:00 PM 19.15 66.47 0.044 6.88 3.44 8.44
7/8/2021 9:45:00 PM 19.11 66.398 0.044 6.88 3.42 8.46
7/8/2021 10:00:00 PM 19.07 66.326 0.044 6.88 3.19 8.46
7/8/2021 10:15:00 PM 19.04 66.272 0.044 6.88 3.49 8.45
7/8/2021 10:30:00 PM 19 66.2 0.044 6.87 3.38 8.47
7/8/2021 10:45:00 PM 18.96 66.128 0.044 6.87 3.52 8.48
7/8/2021 11:00:00 PM 18.92 66.056 0.044 6.87 3.48 8.48
7/8/2021 11:15:00 PM 18.89 66.002 0.044 6.87 3.86 8.48
7/8/2021 11:30:00 PM 18.85 65.93 0.044 6.88 2.96 8.48
7/8/2021 11:45:00 PM 18.82 65.876 0.044 6.88 3.53 8.49
7/9/2021 12:00:00 AM 18.79 65.82201 0.044 6.87 3.46 8.49
7/9/2021 12:15:00 AM 18.75 65.75 0.045 6.88 3.46 8.5
7/9/2021 12:30:00 AM 18.72 65.696 0.045 6.88 3.36 8.52
7/9/2021 12:45:00 AM 18.69 65.642 0.045 6.88 3.42 8.52
7/9/2021 1:00:00 AM 18.66 65.588 0.045 6.87 3.85 8.53
7/9/2021 1:15:00 AM 18.63 65.534 0.045 6.86 3.54 8.53
7/9/2021 1:30:00 AM 18.6 65.48 0.045 6.86 3.51 8.54
7/9/2021 1:45:00 AM 18.56 65.408 0.045 6.86 3.62 8.55
7/9/2021 2:00:00 AM 18.53 65.354 0.045 6.86 3.43 8.56
7/9/2021 2:15:00 AM 18.5 65.3 0.045 6.86 3.84 8.55
7/9/2021 2:30:00 AM 18.46 65.228 0.045 6.86 3.25 8.57
7/9/2021 2:45:00 AM 18.42 65.156 0.045 6.87 3.44 8.58
7/9/2021 3:00:00 AM 18.39 65.102 0.045 6.86 3.12 8.58
7/9/2021 3:15:00 AM 18.35 65.03 0.045 6.85 3.27 8.57
7/9/2021 3:30:00 AM 18.31 64.958 0.045 6.86 3.5 8.59
7/9/2021 3:45:00 AM 18.28 64.904 0.044 6.85 3.44 8.59
7/9/2021 4:00:00 AM 18.24 64.832 0.044 6.85 3.2 8.61
7/9/2021 4:15:00 AM 18.21 64.778 0.044 6.86 3.29 8.6
7/9/2021 4:30:00 AM 18.18 64.724 0.044 6.85 3.44 8.59
7/9/2021 4:45:00 AM 18.15 64.67 0.044 6.85 3.47 8.61
7/9/2021 5:00:00 AM 18.12 64.616 0.044 6.85 3.28 8.62
7/9/2021 5:15:00 AM 18.09 64.562 0.044 6.85 3.31 8.62
7/9/2021 5:30:00 AM 18.06 64.508 0.044 6.85 3.62 8.63
7/9/2021 5:45:00 AM 18.03 64.454 0.044 6.85 3.64 8.63
7/9/2021 6:00:00 AM 18.01 64.418 0.044 6.85 3.62 8.65
7/9/2021 6:15:00 AM 17.98 64.364 0.044 6.85 3.25 8.68
7/9/2021 6:30:00 AM 17.95 64.31 0.044 6.86 3.43 8.71
7/9/2021 6:45:00 AM 17.94 64.292 0.044 6.86 3.4 8.76
7/9/2021 7:00:00 AM 17.92 64.256 0.044 6.87 3.36 8.79
7/9/2021 7:15:00 AM 17.91 64.238 0.044 6.89 3.08 8.85
7/9/2021 7:30:00 AM 17.91 64.238 0.043 6.9 3.26 8.89
7/9/2021 7:45:00 AM 17.92 64.256 0.043 6.92 3.21 8.95
7/9/2021 8:00:00 AM 17.94 64.292 0.043 6.92 3.13 8.98
7/9/2021 8:15:00 AM 17.98 64.364 0.043 6.94 3.32 9.04
7/9/2021 8:30:00 AM 18.02 64.436 0.043 6.96 3.04 9.06
7/9/2021 8:45:00 AM 18.05 64.49 0.043 6.95 3.09 9.07
7/9/2021 9:00:00 AM 18.1 64.58 0.043 6.96 3.12 9.08
7/9/2021 9:15:00 AM 18.14 64.652 0.042 6.96 3.18 9.08
7/9/2021 9:30:00 AM 18.23 64.814 0.042 6.97 3.35 9.12
7/9/2021 9:45:00 AM 18.28 64.904 0.042 6.98 3.18 9.12
7/9/2021 10:00:00 AM 18.28 64.904 0.042 6.97 3.15 9.08
7/9/2021 10:15:00 AM 18.35 65.03 0.042 6.97 3.3 9.1
7/9/2021 10:30:00 AM 18.44 65.192 0.042 6.99 3.01 9.12
7/9/2021 10:45:00 AM 18.64 65.552 0.042 7.01 3.1 9.14
7/9/2021 11:00:00 AM 18.81 65.858 0.042 7.02 3.14 9.11
7/9/2021 11:15:00 AM 18.92 66.056 0.042 7.02 3.11 9.11
7/9/2021 11:30:00 AM 19.14 66.452 0.042 7.03 2.9 9.1
7/9/2021 11:45:00 AM 19.31 66.758 0.042 7.03 3.28 9.05
7/9/2021 12:00:00 PM 19.47 67.046 0.042 7.04 3 9.02
7/9/2021 12:15:00 PM 19.58 67.244 0.042 7.04 2.99 8.98
7/9/2021 12:30:00 PM 19.67 67.406 0.042 7.04 3.2 8.97
7/9/2021 12:45:00 PM 19.96 67.92799 0.042 7.04 3.02 8.97
7/9/2021 1:00:00 PM 20.28 68.504 0.042 7.05 3.24 8.91
7/9/2021 1:15:00 PM 20.39 68.702 0.042 7.07 3.31 8.89
7/9/2021 1:30:00 PM 20.48 68.864 0.042 7.06 3.18 8.83
7/9/2021 1:45:00 PM 20.58 69.044 0.042 7.06 3.05 8.78
7/9/2021 2:00:00 PM 20.65 69.17 0.042 7.05 3.02 8.73
7/9/2021 2:15:00 PM 20.66 69.188 0.042 7.04 3.08 8.71
7/9/2021 2:30:00 PM 20.76 69.368 0.042 7.06 2.92 8.74
7/9/2021 2:45:00 PM 20.73 69.314 0.042 7.06 3.23 8.73
7/9/2021 3:00:00 PM 20.67 69.206 0.042 7.04 3.21 8.7
7/9/2021 3:15:00 PM 20.64 69.152 0.042 7.04 2.96 8.7
7/9/2021 3:30:00 PM 20.56 69.008 0.042 7.03 2.81 8.66
7/9/2021 3:45:00 PM 20.47 68.846 0.042 7.01 2.98 8.62
7/9/2021 4:00:00 PM 20.38 68.684 0.042 6.99 2.88 8.61
7/9/2021 4:15:00 PM 20.37 68.666 0.042 7.01 3.13 8.68
7/9/2021 4:30:00 PM 20.36 68.648 0.042 7.02 3.08 8.69
7/9/2021 4:45:00 PM 20.33 68.594 0.042 7.01 2.91 8.67
7/9/2021 5:00:00 PM 20.29 68.522 0.042 7 2.8 8.63
7/9/2021 5:15:00 PM 20.27 68.486 0.042 6.98 3.04 8.6
7/9/2021 5:30:00 PM 20.22 68.396 0.043 6.97 2.73 8.51
7/9/2021 5:45:00 PM 20.14 68.252 0.042 6.96 2.88 8.46
7/9/2021 6:00:00 PM 20.06 68.108 0.043 6.95 2.8 8.42
7/9/2021 6:15:00 PM 19.99 67.982 0.043 6.93 3.04 8.39
7/9/2021 6:30:00 PM 19.94 67.892 0.043 6.93 2.68 8.36
7/9/2021 6:45:00 PM 19.92 67.856 0.043 6.93 3.14 8.48
7/9/2021 7:00:00 PM 19.9 67.82 0.043 6.95 2.88 8.55
7/9/2021 7:15:00 PM 19.86 67.748 0.043 6.94 3.07 8.52
7/9/2021 7:30:00 PM 19.82 67.676 0.043 6.93 2.7 8.5
7/9/2021 7:45:00 PM 19.79 67.622 0.043 6.93 3.16 8.47
7/9/2021 8:00:00 PM 19.74 67.532 0.043 6.92 2.67 8.46
7/9/2021 8:15:00 PM 19.68 67.424 0.043 6.91 2.69 8.42
7/9/2021 8:30:00 PM 19.62 67.316 0.043 6.9 2.98 8.41
7/9/2021 8:45:00 PM 19.56 67.208 0.043 6.89 2.54 8.38
7/9/2021 9:00:00 PM 19.52 67.136 0.043 6.88 2.76 8.36
7/9/2021 9:15:00 PM 19.46 67.028 0.044 6.88 2.81 8.34
7/9/2021 9:30:00 PM 19.42 66.956 0.044 6.87 3.04 8.34
7/9/2021 9:45:00 PM 19.37 66.866 0.044 6.86 2.85 8.36
7/9/2021 10:00:00 PM 19.32 66.776 0.044 6.85 2.87 8.35
7/9/2021 10:15:00 PM 19.27 66.686 0.044 6.86 2.77 8.37
7/9/2021 10:30:00 PM 19.22 66.596 0.044 6.85 2.76 8.38
7/9/2021 10:45:00 PM 19.16 66.488 0.044 6.85 2.6 8.4
7/9/2021 11:00:00 PM 19.1 66.38 0.044 6.85 2.61 8.4
7/9/2021 11:15:00 PM 19.05 66.29 0.044 6.85 2.56 8.42
7/9/2021 11:30:00 PM 19 66.2 0.044 6.86 2.74 8.41
7/9/2021 11:45:00 PM 18.95 66.11 0.044 6.86 2.52 8.41
7/10/2021 12:00:00 AM 18.91 66.038 0.044 6.86 2.64 8.43
7/10/2021 12:15:00 AM 18.86 65.948 0.044 6.86 2.75 8.44
7/10/2021 12:30:00 AM 18.82 65.876 0.044 6.86 3.8 8.46
7/10/2021 12:45:00 AM 18.77 65.786 0.044 6.85 2.54 8.46
7/10/2021 1:00:00 AM 18.73 65.714 0.044 6.86 2.68 8.48
7/10/2021 1:15:00 AM 18.68 65.624 0.044 6.86 2.64 8.5
7/10/2021 1:30:00 AM 18.63 65.534 0.044 6.86 2.91 8.51
7/10/2021 1:45:00 AM 18.59 65.462 0.044 6.87 2.75 8.51
7/10/2021 2:00:00 AM 18.55 65.39 0.044 6.86 2.74 8.51
7/10/2021 2:15:00 AM 18.51 65.318 0.044 6.87 2.51 8.48
7/10/2021 2:30:00 AM 18.48 65.264 0.045 6.86 2.58 8.54
7/10/2021 2:45:00 AM 18.44 65.192 0.045 6.86 2.6 8.53
7/10/2021 3:00:00 AM 18.4 65.12 0.045 6.87 2.72 8.54
7/10/2021 3:15:00 AM 18.37 65.066 0.045 6.87 2.73 8.57
7/10/2021 3:30:00 AM 18.33 64.994 0.045 6.87 2.61 8.57
7/10/2021 3:45:00 AM 18.29 64.922 0.046 6.89 2.44 8.56
7/10/2021 4:00:00 AM 18.26 64.868 0.046 6.89 2.9 8.59
7/10/2021 4:15:00 AM 18.22 64.796 0.046 6.88 2.74 8.58
7/10/2021 4:30:00 AM 18.19 64.742 0.046 6.88 2.74 8.58
7/10/2021 4:45:00 AM 18.15 64.67 0.046 6.89 2.87 8.6
7/10/2021 5:00:00 AM 18.11 64.598 0.046 6.89 3.08 8.61
7/10/2021 5:15:00 AM 18.07 64.526 0.046 6.89 3.04 8.61
7/10/2021 5:30:00 AM 18.03 64.454 0.046 6.88 3.18 8.61
7/10/2021 5:45:00 AM 17.98 64.364 0.046 6.89 3.18 8.65
7/10/2021 6:00:00 AM 17.95 64.31 0.046 6.88 3.26 8.66
7/10/2021 6:15:00 AM 17.91 64.238 0.046 6.88 3.42 8.67
7/10/2021 6:30:00 AM 17.88 64.184 0.046 6.89 3.3 8.71
7/10/2021 6:45:00 AM 17.85 64.13 0.046 6.9 3.28 8.73
7/10/2021 7:00:00 AM 17.82 64.076 0.046 6.89 3.04 8.74
7/10/2021 7:15:00 AM 17.79 64.022 0.046 6.9 3.26 8.75
7/10/2021 7:30:00 AM 17.77 63.986 0.046 6.91 3.16 8.81
7/10/2021 7:45:00 AM 17.79 64.022 0.046 6.94 3.28 8.92
7/10/2021 8:00:00 AM 17.84 64.112 0.046 6.95 3.51 9.02
7/10/2021 8:15:00 AM 17.85 64.13 0.046 6.96 3.56 9.07
7/10/2021 8:30:00 AM 17.84 64.112 0.045 6.98 3.45 9.09
7/10/2021 8:45:00 AM 17.88 64.184 0.045 6.99 3.64 9.13
7/10/2021 9:00:00 AM 17.93 64.274 0.045 7 3.58 9.12
7/10/2021 9:15:00 AM 17.95 64.31 0.045 7 3.41 9.15
7/10/2021 9:30:00 AM 17.96 64.328 0.045 7 3.32 9.16
7/10/2021 9:45:00 AM 18 64.4 0.044 7.01 3.45 9.19
7/10/2021 10:00:00 AM 18.04 64.472 0.044 7.02 3.28 9.2
7/10/2021 10:15:00 AM 18.07 64.526 0.044 7.03 3.34 9.19
7/10/2021 10:30:00 AM 18.13 64.634 0.044 7.03 3.38 9.19
7/10/2021 10:45:00 AM 18.17 64.706 0.044 7.03 3.23 9.18
7/10/2021 11:00:00 AM 18.21 64.778 0.044 7.03 3.31 9.18
7/10/2021 11:15:00 AM 18.25 64.85 0.044 7.04 3.21 9.19
7/10/2021 11:30:00 AM 18.34 65.012 0.044 7.04 3.05 9.22
7/10/2021 11:45:00 AM 18.43 65.174 0.043 7.06 2.93 9.23
7/10/2021 12:00:00 PM 18.58 65.444 0.043 7.06 3.39 9.25
7/10/2021 12:15:00 PM 18.77 65.786 0.043 7.07 2.93 9.23
7/10/2021 12:30:00 PM 18.94 66.092 0.043 7.08 3 9.21
7/10/2021 12:45:00 PM 19.06 66.308 0.043 7.08 2.98 9.2
7/10/2021 1:00:00 PM 19.15 66.47 0.043 7.1 3.08 9.2
7/10/2021 1:15:00 PM 19.37 66.866 0.043 7.1 3.06 9.17
7/10/2021 1:30:00 PM 19.72 67.496 0.042 7.1 3.01 9.13
7/10/2021 1:45:00 PM 19.96 67.92799 0.042 7.1 2.83 9.1
7/10/2021 2:00:00 PM 19.98 67.964 0.042 7.09 2.9 9.05
7/10/2021 2:15:00 PM 20.04 68.07201 0.042 7.1 3.12 9.02
7/10/2021 2:30:00 PM 20.23 68.414 0.042 7.09 4.25 8.99
7/10/2021 2:45:00 PM 20.33 68.594 0.042 7.09 2.97 8.95
7/10/2021 3:00:00 PM 20.38 68.684 0.042 7.08 2.98 8.9
7/10/2021 3:15:00 PM 20.37 68.666 0.042 7.07 2.87 8.86
7/10/2021 3:30:00 PM 20.46 68.828 0.042 7.07 2.88 8.84
7/10/2021 3:45:00 PM 20.43 68.774 0.042 7.06 3 8.81
7/10/2021 4:00:00 PM 20.35 68.63 0.041 7.05 3.01 8.8
7/10/2021 4:15:00 PM 20.31 68.558 0.041 7.04 2.62 8.79
7/10/2021 4:30:00 PM 20.22 68.396 0.041 7.02 3 8.76
7/10/2021 4:45:00 PM 20.12 68.216 0.041 7.01 3.16 8.76
7/10/2021 5:00:00 PM 20.02 68.036 0.041 7.02 2.91 8.78
7/10/2021 5:15:00 PM 19.95 67.91 0.041 7.01 3.32 8.78
7/10/2021 5:30:00 PM 19.93 67.874 0.041 7 2.97 8.73
7/10/2021 5:45:00 PM 19.92 67.856 0.041 7 3.1 8.76
7/10/2021 6:00:00 PM 19.86 67.748 0.041 6.98 3.14 8.7
7/10/2021 6:15:00 PM 19.8 67.64 0.041 6.97 3.13 8.71
7/10/2021 6:30:00 PM 19.76 67.568 0.041 6.96 3.17 8.7
7/10/2021 6:45:00 PM 19.71 67.478 0.041 6.96 2.86 8.7
7/10/2021 7:00:00 PM 19.64 67.352 0.041 6.95 2.97 8.67
7/10/2021 7:15:00 PM 19.58 67.244 0.041 6.95 2.89 8.65
7/10/2021 7:30:00 PM 19.52 67.136 0.041 6.93 3.05 8.63
7/10/2021 7:45:00 PM 19.46 67.028 0.041 6.92 2.9 8.62
7/10/2021 8:00:00 PM 19.4 66.92 0.041 6.91 2.87 8.61
7/10/2021 8:15:00 PM 19.34 66.812 0.042 6.91 2.85 8.59
7/10/2021 8:30:00 PM 19.28 66.704 0.042 6.9 2.76 8.55
7/10/2021 8:45:00 PM 19.22 66.596 0.042 6.88 3.09 8.54
7/10/2021 9:00:00 PM 19.16 66.488 0.042 6.87 2.85 8.52
7/10/2021 9:15:00 PM 19.1 66.38 0.042 6.87 2.88 8.51
7/10/2021 9:30:00 PM 19.05 66.29 0.042 6.86 2.8 8.49
7/10/2021 9:45:00 PM 18.99 66.182 0.042 6.86 2.87 8.5
7/10/2021 10:00:00 PM 18.93 66.074 0.042 6.85 3.15 8.49
7/10/2021 10:15:00 PM 18.86 65.948 0.042 6.85 3.28 8.5
7/10/2021 10:30:00 PM 18.8 65.84 0.042 6.85 2.75 8.52
7/10/2021 10:45:00 PM 18.73 65.714 0.042 6.84 2.82 8.52
7/10/2021 11:00:00 PM 18.66 65.588 0.042 6.84 2.68 8.54
7/10/2021 11:15:00 PM 18.59 65.462 0.042 6.84 2.75 8.56
7/10/2021 11:30:00 PM 18.52 65.336 0.042 6.84 3 8.58
7/10/2021 11:45:00 PM 18.45 65.21 0.042 6.83 2.71 8.59
7/11/2021 12:00:00 AM 18.38 65.084 0.042 6.83 2.54 8.61
7/11/2021 12:15:00 AM 18.31 64.958 0.042 6.84 2.52 8.62
7/11/2021 12:30:00 AM 18.24 64.832 0.043 6.84 3.09 8.62
7/11/2021 12:45:00 AM 18.16 64.688 0.043 6.83 2.99 8.61
7/11/2021 1:00:00 AM 18.09 64.562 0.043 6.84 2.55 8.65
7/11/2021 1:15:00 AM 18.01 64.418 0.043 6.84 2.54 8.67
7/11/2021 1:30:00 AM 17.94 64.292 0.043 6.83 2.71 8.68
7/11/2021 1:45:00 AM 17.86 64.148 0.043 6.82 2.42 8.7
7/11/2021 2:00:00 AM 17.78 64.004 0.043 6.83 2.69 8.71
7/11/2021 2:15:00 AM 17.7 63.86 0.043 6.83 2.43 8.73
7/11/2021 2:30:00 AM 17.64 63.752 0.043 6.83 2.42 8.74
7/11/2021 2:45:00 AM 17.56 63.608 0.043 6.82 2.42 8.74
7/11/2021 3:00:00 AM 17.5 63.5 0.043 6.83 2.55 8.73
7/11/2021 3:15:00 AM 17.43 63.374 0.043 6.82 2.49 8.75
7/11/2021 3:30:00 AM 17.36 63.248 0.043 6.82 2.58 8.77
7/11/2021 3:45:00 AM 17.31 63.158 0.043 6.82 2.52 8.8
7/11/2021 4:00:00 AM 17.25 63.05 0.043 6.82 2.34 8.8
7/11/2021 4:15:00 AM 17.2 62.96 0.043 6.82 2.59 8.8
7/11/2021 4:30:00 AM 17.15 62.87 0.043 6.82 2.54 8.82
7/11/2021 4:45:00 AM 17.11 62.798 0.043 6.82 2.54 8.84
7/11/2021 5:00:00 AM 17.07 62.726 0.044 6.83 2.49 8.84
7/11/2021 5:15:00 AM 17.02 62.636 0.044 6.83 2.58 8.84
7/11/2021 5:30:00 AM 16.98 62.564 0.044 6.82 3.15 8.86
7/11/2021 5:45:00 AM 16.95 62.51 0.044 6.82 2.63 8.87
7/11/2021 6:00:00 AM 16.91 62.438 0.044 6.82 3.98 8.87
7/11/2021 6:15:00 AM 16.88 62.384 0.044 6.82 2.68 8.89
7/11/2021 6:30:00 AM 16.84 62.312 0.044 6.84 2.34 8.91
7/11/2021 6:45:00 AM 16.82 62.276 0.044 6.83 2.49 8.95
7/11/2021 7:00:00 AM 16.81 62.258 0.044 6.84 2.51 8.99
7/11/2021 7:15:00 AM 16.8 62.24 0.044 6.86 2.38 9.05
7/11/2021 7:30:00 AM 16.79 62.222 0.044 6.87 2.45 9.09
7/11/2021 7:45:00 AM 16.79 62.222 0.044 6.87 2.58 9.13
7/11/2021 8:00:00 AM 16.79 62.222 0.044 6.88 2.3 9.13
7/11/2021 8:15:00 AM 16.78 62.204 0.044 6.88 2.47 9.13
7/11/2021 8:30:00 AM 16.78 62.204 0.044 6.88 2.29 9.15
7/11/2021 8:45:00 AM 16.78 62.204 0.044 6.88 2.16 9.16
7/11/2021 9:00:00 AM 16.79 62.222 0.044 6.89 2.42 9.2
7/11/2021 9:15:00 AM 16.79 62.222 0.044 6.89 2.39 9.19
7/11/2021 9:30:00 AM 16.8 62.24 0.044 6.9 2.43 9.23
7/11/2021 9:45:00 AM 16.83 62.294 0.044 6.92 2.32 9.25
7/11/2021 10:00:00 AM 16.87 62.366 0.044 6.92 2.18 9.29
7/11/2021 10:15:00 AM 16.89 62.402 0.044 6.92 2.41 9.29
7/11/2021 10:30:00 AM 16.9 62.42 0.044 6.92 2.58 9.26
7/11/2021 10:45:00 AM 16.93 62.474 0.044 6.93 2.62 9.31
7/11/2021 11:00:00 AM 16.97 62.546 0.044 6.93 2.23 9.32
7/11/2021 11:15:00 AM 17 62.6 0.044 6.94 2.3 9.34
7/11/2021 11:30:00 AM 17.02 62.636 0.044 6.94 2.4 9.34
7/11/2021 11:45:00 AM 17.1 62.78 0.044 6.95 2.25 9.37
7/11/2021 12:00:00 PM 17.18 62.924 0.044 6.96 2.35 9.4
7/11/2021 12:15:00 PM 17.2 62.96 0.044 6.96 2.38 9.34
7/11/2021 12:30:00 PM 17.22 62.996 0.044 6.95 2.47 9.32
7/11/2021 12:45:00 PM 17.27 63.086 0.044 6.96 2.31 9.34
7/11/2021 1:00:00 PM 17.34 63.212 0.044 6.96 2.11 9.36
7/11/2021 1:15:00 PM 17.38 63.284 0.044 6.97 2.23 9.35
7/11/2021 1:30:00 PM 17.41 63.338 0.044 6.97 2.13 9.35
7/11/2021 1:45:00 PM 17.48 63.464 0.044 6.98 2.32 9.33
7/11/2021 2:00:00 PM 17.53 63.554 0.044 6.98 2.18 9.33
7/11/2021 2:15:00 PM 17.57 63.626 0.044 6.98 2.12 9.3
7/11/2021 2:30:00 PM 17.61 63.698 0.044 6.98 2.24 9.3
7/11/2021 2:45:00 PM 17.63 63.734 0.045 6.97 2.21 9.27
7/11/2021 3:00:00 PM 17.67 63.806 0.045 6.98 2.13 9.27
7/11/2021 3:15:00 PM 17.7 63.86 0.045 6.98 2.2 9.26
7/11/2021 3:30:00 PM 17.72 63.896 0.045 6.97 2.36 9.22
7/11/2021 3:45:00 PM 17.73 63.914 0.045 6.97 2.16 9.2
7/11/2021 4:00:00 PM 17.75 63.95 0.045 6.96 2.11 9.19
7/11/2021 4:15:00 PM 17.76 63.968 0.045 6.95 2.15 9.14
7/11/2021 4:30:00 PM 17.8 64.04 0.045 6.96 2.18 9.15
7/11/2021 4:45:00 PM 17.82 64.076 0.045 6.96 2.23 9.14
7/11/2021 5:00:00 PM 17.85 64.13 0.045 6.96 2.25 9.12
7/11/2021 5:15:00 PM 17.92 64.256 0.045 6.97 2.17 9.16
7/11/2021 5:30:00 PM 17.95 64.31 0.045 6.97 2.21 9.19
7/11/2021 5:45:00 PM 18.01 64.418 0.045 6.99 2.18 9.2
7/11/2021 6:00:00 PM 18.07 64.526 0.045 6.99 2.18 9.16
7/11/2021 6:15:00 PM 18.09 64.562 0.045 6.97 2.08 9.12
7/11/2021 6:30:00 PM 18.12 64.616 0.045 6.98 2.08 9.11
7/11/2021 6:45:00 PM 18.13 64.634 0.045 6.97 2.24 9.1
7/11/2021 7:00:00 PM 18.11 64.598 0.045 6.96 2.3 9.06
7/11/2021 7:15:00 PM 18.08 64.544 0.045 6.94 2.13 8.97
7/11/2021 7:30:00 PM 18.05 64.49 0.046 6.92 2.12 8.88
7/11/2021 7:45:00 PM 18.03 64.454 0.046 6.9 2.14 8.83
7/11/2021 8:00:00 PM 18.02 64.436 0.046 6.88 2.22 8.8
7/11/2021 8:15:00 PM 17.99 64.382 0.046 6.86 2.05 8.76
7/11/2021 8:30:00 PM 17.97 64.346 0.046 6.86 2.02 8.73
7/11/2021 8:45:00 PM 17.95 64.31 0.046 6.85 2.26 8.7
7/11/2021 9:00:00 PM 17.93 64.274 0.046 6.84 2.32 8.68
7/11/2021 9:15:00 PM 17.91 64.238 0.046 6.83 2.08 8.68
7/11/2021 9:30:00 PM 17.89 64.202 0.046 6.83 2.17 8.68
7/11/2021 9:45:00 PM 17.87 64.166 0.046 6.82 2.22 8.68
7/11/2021 10:00:00 PM 17.87 64.166 0.046 6.82 2.06 8.68
7/11/2021 10:15:00 PM 17.87 64.166 0.046 6.82 2.19 8.67
7/11/2021 10:30:00 PM 17.9 64.22 0.046 6.82 2.59 8.68
7/11/2021 10:45:00 PM 17.94 64.292 0.045 6.84 2.48 8.69
7/11/2021 11:00:00 PM 17.93 64.274 0.045 6.84 2.3 8.67
7/11/2021 11:15:00 PM 17.9 64.22 0.046 6.85 2.47 8.66
7/11/2021 11:30:00 PM 17.89 64.202 0.046 6.85 2.63 8.66
7/11/2021 11:45:00 PM 17.88 64.184 0.046 6.85 3.21 8.66
7/12/2021 12:00:00 AM 17.87 64.166 0.046 6.85 3.35 8.66
7/12/2021 12:15:00 AM 17.87 64.166 0.046 6.85 3 8.67
7/12/2021 12:30:00 AM 17.87 64.166 0.047 6.86 2.92 8.68
7/12/2021 12:45:00 AM 17.87 64.166 0.047 6.86 2.87 8.69
7/12/2021 1:00:00 AM 17.88 64.184 0.047 6.86 2.99 8.69
7/12/2021 1:15:00 AM 17.9 64.22 0.048 6.88 2.93 8.69
7/12/2021 1:30:00 AM 17.9 64.22 0.05 6.89 3.13 8.7
7/12/2021 1:45:00 AM 17.91 64.238 0.051 6.9 3.43 8.71
7/12/2021 2:00:00 AM 17.91 64.238 0.052 6.92 4.43 8.72
7/12/2021 2:15:00 AM 17.89 64.202 0.052 6.92 6.06 8.72
7/12/2021 2:30:00 AM 17.88 64.184 0.053 6.92 7.89 8.72
7/12/2021 2:45:00 AM 17.87 64.166 0.054 6.93 8.43 8.73
7/12/2021 3:00:00 AM 17.85 64.13 0.054 6.92 9.11 8.74
7/12/2021 3:15:00 AM 17.82 64.076 0.054 6.93 8.87 8.75
7/12/2021 3:30:00 AM 17.8 64.04 0.054 6.92 8.19 8.76
7/12/2021 3:45:00 AM 17.78 64.004 0.053 6.92 7.05 8.77
7/12/2021 4:00:00 AM 17.77 63.986 0.052 6.93 5.73 8.78
7/12/2021 4:15:00 AM 17.76 63.968 0.051 6.92 6.15 8.78
7/12/2021 4:30:00 AM 17.73 63.914 0.051 6.92 6.12 8.78
7/12/2021 4:45:00 AM 17.71 63.878 0.05 6.91 6.96 8.79
7/12/2021 5:00:00 AM 17.7 63.86 0.05 6.9 8.16 8.79
7/12/2021 5:15:00 AM 17.68 63.824 0.05 6.9 8.89 8.79
7/12/2021 5:30:00 AM 17.67 63.806 0.05 6.9 8.52 8.8
7/12/2021 5:45:00 AM 17.66 63.788 0.05 6.9 8.85 8.81
7/12/2021 6:00:00 AM 17.65 63.77 0.05 6.9 8.43 8.82
7/12/2021 6:15:00 AM 17.64 63.752 0.05 6.9 8.01 8.83
7/12/2021 6:30:00 AM 17.63 63.734 0.05 6.9 7.85 8.86
7/12/2021 6:45:00 AM 17.63 63.734 0.05 6.91 8.1 8.9
7/12/2021 7:00:00 AM 17.63 63.734 0.049 6.91 8.37 8.96
7/12/2021 7:15:00 AM 17.64 63.752 0.049 6.92 7.7 9.01
7/12/2021 7:30:00 AM 17.63 63.734 0.048 6.92 7.58 9.03
7/12/2021 7:45:00 AM 17.64 63.752 0.047 6.92 8.21 9.07
7/12/2021 8:00:00 AM 17.66 63.788 0.047 6.93 7.69 9.11
7/12/2021 8:15:00 AM 17.68 63.824 0.046 6.95 7.34 9.16
7/12/2021 8:30:00 AM 17.71 63.878 0.045 6.96 7 9.17
7/12/2021 8:45:00 AM 17.75 63.95 0.045 6.96 7.44 9.19
7/12/2021 9:00:00 AM 17.75 63.95 0.045 6.97 6.81 9.18
7/12/2021 9:15:00 AM 17.85 64.13 0.044 6.97 7.46 9.22
7/12/2021 9:30:00 AM 17.93 64.274 0.044 7 6.55 9.24
7/12/2021 9:45:00 AM 17.94 64.292 0.044 6.98 6.78 9.21
7/12/2021 10:00:00 AM 18.03 64.454 0.044 7 6.41 9.19
7/12/2021 10:15:00 AM 18.16 64.688 0.043 7.02 6.41 9.21
7/12/2021 10:30:00 AM 18.16 64.688 0.043 7.01 5.83 9.22
7/12/2021 10:45:00 AM 18.26 64.868 0.043 7.03 5.95 9.23
7/12/2021 11:00:00 AM 18.3 64.94 0.043 7.03 6.16 9.21
7/12/2021 11:15:00 AM 18.36 65.048 0.043 7.03 6.12 9.23
7/12/2021 11:30:00 AM 18.5 65.3 0.043 7.04 5.94 9.24
7/12/2021 11:45:00 AM 18.77 65.786 0.043 7.06 5.77 9.23
7/12/2021 12:00:00 PM 19.02 66.236 0.043 7.07 5.63 9.21
7/12/2021 12:15:00 PM 19.25 66.65 0.043 7.08 5.42 9.18
7/12/2021 12:30:00 PM 19.19 66.542 0.043 7.06 5.51 9.12
7/12/2021 12:45:00 PM 19.26 66.668 0.043 7.05 4.91 9.09
7/12/2021 1:00:00 PM 19.63 67.334 0.042 7.09 5.11 9.09
7/12/2021 1:15:00 PM 19.83 67.694 0.042 7.09 4.66 9.05
7/12/2021 1:30:00 PM 19.83 67.694 0.042 7.08 5.04 8.99
7/12/2021 1:45:00 PM 19.89 67.802 0.042 7.06 4.87 8.95
7/12/2021 2:00:00 PM 19.86 67.748 0.042 7.05 4.77 8.92
7/12/2021 2:15:00 PM 19.87 67.766 0.042 7.04 4.51 8.92
7/12/2021 2:30:00 PM 19.85 67.73 0.042 7.04 4.56 8.91
7/12/2021 2:45:00 PM 20.02 68.036 0.042 7.05 4.78 8.92
7/12/2021 3:00:00 PM 20.02 68.036 0.042 7.06 4.78 8.93
7/12/2021 3:15:00 PM 20.11 68.198 0.042 7.06 4.8 8.93
7/12/2021 3:30:00 PM 20.26 68.468 0.042 7.07 4.25 8.91
7/12/2021 3:45:00 PM 20.31 68.558 0.042 7.06 4.32 8.89
7/12/2021 4:00:00 PM 20.39 68.702 0.042 7.05 4.46 8.85
7/12/2021 4:15:00 PM 20.5 68.9 0.042 7.06 4.75 8.85
7/12/2021 4:30:00 PM 20.58 69.044 0.042 7.06 4.3 8.82
7/12/2021 4:45:00 PM 20.57 69.026 0.042 7.04 4.22 8.78
7/12/2021 5:00:00 PM 20.55 68.99 0.042 7.03 4.2 8.75
7/12/2021 5:15:00 PM 20.47 68.846 0.042 7.01 4.04 8.69
7/12/2021 5:30:00 PM 20.42 68.756 0.042 7.01 3.82 8.66
7/12/2021 5:45:00 PM 20.38 68.684 0.042 6.99 4.54 8.64
7/12/2021 6:00:00 PM 20.33 68.594 0.042 6.97 3.94 8.62
7/12/2021 6:15:00 PM 20.31 68.558 0.042 6.96 3.92 8.62
7/12/2021 6:30:00 PM 20.29 68.522 0.042 6.96 3.94 8.63
7/12/2021 6:45:00 PM 20.26 68.468 0.042 6.95 3.73 8.62
7/12/2021 7:00:00 PM 20.22 68.396 0.042 6.93 3.59 8.62
7/12/2021 7:15:00 PM 20.2 68.36 0.042 6.92 3.71 8.6
7/12/2021 7:30:00 PM 20.17 68.306 0.042 6.92 3.66 8.59
7/12/2021 7:45:00 PM 20.14 68.252 0.042 6.9 3.79 8.56
7/12/2021 8:00:00 PM 20.1 68.18 0.042 6.89 3.58 8.53
7/12/2021 8:15:00 PM 20.06 68.108 0.042 6.88 3.62 8.49
7/12/2021 8:30:00 PM 20.01 68.018 0.042 6.86 3.44 8.47
7/12/2021 8:45:00 PM 19.95 67.91 0.042 6.84 3.75 8.45
7/12/2021 9:00:00 PM 19.89 67.802 0.042 6.83 3.61 8.45
7/12/2021 9:15:00 PM 19.82 67.676 0.042 6.82 3.61 8.44
7/12/2021 9:30:00 PM 19.75 67.55 0.042 6.82 3.34 8.46
7/12/2021 9:45:00 PM 19.69 67.442 0.042 6.81 3.34 8.46
7/12/2021 10:00:00 PM 19.63 67.334 0.042 6.81 3.41 8.46
7/12/2021 10:15:00 PM 19.57 67.226 0.042 6.8 6.17 8.46
7/12/2021 10:30:00 PM 19.51 67.118 0.042 6.8 3.64 8.47
7/12/2021 10:45:00 PM 19.45 67.01 0.042 6.8 3.37 8.48
7/12/2021 11:00:00 PM 19.41 66.938 0.042 6.81 3.75 8.49
7/12/2021 11:15:00 PM 19.36 66.848 0.043 6.81 3.12 8.51
7/12/2021 11:30:00 PM 19.31 66.758 0.042 6.83 3.46 8.53
7/12/2021 11:45:00 PM 19.27 66.686 0.043 6.84 3.26 8.53
7/13/2021 12:00:00 AM 19.23 66.614 0.043 6.84 3.27 8.54
7/13/2021 12:15:00 AM 19.18 66.524 0.043 6.83 3.3 8.55
7/13/2021 12:30:00 AM 19.13 66.434 0.043 6.84 3.29 8.56
7/13/2021 12:45:00 AM 19.08 66.344 0.043 6.83 3.07 8.55
7/13/2021 1:00:00 AM 19.04 66.272 0.043 6.83 3.33 8.57
7/13/2021 1:15:00 AM 19 66.2 0.043 6.83 3.16 8.58
7/13/2021 1:30:00 AM 18.96 66.128 0.043 6.83 3.19 8.58
7/13/2021 1:45:00 AM 18.92 66.056 0.043 6.83 3.39 8.59
7/13/2021 2:00:00 AM 18.87 65.966 0.043 6.82 3.29 8.59
7/13/2021 2:15:00 AM 18.83 65.894 0.043 6.82 3.19 8.58
7/13/2021 2:30:00 AM 18.79 65.82201 0.043 6.83 3.3 8.6
7/13/2021 2:45:00 AM 18.76 65.768 0.043 6.83 3.09 8.61
7/13/2021 3:00:00 AM 18.72 65.696 0.043 6.82 3.03 8.62
7/13/2021 3:15:00 AM 18.68 65.624 0.043 6.82 3.12 8.63
7/13/2021 3:30:00 AM 18.65 65.57 0.043 6.82 3.09 8.64
7/13/2021 3:45:00 AM 18.61 65.498 0.043 6.82 3.18 8.64
7/13/2021 4:00:00 AM 18.58 65.444 0.043 6.82 2.88 8.65
7/13/2021 4:15:00 AM 18.54 65.372 0.043 6.81 2.8 8.65
7/13/2021 4:30:00 AM 18.51 65.318 0.043 6.81 2.97 8.66
7/13/2021 4:45:00 AM 18.48 65.264 0.043 6.81 3.02 8.66
7/13/2021 5:00:00 AM 18.45 65.21 0.043 6.81 3.14 8.67
7/13/2021 5:15:00 AM 18.42 65.156 0.043 6.81 3.15 8.67
7/13/2021 5:30:00 AM 18.39 65.102 0.043 6.81 2.97 8.67
7/13/2021 5:45:00 AM 18.36 65.048 0.044 6.81 3.31 8.68
7/13/2021 6:00:00 AM 18.34 65.012 0.044 6.81 2.98 8.69
7/13/2021 6:15:00 AM 18.31 64.958 0.044 6.8 3.65 8.7
7/13/2021 6:30:00 AM 18.29 64.922 0.044 6.81 3.01 8.72
7/13/2021 6:45:00 AM 18.27 64.886 0.044 6.81 3.99 8.75
7/13/2021 7:00:00 AM 18.27 64.886 0.044 6.81 2.89 8.8
7/13/2021 7:15:00 AM 18.26 64.868 0.044 6.83 2.76 8.85
7/13/2021 7:30:00 AM 18.26 64.868 0.044 6.84 2.9 8.91
7/13/2021 7:45:00 AM 18.28 64.904 0.044 6.85 3.06 8.97
7/13/2021 8:00:00 AM 18.31 64.958 0.044 6.86 2.98 9.01
7/13/2021 8:15:00 AM 18.33 64.994 0.044 6.88 2.71 9.04
7/13/2021 8:30:00 AM 18.34 65.012 0.044 6.9 2.54 9.01
7/13/2021 8:45:00 AM 18.36 65.048 0.044 6.91 2.73 9.01
7/13/2021 9:00:00 AM 18.39 65.102 0.044 6.92 2.49 9.03
7/13/2021 9:15:00 AM 18.41 65.138 0.044 6.93 2.67 9.04
7/13/2021 9:30:00 AM 18.44 65.192 0.044 6.93 2.63 9.05
7/13/2021 9:45:00 AM 18.48 65.264 0.044 6.94 2.52 9.09
7/13/2021 10:00:00 AM 18.55 65.39 0.044 6.96 2.59 9.1
7/13/2021 10:15:00 AM 18.59 65.462 0.044 6.96 2.64 9.09
7/13/2021 10:30:00 AM 18.61 65.498 0.044 6.96 2.52 9.08
7/13/2021 10:45:00 AM 18.64 65.552 0.044 6.95 2.52 9.09
7/13/2021 11:00:00 AM 18.68 65.624 0.044 6.96 2.65 9.11
7/13/2021 11:15:00 AM 18.76 65.768 0.044 6.98 2.44 9.15
7/13/2021 11:30:00 AM 18.93 66.074 0.043 7.01 2.66 9.2
7/13/2021 11:45:00 AM 19.14 66.452 0.044 7.03 2.52 9.21
7/13/2021 12:00:00 PM 19.27 66.686 0.044 7.03 2.47 9.16
7/13/2021 12:15:00 PM 19.3 66.74 0.043 7.03 2.38 9.13
7/13/2021 12:30:00 PM 19.41 66.938 0.043 7.04 2.43 9.12
7/13/2021 12:45:00 PM 19.51 67.118 0.043 7.05 2.6 9.12
7/13/2021 1:00:00 PM 19.51 67.118 0.044 7.05 2.6 9.07
7/13/2021 1:15:00 PM 19.61 67.298 0.043 7.05 2.33 9.09
7/13/2021 1:30:00 PM 19.86 67.748 0.043 7.07 2.42 9.1
7/13/2021 1:45:00 PM 20.13 68.234 0.044 7.09 2.33 9.06
7/13/2021 2:00:00 PM 20.26 68.468 0.044 7.09 2.29 9.03
7/13/2021 2:15:00 PM 20.41 68.738 0.044 7.09 2.49 9.01
7/13/2021 2:30:00 PM 20.53 68.954 0.044 7.09 2.37 8.99
7/13/2021 2:45:00 PM 20.65 69.17 0.044 7.09 2.3 8.95
7/13/2021 3:00:00 PM 20.81 69.458 0.044 7.1 2.34 8.91
7/13/2021 3:15:00 PM 20.91 69.638 0.044 7.09 2.41 8.88
7/13/2021 3:30:00 PM 21.08 69.944 0.044 7.09 2.35 8.85
7/13/2021 3:45:00 PM 21.25 70.25 0.044 7.1 2.37 8.81
7/13/2021 4:00:00 PM 21.29 70.32201 0.044 7.09 2.37 8.79
7/13/2021 4:15:00 PM 21.38 70.484 0.044 7.1 2.2 8.79
7/13/2021 4:30:00 PM 21.45 70.61 0.044 7.1 2.32 8.75
7/13/2021 4:45:00 PM 21.53 70.754 0.044 7.1 2.38 8.73
7/13/2021 5:00:00 PM 21.62 70.916 0.044 7.1 2.32 8.7
7/13/2021 5:15:00 PM 21.61 70.898 0.044 7.09 2.33 8.69
7/13/2021 5:30:00 PM 21.58 70.844 0.044 7.09 2.41 8.68
7/13/2021 5:45:00 PM 21.5 70.7 0.044 7.08 2.41 8.64
7/13/2021 6:00:00 PM 21.39 70.502 0.044 7.06 2.45 8.59
7/13/2021 6:15:00 PM 21.3 70.34 0.044 7.05 2.55 8.57
7/13/2021 6:30:00 PM 21.21 70.17799 0.044 7.03 2.46 8.53
7/13/2021 6:45:00 PM 21.11 69.998 0.044 7 2.36 8.45
7/13/2021 7:00:00 PM 21.01 69.818 0.044 6.97 2.69 8.41
7/13/2021 7:15:00 PM 20.91 69.638 0.044 6.96 2.38 8.37
7/13/2021 7:30:00 PM 20.82 69.476 0.044 6.94 2.25 8.32
7/13/2021 7:45:00 PM 20.72 69.296 0.045 6.91 2.29 8.29
7/13/2021 8:00:00 PM 20.63 69.134 0.045 6.9 2.47 8.26
7/13/2021 8:15:00 PM 20.56 69.008 0.045 6.89 2.19 8.26
7/13/2021 8:30:00 PM 20.49 68.882 0.045 6.88 2.34 8.26
7/13/2021 8:45:00 PM 20.42 68.756 0.045 6.87 2.2 8.26
7/13/2021 9:00:00 PM 20.37 68.666 0.045 6.86 2.33 8.25
7/13/2021 9:15:00 PM 20.32 68.576 0.045 6.86 2.28 8.25
7/13/2021 9:30:00 PM 20.26 68.468 0.045 6.86 2.45 8.26
7/13/2021 9:45:00 PM 20.21 68.378 0.045 6.86 2.37 8.25
7/13/2021 10:00:00 PM 20.17 68.306 0.045 6.86 2.28 8.26
7/13/2021 10:15:00 PM 20.13 68.234 0.045 6.86 2.41 8.26
7/13/2021 10:30:00 PM 20.07 68.126 0.045 6.87 2.19 8.29
7/13/2021 10:45:00 PM 19.98 67.964 0.045 6.88 2.66 8.32
7/13/2021 11:00:00 PM 19.91 67.838 0.044 6.89 2.4 8.33
7/13/2021 11:15:00 PM 19.82 67.676 0.044 6.89 2.61 8.38
7/13/2021 11:30:00 PM 19.76 67.568 0.044 6.88 2.74 8.38
7/13/2021 11:45:00 PM 19.7 67.46 0.044 6.88 3.28 8.37
7/14/2021 12:00:00 AM 19.64 67.352 0.045 6.88 4.48 8.38
7/14/2021 12:15:00 AM 19.59 67.262 0.045 6.9 4.63 8.38
7/14/2021 12:30:00 AM 19.54 67.172 0.047 6.89 3.81 8.39
7/14/2021 12:45:00 AM 19.5 67.1 0.054 6.89 4.22 8.4
7/14/2021 1:00:00 AM 19.47 67.046 0.062 6.93 5.95 8.42
7/14/2021 1:15:00 AM 19.44 66.992 0.069 7.01 11.27 8.43
7/14/2021 1:30:00 AM 19.4 66.92 0.07 7.08 19.35 8.47
7/14/2021 1:45:00 AM 19.35 66.83 0.068 7.08 25.2 8.48
7/14/2021 2:00:00 AM 19.3 66.74 0.067 7.08 25.16 8.48
7/14/2021 2:15:00 AM 19.26 66.668 0.067 7.08 28.29 8.48
7/14/2021 2:30:00 AM 19.22 66.596 0.067 7.07 43.04 8.5
7/14/2021 2:45:00 AM 19.17 66.506 0.065 7.05 28.22 8.52
7/14/2021 3:00:00 AM 19.12 66.416 0.065 7.05 23.48 8.53
7/14/2021 3:15:00 AM 19.07 66.326 0.065 7.06 21.97 8.54
7/14/2021 3:30:00 AM 19.02 66.236 0.064 7.05 15.77 8.56
7/14/2021 3:45:00 AM 18.96 66.128 0.062 7.05 14.7 8.57
7/14/2021 4:00:00 AM 18.91 66.038 0.062 7.04 13.28 8.58
7/14/2021 4:15:00 AM 18.87 65.966 0.061 7.04 14.22 8.59
7/14/2021 4:30:00 AM 18.83 65.894 0.061 7.05 13.36 8.6
7/14/2021 4:45:00 AM 18.8 65.84 0.06 7.05 12.01 8.61
7/14/2021 5:00:00 AM 18.77 65.786 0.06 7.05 12.45 8.62
7/14/2021 5:15:00 AM 18.73 65.714 0.059 7.05 11.45 8.64
7/14/2021 5:30:00 AM 18.7 65.66 0.059 7.05 10.35 8.66
7/14/2021 5:45:00 AM 18.67 65.606 0.058 7.04 10.24 8.67
7/14/2021 6:00:00 AM 18.63 65.534 0.058 7.04 9.09 8.68
7/14/2021 6:15:00 AM 18.6 65.48 0.057 7.04 8.96 8.7
7/14/2021 6:30:00 AM 18.57 65.426 0.057 7.04 8.87 8.72
7/14/2021 6:45:00 AM 18.55 65.39 0.057 7.05 7.92 8.76
7/14/2021 7:00:00 AM 18.52 65.336 0.057 7.05 7.97 8.78
7/14/2021 7:15:00 AM 18.51 65.318 0.057 7.05 8.15 8.82
7/14/2021 7:30:00 AM 18.49 65.282 0.056 7.06 7.73 8.85
7/14/2021 7:45:00 AM 18.48 65.264 0.056 7.06 7.56 8.88
7/14/2021 8:00:00 AM 18.5 65.3 0.055 7.07 7.31 8.92
7/14/2021 8:15:00 AM 18.51 65.318 0.055 7.07 8.08 8.95
7/14/2021 8:30:00 AM 18.52 65.336 0.054 7.07 7.14 8.97
7/14/2021 8:45:00 AM 18.56 65.408 0.053 7.08 6.41 9
7/14/2021 9:00:00 AM 18.58 65.444 0.053 7.08 6.16 9
7/14/2021 9:15:00 AM 18.63 65.534 0.052 7.08 6.08 9.02
7/14/2021 9:30:00 AM 18.7 65.66 0.052 7.09 5.88 9.03
7/14/2021 9:45:00 AM 18.72 65.696 0.052 7.09 5.86 9.07
7/14/2021 10:00:00 AM 18.79 65.82201 0.051 7.1 5.65 9.08
7/14/2021 10:15:00 AM 18.81 65.858 0.051 7.09 5.42 9.04
7/14/2021 10:30:00 AM 18.87 65.966 0.05 7.1 5.49 9.05
7/14/2021 10:45:00 AM 18.9 66.02 0.05 7.1 5.7 9.05
7/14/2021 11:00:00 AM 18.97 66.146 0.049 7.11 5.21 9.07
7/14/2021 11:15:00 AM 19.09 66.362 0.049 7.12 5.57 9.09
7/14/2021 11:30:00 AM 19.32 66.776 0.049 7.13 5.19 9.11
7/14/2021 11:45:00 AM 19.45 67.01 0.048 7.13 5.36 9.09
7/14/2021 12:00:00 PM 19.53 67.154 0.048 7.13 5.29 9.05
7/14/2021 12:15:00 PM 19.54 67.172 0.048 7.12 5.38 9
7/14/2021 12:30:00 PM 19.63 67.334 0.048 7.13 5.25 9.02
7/14/2021 12:45:00 PM 19.97 67.946 0.047 7.15 5.39 9.02
7/14/2021 1:00:00 PM 20.13 68.234 0.047 7.15 5.08 8.97
7/14/2021 1:15:00 PM 20.13 68.234 0.047 7.13 4.66 8.93
7/14/2021 1:30:00 PM 20.19 68.342 0.047 7.12 4.57 8.9
7/14/2021 1:45:00 PM 20.38 68.684 0.047 7.13 4.91 8.92
7/14/2021 2:00:00 PM 20.6 69.08 0.046 7.14 4.63 8.89
7/14/2021 2:15:00 PM 20.73 69.314 0.046 7.14 4.64 8.84
7/14/2021 2:30:00 PM 20.84 69.512 0.046 7.13 4.42 8.79
7/14/2021 2:45:00 PM 20.9 69.62 0.046 7.13 4.77 8.74
7/14/2021 3:00:00 PM 20.86 69.548 0.046 7.11 4.48 8.72
7/14/2021 3:15:00 PM 20.77 69.386 0.046 7.1 4.78 8.69
7/14/2021 3:30:00 PM 20.73 69.314 0.045 7.1 4.55 8.7
7/14/2021 3:45:00 PM 20.78 69.404 0.045 7.1 5.14 8.73
7/14/2021 4:00:00 PM 20.72 69.296 0.045 7.09 5.21 8.71
7/14/2021 4:15:00 PM 20.7 69.26 0.045 7.09 4.07 8.72
7/14/2021 4:30:00 PM 20.66 69.188 0.045 7.09 4.2 8.72
7/14/2021 4:45:00 PM 20.68 69.224 0.045 7.09 4.35 8.73
7/14/2021 5:00:00 PM 20.65 69.17 0.045 7.08 4.12 8.68
7/14/2021 5:15:00 PM 20.68 69.224 0.044 7.06 4.14 8.65
7/14/2021 5:30:00 PM 20.7 69.26 0.044 7.04 4.02 8.55
7/14/2021 5:45:00 PM 20.68 69.224 0.044 7.03 3.85 8.54
7/14/2021 6:00:00 PM 20.64 69.152 0.044 7.02 3.9 8.51
7/14/2021 6:15:00 PM 20.64 69.152 0.044 7.03 3.75 8.55
7/14/2021 6:30:00 PM 20.63 69.134 0.044 7.02 3.72 8.54
7/14/2021 6:45:00 PM 20.63 69.134 0.044 7.02 3.7 8.55
7/14/2021 7:00:00 PM 20.6 69.08 0.044 7.01 4.07 8.57
7/14/2021 7:15:00 PM 20.56 69.008 0.044 7.01 3.68 8.57
7/14/2021 7:30:00 PM 20.5 68.9 0.044 6.99 3.48 8.52
7/14/2021 7:45:00 PM 20.44 68.792 0.044 6.98 3.59 8.48
7/14/2021 8:00:00 PM 20.4 68.72 0.044 6.96 4.1 8.47
7/14/2021 8:15:00 PM 20.35 68.63 0.044 6.96 3.68 8.43
7/14/2021 8:30:00 PM 20.31 68.558 0.044 6.95 3.62 8.41
7/14/2021 8:45:00 PM 20.26 68.468 0.044 6.94 3.72 8.41
7/14/2021 9:00:00 PM 20.2 68.36 0.044 6.93 5.58 8.38
7/14/2021 9:15:00 PM 20.14 68.252 0.044 6.92 4.09 8.38
7/14/2021 9:30:00 PM 20.06 68.108 0.044 6.91 3.75 8.39
7/14/2021 9:45:00 PM 19.98 67.964 0.044 6.91 3.78 8.41
7/14/2021 10:00:00 PM 19.9 67.82 0.044 6.9 3.82 8.41
7/14/2021 10:15:00 PM 19.83 67.694 0.044 6.9 3.58 8.43
7/14/2021 10:30:00 PM 19.75 67.55 0.044 6.89 3.61 8.45
7/14/2021 10:45:00 PM 19.67 67.406 0.044 6.89 3.54 8.46
7/14/2021 11:00:00 PM 19.6 67.28 0.044 6.89 3.35 8.48
7/14/2021 11:15:00 PM 19.53 67.154 0.044 6.89 3.57 8.49
7/14/2021 11:30:00 PM 19.45 67.01 0.044 6.89 3.54 8.49
7/14/2021 11:45:00 PM 19.38 66.884 0.044 6.89 3.62 8.49
7/15/2021 12:00:00 AM 19.32 66.776 0.044 6.88 3.24 8.52
7/15/2021 12:15:00 AM 19.25 66.65 0.044 6.88 3.68 8.53
7/15/2021 12:30:00 AM 19.19 66.542 0.044 6.88 3.85 8.54
7/15/2021 12:45:00 AM 19.14 66.452 0.044 6.87 3.4 8.54
7/15/2021 1:00:00 AM 19.07 66.326 0.044 6.87 4.01 8.56
7/15/2021 1:15:00 AM 19.01 66.218 0.044 6.87 3.46 8.56
7/15/2021 1:30:00 AM 18.96 66.128 0.044 6.87 3.41 8.57
7/15/2021 1:45:00 AM 18.9 66.02 0.044 6.87 3.51 8.58
7/15/2021 2:00:00 AM 18.85 65.93 0.044 6.87 3.3 8.56
7/15/2021 2:15:00 AM 18.8 65.84 0.045 6.87 3.22 8.59
7/15/2021 2:30:00 AM 18.75 65.75 0.044 6.87 3.2 8.61
7/15/2021 2:45:00 AM 18.68 65.624 0.044 6.87 3.31 8.61
7/15/2021 3:00:00 AM 18.62 65.516 0.044 6.86 3.17 8.63
7/15/2021 3:15:00 AM 18.57 65.426 0.044 6.86 3.03 8.64
7/15/2021 3:30:00 AM 18.51 65.318 0.044 6.86 3.18 8.65
7/15/2021 3:45:00 AM 18.46 65.228 0.044 6.86 2.96 8.64
7/15/2021 4:00:00 AM 18.4 65.12 0.044 6.86 3.19 8.67
7/15/2021 4:15:00 AM 18.35 65.03 0.044 6.86 2.99 8.67
7/15/2021 4:30:00 AM 18.3 64.94 0.044 6.85 2.96 8.7
7/15/2021 4:45:00 AM 18.25 64.85 0.044 6.85 3.13 8.69
7/15/2021 5:00:00 AM 18.2 64.76 0.044 6.85 3.01 8.7
7/15/2021 5:15:00 AM 18.16 64.688 0.044 6.85 3.09 8.71
7/15/2021 5:30:00 AM 18.11 64.598 0.044 6.84 3.13 8.71
7/15/2021 5:45:00 AM 18.07 64.526 0.044 6.85 3.05 8.72
7/15/2021 6:00:00 AM 18.02 64.436 0.044 6.84 3.07 8.74
7/15/2021 6:15:00 AM 17.97 64.346 0.044 6.84 3.14 8.77
7/15/2021 6:30:00 AM 17.93 64.274 0.044 6.85 3.05 8.8
7/15/2021 6:45:00 AM 17.89 64.202 0.044 6.86 2.9 8.86
7/15/2021 7:00:00 AM 17.87 64.166 0.044 6.86 2.83 8.88
7/15/2021 7:15:00 AM 17.85 64.13 0.044 6.88 2.86 8.95
7/15/2021 7:30:00 AM 17.82 64.076 0.044 6.88 2.79 8.98
7/15/2021 7:45:00 AM 17.81 64.058 0.044 6.89 2.72 9.02
7/15/2021 8:00:00 AM 17.83 64.094 0.044 6.91 2.96 9.07
7/15/2021 8:15:00 AM 17.83 64.094 0.044 6.92 2.84 9.1
7/15/2021 8:30:00 AM 17.86 64.148 0.044 6.93 2.64 9.12
7/15/2021 8:45:00 AM 17.93 64.274 0.044 6.94 2.72 9.16
7/15/2021 9:00:00 AM 18.01 64.418 0.044 6.95 2.59 9.17
7/15/2021 9:15:00 AM 18.08 64.544 0.044 6.96 2.58 9.19
7/15/2021 9:30:00 AM 18.14 64.652 0.044 6.97 2.62 9.2
7/15/2021 9:45:00 AM 18.25 64.85 0.044 6.98 2.63 9.21
7/15/2021 10:00:00 AM 18.37 65.066 0.044 6.99 2.55 9.16
7/15/2021 10:15:00 AM 18.5 65.3 0.044 7 2.64 9.23
7/15/2021 10:30:00 AM 18.64 65.552 0.044 7 2.56 9.23
7/15/2021 10:45:00 AM 18.8 65.84 0.044 7.01 2.48 9.2
7/15/2021 11:00:00 AM 18.92 66.056 0.043 7.02 2.55 9.19
7/15/2021 11:15:00 AM 19.11 66.398 0.043 7.03 2.66 9.17
7/15/2021 11:30:00 AM 19.4 66.92 0.043 7.05 2.58 9.17
7/15/2021 11:45:00 AM 19.66 67.388 0.043 7.06 2.48 9.12
7/15/2021 12:00:00 PM 19.96 67.92799 0.043 7.07 2.94 9.09
7/15/2021 12:15:00 PM 20.26 68.468 0.043 7.08 2.41 9.03
7/15/2021 12:30:00 PM 20.5 68.9 0.043 7.08 2.65 9.01
7/15/2021 12:45:00 PM 20.79 69.422 0.043 7.09 2.52 8.97
7/15/2021 1:00:00 PM 21 69.8 0.043 7.09 2.51 8.94
7/15/2021 1:15:00 PM 21.15 70.07 0.043 7.09 2.56 8.9
7/15/2021 1:30:00 PM 21.37 70.466 0.043 7.1 2.74 8.87
7/15/2021 1:45:00 PM 21.54 70.772 0.043 7.11 2.6 8.82
7/15/2021 2:00:00 PM 21.62 70.916 0.043 7.1 2.45 8.78
7/15/2021 2:15:00 PM 21.79 71.222 0.043 7.11 2.53 8.77
7/15/2021 2:30:00 PM 21.92 71.456 0.043 7.1 2.5 8.74
7/15/2021 2:45:00 PM 22.02 71.636 0.043 7.1 2.39 8.7
7/15/2021 3:00:00 PM 22.08 71.744 0.044 7.1 2.38 8.65
7/15/2021 3:15:00 PM 22.13 71.834 0.044 7.11 2.43 8.64
7/15/2021 3:30:00 PM 22.16 71.888 0.043 7.1 2.37 8.61
7/15/2021 3:45:00 PM 22.17 71.906 0.043 7.1 2.34 8.59
7/15/2021 4:00:00 PM 22.14 71.852 0.043 7.09 2.33 8.57
7/15/2021 4:15:00 PM 22.04 71.672 0.043 7.08 2.49 8.52
7/15/2021 4:30:00 PM 22.04 71.672 0.043 7.08 2.36 8.53
7/15/2021 4:45:00 PM 22.03 71.654 0.043 7.08 2.31 8.54
7/15/2021 5:00:00 PM 21.91 71.438 0.043 7.07 2.38 8.51
7/15/2021 5:15:00 PM 21.84 71.312 0.043 7.05 2.32 8.47
7/15/2021 5:30:00 PM 21.83 71.294 0.043 7.05 2.47 8.44
7/15/2021 5:45:00 PM 21.78 71.204 0.043 7.04 2.36 8.44
7/15/2021 6:00:00 PM 21.72 71.096 0.043 7.03 2.36 8.42
7/15/2021 6:15:00 PM 21.67 71.006 0.043 7.03 2.35 8.42
7/15/2021 6:30:00 PM 21.63 70.934 0.043 7.02 2.5 8.37
7/15/2021 6:45:00 PM 21.57 70.826 0.044 7 2.28 8.35
7/15/2021 7:00:00 PM 21.52 70.736 0.044 6.99 2.44 8.33
7/15/2021 7:15:00 PM 21.47 70.646 0.044 6.98 2.38 8.3
7/15/2021 7:30:00 PM 21.44 70.592 0.044 6.97 2.3 8.25
7/15/2021 7:45:00 PM 21.4 70.52 0.044 6.96 2.32 8.26
7/15/2021 8:00:00 PM 21.36 70.448 0.044 6.96 2.34 8.23
7/15/2021 8:15:00 PM 21.31 70.358 0.044 6.94 2.17 8.2
7/15/2021 8:30:00 PM 21.24 70.232 0.044 6.92 2.2 8.17
7/15/2021 8:45:00 PM 21.18 70.124 0.044 6.9 2.38 8.13
7/15/2021 9:00:00 PM 21.12 70.016 0.044 6.9 2.24 8.11
7/15/2021 9:15:00 PM 21.06 69.908 0.044 6.88 2.41 8.1
7/15/2021 9:30:00 PM 20.99 69.782 0.044 6.88 2.3 8.1
7/15/2021 9:45:00 PM 20.92 69.656 0.044 6.88 2.38 8.11
7/15/2021 10:00:00 PM 20.85 69.53 0.044 6.87 2.26 8.1
7/15/2021 10:15:00 PM 20.78 69.404 0.044 6.87 2.46 8.1
7/15/2021 10:30:00 PM 20.71 69.278 0.045 6.87 2.34 8.13
7/15/2021 10:45:00 PM 20.63 69.134 0.045 6.87 2.26 8.15
7/15/2021 11:00:00 PM 20.56 69.008 0.045 6.87 2.34 8.16
7/15/2021 11:15:00 PM 20.48 68.864 0.045 6.87 2.3 8.17
7/15/2021 11:30:00 PM 20.4 68.72 0.045 6.87 2.44 8.17
7/15/2021 11:45:00 PM 20.32 68.576 0.045 6.87 2.19 8.2
7/16/2021 12:00:00 AM 20.24 68.432 0.045 6.86 2.28 8.21
7/16/2021 12:15:00 AM 20.17 68.306 0.045 6.86 2.31 8.22
7/16/2021 12:30:00 AM 20.09 68.162 0.045 6.86 2.21 8.22
7/16/2021 12:45:00 AM 20.02 68.036 0.045 6.86 2.3 8.25
7/16/2021 1:00:00 AM 19.94 67.892 0.045 6.86 2.15 8.26
7/16/2021 1:15:00 AM 19.87 67.766 0.045 6.85 2.24 8.27
7/16/2021 1:30:00 AM 19.8 67.64 0.045 6.85 2.23 8.28
7/16/2021 1:45:00 AM 19.73 67.514 0.045 6.85 2.18 8.3
7/16/2021 2:00:00 AM 19.66 67.388 0.045 6.85 2.26 8.31
7/16/2021 2:15:00 AM 19.59 67.262 0.045 6.85 2.23 8.31
7/16/2021 2:30:00 AM 19.53 67.154 0.045 6.85 2.29 8.31
7/16/2021 2:45:00 AM 19.46 67.028 0.045 6.85 2.24 8.34
7/16/2021 3:00:00 AM 19.39 66.902 0.045 6.85 2.13 8.35
7/16/2021 3:15:00 AM 19.32 66.776 0.045 6.85 2.22 8.36
7/16/2021 3:30:00 AM 19.26 66.668 0.045 6.85 2.51 8.39
7/16/2021 3:45:00 AM 19.2 66.56 0.045 6.85 2.16 8.4
7/16/2021 4:00:00 AM 19.14 66.452 0.045 6.85 2.23 8.4
7/16/2021 4:15:00 AM 19.07 66.326 0.045 6.86 2.21 8.42
7/16/2021 4:30:00 AM 19 66.2 0.045 6.85 2.28 8.42
7/16/2021 4:45:00 AM 18.94 66.092 0.046 6.85 2.37 8.44
7/16/2021 5:00:00 AM 18.88 65.984 0.046 6.85 2.32 8.45
7/16/2021 5:15:00 AM 18.81 65.858 0.046 6.85 2.32 8.45
7/16/2021 5:30:00 AM 18.76 65.768 0.046 6.85 2.3 8.47
7/16/2021 5:45:00 AM 18.7 65.66 0.046 6.84 2.17 8.49
7/16/2021 6:00:00 AM 18.63 65.534 0.046 6.84 2.15 8.51
7/16/2021 6:15:00 AM 18.58 65.444 0.046 6.85 2.38 8.54
7/16/2021 6:30:00 AM 18.54 65.372 0.046 6.85 2.17 8.59
7/16/2021 6:45:00 AM 18.49 65.282 0.046 6.86 2.14 8.64
7/16/2021 7:00:00 AM 18.46 65.228 0.046 6.87 2.03 8.68
7/16/2021 7:15:00 AM 18.43 65.174 0.045 6.88 1.98 8.75
7/16/2021 7:30:00 AM 18.41 65.138 0.045 6.89 2 8.79
7/16/2021 7:45:00 AM 18.4 65.12 0.045 6.9 2.11 8.84
7/16/2021 8:00:00 AM 18.4 65.12 0.045 6.91 2.05 8.9
7/16/2021 8:15:00 AM 18.41 65.138 0.045 6.92 2.31 8.93
7/16/2021 8:30:00 AM 18.43 65.174 0.045 6.93 2.11 8.97
7/16/2021 8:45:00 AM 18.48 65.264 0.045 6.94 2.19 8.99
7/16/2021 9:00:00 AM 18.55 65.39 0.045 6.95 2.21 9.03
7/16/2021 9:15:00 AM 18.62 65.516 0.045 6.96 2.03 9.04
7/16/2021 9:30:00 AM 18.71 65.67799 0.045 6.98 2.03 9.05
7/16/2021 9:45:00 AM 18.81 65.858 0.045 6.98 2.15 9.07
7/16/2021 10:00:00 AM 18.93 66.074 0.045 7 1.97 9.04
7/16/2021 10:15:00 AM 19.07 66.326 0.045 7.01 2.07 9.09
7/16/2021 10:30:00 AM 19.23 66.614 0.045 7.03 2.09 9.09
7/16/2021 10:45:00 AM 19.41 66.938 0.045 7.04 2.07 9.09
7/16/2021 11:00:00 AM 19.63 67.334 0.045 7.05 2.03 9.1
7/16/2021 11:15:00 AM 19.82 67.676 0.045 7.06 1.97 9.07
7/16/2021 11:30:00 AM 20 68 0.045 7.06 2.06 9.07
7/16/2021 11:45:00 AM 20.29 68.522 0.045 7.08 1.98 9.01
7/16/2021 12:00:00 PM 20.55 68.99 0.045 7.1 2.02 9
7/16/2021 12:15:00 PM 20.61 69.098 0.045 7.08 2.05 8.89
7/16/2021 12:30:00 PM 20.77 69.386 0.045 7.09 2.21 8.89
7/16/2021 12:45:00 PM 20.81 69.458 0.045 7.08 2.12 8.85
7/16/2021 1:00:00 PM 20.79 69.422 0.045 7.07 2.16 8.81
7/16/2021 1:15:00 PM 20.84 69.512 0.045 7.07 2.02 8.79
7/16/2021 1:30:00 PM 21.15 70.07 0.045 7.1 1.91 8.84
7/16/2021 1:45:00 PM 21.31 70.358 0.045 7.1 1.99 8.78
7/16/2021 2:00:00 PM 21.35 70.43 0.045 7.09 2.01 8.76
7/16/2021 2:15:00 PM 21.42 70.556 0.045 7.09 2 8.68
7/16/2021 2:30:00 PM 21.32 70.376 0.045 7.06 2.13 8.56
7/16/2021 2:45:00 PM 21.3 70.34 0.045 7.04 2.21 8.5
7/16/2021 3:00:00 PM 21.23 70.214 0.045 7.02 1.97 8.43
7/16/2021 3:15:00 PM 21.13 70.034 0.045 7.01 2.16 8.38
7/16/2021 3:30:00 PM 21.06 69.908 0.045 7.01 2.07 8.44
7/16/2021 3:45:00 PM 21.01 69.818 0.045 7.02 2.16 8.51
7/16/2021 4:00:00 PM 21.01 69.818 0.045 7.04 2.07 8.58
7/16/2021 4:15:00 PM 21.08 69.944 0.045 7.05 1.87 8.65
7/16/2021 4:30:00 PM 21.18 70.124 0.045 7.07 2 8.69
7/16/2021 4:45:00 PM 21.1 69.98 0.045 7.07 2.03 8.65
7/16/2021 5:00:00 PM 21.06 69.908 0.045 7.06 2.03 8.64
7/16/2021 5:15:00 PM 21.13 70.034 0.044 7.06 2.07 8.64
7/16/2021 5:30:00 PM 21.12 70.016 0.044 7.06 1.95 8.61
7/16/2021 5:45:00 PM 21.03 69.854 0.044 7.04 1.98 8.6
7/16/2021 6:00:00 PM 20.97 69.746 0.044 7.03 1.98 8.52
7/16/2021 6:15:00 PM 20.97 69.746 0.045 7.01 1.96 8.44
7/16/2021 6:30:00 PM 20.94 69.692 0.045 6.99 1.9 8.4
7/16/2021 6:45:00 PM 20.85 69.53 0.045 6.98 1.99 8.37
7/16/2021 7:00:00 PM 20.77 69.386 0.045 6.95 2.09 8.31
7/16/2021 7:15:00 PM 20.74 69.332 0.044 6.95 2.36 8.27
7/16/2021 7:30:00 PM 20.69 69.242 0.043 6.92 2.73 8.26
7/16/2021 7:45:00 PM 20.61 69.098 0.044 6.91 2.48 8.24
7/16/2021 8:00:00 PM 20.54 68.972 0.044 6.91 4.05 8.24
7/16/2021 8:15:00 PM 20.48 68.864 0.045 6.92 6.12 8.23
7/16/2021 8:30:00 PM 20.43 68.774 0.049 6.94 11.74 8.24
7/16/2021 8:45:00 PM 20.36 68.648 0.072 7.04 37.77 8.3
7/16/2021 9:00:00 PM 20.35 68.63 0.076 7.18 104.23 8.35
7/16/2021 9:15:00 PM 20.36 68.648 0.071 7.16 153.22 8.34
7/16/2021 9:30:00 PM 20.36 68.648 0.068 7.14 192.35 8.32
7/16/2021 9:45:00 PM 20.34 68.612 0.065 7.11 171.32 8.32
7/16/2021 10:00:00 PM 20.31 68.558 0.063 7.1 107.93 8.32
7/16/2021 10:15:00 PM 20.26 68.468 0.062 7.09 58.97 8.32
7/16/2021 10:30:00 PM 20.21 68.378 0.062 7.07 41.52 8.32
7/16/2021 10:45:00 PM 20.16 68.288 0.06 7.06 34.33 8.33
7/16/2021 11:00:00 PM 20.11 68.198 0.058 7.05 28.48 8.36
7/16/2021 11:15:00 PM 20.08 68.144 0.057 7.05 44.28 8.38
7/16/2021 11:30:00 PM 20.06 68.108 0.058 7.08 41.26 8.39
7/16/2021 11:45:00 PM 20.02 68.036 0.057 7.08 46.05 8.42
7/17/2021 12:00:00 AM 19.97 67.946 0.057 7.08 30.15 8.43
7/17/2021 12:15:00 AM 19.93 67.874 0.057 7.08 28.61 8.44
7/17/2021 12:30:00 AM 19.89 67.802 0.057 7.08 21.7 8.45
7/17/2021 12:45:00 AM 19.86 67.748 0.056 7.07 17.23 8.46
7/17/2021 1:00:00 AM 19.81 67.658 0.056 7.07 18.06 8.46
7/17/2021 1:15:00 AM 19.76 67.568 0.056 7.06 16.34 8.47
7/17/2021 1:30:00 AM 19.71 67.478 0.056 7.06 16.13 8.48
7/17/2021 1:45:00 AM 19.65 67.37 0.056 7.06 16.63 8.49
7/17/2021 2:00:00 AM 19.59 67.262 0.056 7.05 15.69 8.49
7/17/2021 2:15:00 AM 19.54 67.172 0.055 7.04 14.56 8.5
7/17/2021 2:30:00 AM 19.49 67.082 0.055 7.04 15.29 8.49
7/17/2021 2:45:00 AM 19.44 66.992 0.054 7.04 13.45 8.51
7/17/2021 3:00:00 AM 19.39 66.902 0.054 7.02 12.16 8.52
7/17/2021 3:15:00 AM 19.34 66.812 0.054 7.02 11.98 8.53
7/17/2021 3:30:00 AM 19.29 66.722 0.054 7.01 11.41 8.53
7/17/2021 3:45:00 AM 19.24 66.632 0.053 7.01 9.75 8.54
7/17/2021 4:00:00 AM 19.19 66.542 0.053 7 10.05 8.55
7/17/2021 4:15:00 AM 19.15 66.47 0.053 7 8.86 8.55
7/17/2021 4:30:00 AM 19.1 66.38 0.052 6.99 16.88 8.56
7/17/2021 4:45:00 AM 19.06 66.308 0.052 6.99 8.4 8.57
7/17/2021 5:00:00 AM 19.02 66.236 0.052 6.98 8.07 8.57
7/17/2021 5:15:00 AM 18.98 66.164 0.052 6.98 7.93 8.58
7/17/2021 5:30:00 AM 18.94 66.092 0.052 6.98 7.42 8.57
7/17/2021 5:45:00 AM 18.89 66.002 0.052 6.97 7.26 8.58
7/17/2021 6:00:00 AM 18.85 65.93 0.052 6.97 7.38 8.58
7/17/2021 6:15:00 AM 18.82 65.876 0.052 6.97 7.36 8.59
7/17/2021 6:30:00 AM 18.78 65.804 0.052 6.97 6.92 8.62
7/17/2021 6:45:00 AM 18.75 65.75 0.052 6.97 6.77 8.64
7/17/2021 7:00:00 AM 18.73 65.714 0.052 6.98 6.61 8.68
7/17/2021 7:15:00 AM 18.71 65.67799 0.052 6.99 6.14 8.72
7/17/2021 7:30:00 AM 18.71 65.67799 0.051 7 5.98 8.77
7/17/2021 7:45:00 AM 18.7 65.66 0.051 7 5.92 8.8
7/17/2021 8:00:00 AM 18.7 65.66 0.051 7.01 5.93 8.82
7/17/2021 8:15:00 AM 18.7 65.66 0.051 7.01 5.63 8.84
7/17/2021 8:30:00 AM 18.71 65.67799 0.051 7.02 5.11 8.86
7/17/2021 8:45:00 AM 18.71 65.67799 0.051 7.02 5.13 8.87
7/17/2021 9:00:00 AM 18.75 65.75 0.051 7.03 48.06 8.9
7/17/2021 9:15:00 AM 18.78 65.804 0.051 7.05 4.74 8.96
7/17/2021 9:30:00 AM 18.88 65.984 0.051 7.06 4.71 9
7/17/2021 9:45:00 AM 18.95 66.11 0.051 7.07 4.92 9.02
7/17/2021 10:00:00 AM 19.06 66.308 0.051 7.08 4.58 9.05
7/17/2021 10:15:00 AM 19.18 66.524 0.051 7.1 4.68 9.07
7/17/2021 10:30:00 AM 19.23 66.614 0.051 7.1 4.9 9.03
7/17/2021 10:45:00 AM 19.23 66.614 0.05 7.1 4.72 9.02
7/17/2021 11:00:00 AM 19.32 66.776 0.05 7.11 4.29 9.06
7/17/2021 11:15:00 AM 19.54 67.172 0.05 7.13 4.33 9.06
7/17/2021 11:30:00 AM 19.71 67.478 0.05 7.14 4.49 9.06
7/17/2021 11:45:00 AM 19.93 67.874 0.05 7.15 4.24 9.03
7/17/2021 12:00:00 PM 20 68 0.05 7.15 4.18 9
7/17/2021 12:15:00 PM 20.16 68.288 0.05 7.16 3.97 9
7/17/2021 12:30:00 PM 20.37 68.666 0.05 7.17 4.16 8.97
7/17/2021 12:45:00 PM 20.54 68.972 0.049 7.17 4.06 8.96
7/17/2021 1:00:00 PM 20.68 69.224 0.049 7.18 4.67 8.92
7/17/2021 1:15:00 PM 20.87 69.566 0.049 7.19 3.86 8.91
7/17/2021 1:30:00 PM 20.95 69.71 0.049 7.18 4.06 8.87
7/17/2021 1:45:00 PM 21.07 69.926 0.049 7.19 3.82 8.86
7/17/2021 2:00:00 PM 21.19 70.142 0.049 7.18 4 8.84
7/17/2021 2:15:00 PM 21.37 70.466 0.049 7.19 3.73 8.8
7/17/2021 2:30:00 PM 21.49 70.682 0.049 7.19 3.89 8.76
7/17/2021 2:45:00 PM 21.68 71.024 0.048 7.19 3.74 8.74
7/17/2021 3:00:00 PM 21.8 71.24 0.048 7.18 3.69 8.69
7/17/2021 3:15:00 PM 21.94 71.492 0.048 7.18 3.85 8.66
7/17/2021 3:30:00 PM 21.94 71.492 0.048 7.17 4.04 8.57
7/17/2021 3:45:00 PM 22.05 71.69 0.048 7.17 3.92 8.57
7/17/2021 4:00:00 PM 22.05 71.69 0.048 7.15 3.84 8.51
7/17/2021 4:15:00 PM 22.12 71.816 0.048 7.15 3.63 8.5
7/17/2021 4:30:00 PM 22.15 71.87 0.048 7.14 3.44 8.44
7/17/2021 4:45:00 PM 22.23 72.014 0.048 7.14 3.42 8.41
7/17/2021 5:00:00 PM 22.25 72.05 0.048 7.13 3.46 8.39
7/17/2021 5:15:00 PM 22.23 72.014 0.048 7.13 3.47 8.36
7/17/2021 5:30:00 PM 22.17 71.906 0.048 7.12 3.5 8.36
7/17/2021 5:45:00 PM 22.14 71.852 0.048 7.11 3.4 8.31
7/17/2021 6:00:00 PM 22.01 71.618 0.048 7.09 3.33 8.29
7/17/2021 6:15:00 PM 21.9 71.42 0.048 7.08 3.57 8.26
7/17/2021 6:30:00 PM 21.8 71.24 0.048 7.06 3.49 8.2
7/17/2021 6:45:00 PM 21.71 71.078 0.048 7.04 3.53 8.13
7/17/2021 7:00:00 PM 21.62 70.916 0.047 7.02 3.96 8.08
7/17/2021 7:15:00 PM 21.54 70.772 0.048 7 3.78 8.06
7/17/2021 7:30:00 PM 21.44 70.592 0.048 6.99 3.47 8.03
7/17/2021 7:45:00 PM 21.34 70.412 0.048 6.98 3.65 8.05
7/17/2021 8:00:00 PM 21.24 70.232 0.048 6.97 3.52 8.07
7/17/2021 8:15:00 PM 21.17 70.106 0.048 6.97 3.76 8.07
7/17/2021 8:30:00 PM 21.1 69.98 0.048 6.97 3.71 8.09
7/17/2021 8:45:00 PM 21.03 69.854 0.048 6.97 4.05 8.1
7/17/2021 9:00:00 PM 20.97 69.746 0.049 6.98 4.57 8.09
7/17/2021 9:15:00 PM 20.9 69.62 0.051 6.99 4.33 8.12
7/17/2021 9:30:00 PM 20.83 69.494 0.051 6.99 4.97 8.13
7/17/2021 9:45:00 PM 20.75 69.35 0.052 6.99 6.07 8.15
7/17/2021 10:00:00 PM 20.67 69.206 0.052 6.99 8.38 8.17
7/17/2021 10:15:00 PM 20.59 69.062 0.052 6.99 9.45 8.18
7/17/2021 10:30:00 PM 20.51 68.918 0.051 6.99 9.5 8.21
7/17/2021 10:45:00 PM 20.44 68.792 0.051 6.98 10.01 8.24
7/17/2021 11:00:00 PM 20.36 68.648 0.05 6.98 10.03 8.26
7/17/2021 11:15:00 PM 20.28 68.504 0.049 6.98 10.85 8.28
7/17/2021 11:30:00 PM 20.2 68.36 0.049 6.98 11.16 8.3
7/17/2021 11:45:00 PM 20.12 68.216 0.048 6.97 10.68 8.32
7/18/2021 12:00:00 AM 20.04 68.07201 0.047 6.97 10.21 8.36
7/18/2021 12:15:00 AM 19.95 67.91 0.047 6.97 10.2 8.38
7/18/2021 12:30:00 AM 19.88 67.784 0.046 6.96 10.26 8.41
7/18/2021 12:45:00 AM 19.81 67.658 0.045 6.95 9.33 8.42
7/18/2021 1:00:00 AM 19.74 67.532 0.044 6.95 9.84 8.44
7/18/2021 1:15:00 AM 19.66 67.388 0.044 6.94 9.99 8.46
7/18/2021 1:30:00 AM 19.58 67.244 0.043 6.94 9.65 8.48
7/18/2021 1:45:00 AM 19.5 67.1 0.042 6.93 10.74 8.49
7/18/2021 2:00:00 AM 19.42 66.956 0.041 6.92 11.85 8.52
7/18/2021 2:15:00 AM 19.34 66.812 0.039 6.91 14.61 8.55
7/18/2021 2:30:00 AM 19.26 66.668 0.038 6.89 16.72 8.58
7/18/2021 2:45:00 AM 19.18 66.524 0.037 6.87 19.18 8.61
7/18/2021 3:00:00 AM 19.11 66.398 0.036 6.87 22.25 8.64
7/18/2021 3:15:00 AM 19.04 66.272 0.035 6.85 20.07 8.64
7/18/2021 3:30:00 AM 18.99 66.182 0.034 6.83 21.07 8.66
7/18/2021 3:45:00 AM 18.93 66.074 0.033 6.81 22.61 8.66
7/18/2021 4:00:00 AM 18.88 65.984 0.033 6.81 18.8 8.68
7/18/2021 4:15:00 AM 18.83 65.894 0.033 6.81 23.77 8.68
7/18/2021 4:30:00 AM 18.78 65.804 0.032 6.78 19.58 8.69
7/18/2021 4:45:00 AM 18.74 65.732 0.032 6.79 21.74 8.71
7/18/2021 5:00:00 AM 18.7 65.66 0.032 6.78 21.51 8.72
7/18/2021 5:15:00 AM 18.68 65.624 0.032 6.78 17.45 8.72
7/18/2021 5:30:00 AM 18.66 65.588 0.032 6.77 16.63 8.73
7/18/2021 5:45:00 AM 18.65 65.57 0.032 6.76 15.61 8.73
7/18/2021 6:00:00 AM 18.63 65.534 0.031 6.78 17.66 8.73
7/18/2021 6:15:00 AM 18.63 65.534 0.031 6.77 16.58 8.73
7/18/2021 6:30:00 AM 18.62 65.516 0.031 6.76 17.04 8.75
7/18/2021 6:45:00 AM 18.62 65.516 0.031 6.75 16.26 8.76
7/18/2021 7:00:00 AM 18.63 65.534 0.031 6.76 15.42 8.77
7/18/2021 7:15:00 AM 18.63 65.534 0.031 6.76 15.07 8.77
7/18/2021 7:30:00 AM 18.62 65.516 0.031 6.78 14.66 8.78
7/18/2021 7:45:00 AM 18.63 65.534 0.031 6.76 13.52 8.8
7/18/2021 8:00:00 AM 18.64 65.552 0.031 6.78 13.85 8.83
7/18/2021 8:15:00 AM 18.65 65.57 0.031 6.8 12.62 8.86
7/18/2021 8:30:00 AM 18.65 65.57 0.031 6.78 12.92 8.85
7/18/2021 8:45:00 AM 18.65 65.57 0.032 6.79 12 8.84
7/18/2021 9:00:00 AM 18.66 65.588 0.032 6.81 11.41 8.86
7/18/2021 9:15:00 AM 18.67 65.606 0.032 6.81 10.67 8.87
7/18/2021 9:30:00 AM 18.68 65.624 0.032 6.81 10.86 8.88
7/18/2021 9:45:00 AM 18.67 65.606 0.032 6.83 11.88 8.88
7/18/2021 10:00:00 AM 18.65 65.57 0.032 6.83 10.3 8.88
7/18/2021 10:15:00 AM 18.65 65.57 0.032 6.83 10.4 8.92
7/18/2021 10:30:00 AM 18.71 65.67799 0.032 6.86 9.87 8.97
7/18/2021 10:45:00 AM 18.77 65.786 0.032 6.87 9.82 8.98
7/18/2021 11:00:00 AM 18.8 65.84 0.032 6.88 9.66 8.97
7/18/2021 11:15:00 AM 18.86 65.948 0.032 6.87 9.62 8.97
7/18/2021 11:30:00 AM 18.91 66.038 0.032 6.89 9.12 8.96
7/18/2021 11:45:00 AM 18.95 66.11 0.032 6.89 8.77 8.95
7/18/2021 12:00:00 PM 18.95 66.11 0.032 6.87 8.88 8.92
7/18/2021 12:15:00 PM 18.99 66.182 0.032 6.87 9.5 8.93
7/18/2021 12:30:00 PM 19.01 66.218 0.032 6.88 8.86 8.93
7/18/2021 12:45:00 PM 19.04 66.272 0.033 6.9 8.28 8.95
7/18/2021 1:00:00 PM 19.07 66.326 0.034 6.92 7.58 8.96
7/18/2021 1:15:00 PM 19.1 66.38 0.034 6.92 7.79 8.95
7/18/2021 1:30:00 PM 19.11 66.398 0.034 6.94 7.39 8.95
7/18/2021 1:45:00 PM 19.13 66.434 0.034 6.93 7.66 8.94
7/18/2021 2:00:00 PM 19.17 66.506 0.034 6.94 7.49 8.96
7/18/2021 2:15:00 PM 19.15 66.47 0.034 6.93 7.35 8.92
7/18/2021 2:30:00 PM 19.13 66.434 0.034 6.92 7.15 8.92
7/18/2021 2:45:00 PM 19.12 66.416 0.034 6.93 7.51 8.94
7/18/2021 3:00:00 PM 19.12 66.416 0.034 6.93 7.41 8.94
7/18/2021 3:15:00 PM 19.09 66.362 0.034 6.92 7.16 8.9
7/18/2021 3:30:00 PM 19.07 66.326 0.034 6.91 6.63 8.9
7/18/2021 3:45:00 PM 19.06 66.308 0.034 6.92 6.94 8.89
7/18/2021 4:00:00 PM 19.08 66.344 0.034 6.92 7.05 8.91
7/18/2021 4:15:00 PM 19.1 66.38 0.034 6.92 6.48 8.92
7/18/2021 4:30:00 PM 19.11 66.398 0.034 6.92 6.78 8.92
7/18/2021 4:45:00 PM 19.13 66.434 0.034 6.92 15.02 8.93
7/18/2021 5:00:00 PM 19.17 66.506 0.034 6.94 6.78 8.94
7/18/2021 5:15:00 PM 19.18 66.524 0.034 6.94 6.57 8.93
7/18/2021 5:30:00 PM 19.21 66.578 0.034 6.92 6.45 8.9
7/18/2021 5:45:00 PM 19.17 66.506 0.034 6.91 6.36 8.88
7/18/2021 6:00:00 PM 19.13 66.434 0.034 6.9 6.57 8.83
7/18/2021 6:15:00 PM 19.09 66.362 0.034 6.9 6.05 8.81
7/18/2021 6:30:00 PM 19.05 66.29 0.034 6.88 5.75 8.8
7/18/2021 6:45:00 PM 18.99 66.182 0.034 6.88 5.89 8.8
7/18/2021 7:00:00 PM 18.93 66.074 0.034 6.86 6.15 8.79
7/18/2021 7:15:00 PM 18.87 65.966 0.034 6.86 6.18 8.77
7/18/2021 7:30:00 PM 18.81 65.858 0.034 6.86 5.96 8.77
7/18/2021 7:45:00 PM 18.76 65.768 0.034 6.86 6.07 8.77
7/18/2021 8:00:00 PM 18.72 65.696 0.035 6.84 5.87 8.76
7/18/2021 8:15:00 PM 18.68 65.624 0.034 6.85 5.81 8.76
7/18/2021 8:30:00 PM 18.64 65.552 0.035 6.83 5.68 8.75
7/18/2021 8:45:00 PM 18.6 65.48 0.035 6.83 5.81 8.75
7/18/2021 9:00:00 PM 18.56 65.408 0.035 6.82 5.54 8.74
7/18/2021 9:15:00 PM 18.52 65.336 0.035 6.82 6.19 8.74
7/18/2021 9:30:00 PM 18.47 65.246 0.035 6.82 5.6 8.75
7/18/2021 9:45:00 PM 18.43 65.174 0.035 6.8 5.44 8.75
7/18/2021 10:00:00 PM 18.39 65.102 0.035 6.81 5.72 8.76
7/18/2021 10:15:00 PM 18.34 65.012 0.035 6.82 5.63 8.77
7/18/2021 10:30:00 PM 18.3 64.94 0.035 6.81 5.5 8.78
7/18/2021 10:45:00 PM 18.26 64.868 0.035 6.8 5.78 8.78
7/18/2021 11:00:00 PM 18.22 64.796 0.035 6.8 5.41 8.79
7/18/2021 11:15:00 PM 18.18 64.724 0.035 6.81 5.55 8.79
7/18/2021 11:30:00 PM 18.14 64.652 0.035 6.8 5.66 8.79
7/18/2021 11:45:00 PM 18.1 64.58 0.035 6.79 5.29 8.8
7/19/2021 12:00:00 AM 18.06 64.508 0.035 6.8 5.45 8.81
7/19/2021 12:15:00 AM 18.02 64.436 0.035 6.8 5.17 8.83
7/19/2021 12:30:00 AM 17.97 64.346 0.035 6.8 5.16 8.83
7/19/2021 12:45:00 AM 17.92 64.256 0.035 6.79 5.13 8.85
7/19/2021 1:00:00 AM 17.88 64.184 0.035 6.79 4.93 8.85
7/19/2021 1:15:00 AM 17.83 64.094 0.035 6.8 5.14 8.86
7/19/2021 1:30:00 AM 17.78 64.004 0.035 6.79 5.48 8.87
7/19/2021 1:45:00 AM 17.73 63.914 0.035 6.79 5.46 8.88
7/19/2021 2:00:00 AM 17.68 63.824 0.035 6.79 4.93 8.89
7/19/2021 2:15:00 AM 17.63 63.734 0.035 6.78 4.99 8.9
7/19/2021 2:30:00 AM 17.59 63.662 0.035 6.79 4.75 8.89
7/19/2021 2:45:00 AM 17.54 63.572 0.035 6.79 4.98 8.89
7/19/2021 3:00:00 AM 17.49 63.482 0.035 6.79 4.92 8.91
7/19/2021 3:15:00 AM 17.44 63.392 0.035 6.78 4.99 8.91
7/19/2021 3:30:00 AM 17.39 63.302 0.035 6.78 4.96 8.92
7/19/2021 3:45:00 AM 17.35 63.23 0.035 6.78 4.91 8.92
7/19/2021 4:00:00 AM 17.31 63.158 0.035 6.78 4.99 8.93
7/19/2021 4:15:00 AM 17.28 63.104 0.035 6.78 4.9 8.95
7/19/2021 4:30:00 AM 17.23 63.014 0.036 6.77 4.57 8.95
7/19/2021 4:45:00 AM 17.19 62.942 0.036 6.77 5.14 8.98
7/19/2021 5:00:00 AM 17.14 62.852 0.036 6.78 4.76 8.98
7/19/2021 5:15:00 AM 17.09 62.762 0.036 6.77 4.87 8.98
7/19/2021 5:30:00 AM 17.05 62.69 0.036 6.77 5.04 8.98
7/19/2021 5:45:00 AM 17 62.6 0.036 6.77 4.95 8.99
7/19/2021 6:00:00 AM 16.96 62.528 0.036 6.77 5.03 9.01
7/19/2021 6:15:00 AM 16.91 62.438 0.036 6.77 4.72 9.03
7/19/2021 6:30:00 AM 16.87 62.366 0.036 6.77 4.61 9.04
7/19/2021 6:45:00 AM 16.83 62.294 0.036 6.78 4.59 9.06
7/19/2021 7:00:00 AM 16.8 62.24 0.036 6.77 4.7 9.1
7/19/2021 7:15:00 AM 16.78 62.204 0.036 6.79 4.68 9.13
7/19/2021 7:30:00 AM 16.76 62.168 0.036 6.8 4.5 9.17
7/19/2021 7:45:00 AM 16.75 62.15 0.036 6.81 4.2 9.2
7/19/2021 8:00:00 AM 16.77 62.186 0.036 6.81 4.28 9.23
7/19/2021 8:15:00 AM 16.79 62.222 0.036 6.82 4.44 9.25
7/19/2021 8:30:00 AM 16.83 62.294 0.036 6.83 4.39 9.27
7/19/2021 8:45:00 AM 16.88 62.384 0.036 6.84 3.96 9.29
7/19/2021 9:00:00 AM 16.95 62.51 0.036 6.84 4.19 9.31
7/19/2021 9:15:00 AM 17.03 62.654 0.036 6.86 4.1 9.33
7/19/2021 9:30:00 AM 17.12 62.816 0.036 6.86 4 9.33
7/19/2021 9:45:00 AM 17.23 63.014 0.036 6.88 4.26 9.34
7/19/2021 10:00:00 AM 17.34 63.212 0.036 6.89 3.98 9.34
7/19/2021 10:15:00 AM 17.47 63.446 0.036 6.89 4.29 9.33
7/19/2021 10:30:00 AM 17.62 63.716 0.036 6.91 4.04 9.33
7/19/2021 10:45:00 AM 17.78 64.004 0.036 6.91 4.27 9.33
7/19/2021 11:00:00 AM 17.96 64.328 0.036 6.91 4.04 9.3
7/19/2021 11:15:00 AM 18.17 64.706 0.036 6.93 3.78 9.27
7/19/2021 11:30:00 AM 18.38 65.084 0.036 6.93 4.16 9.25
7/19/2021 11:45:00 AM 18.59 65.462 0.036 6.94 3.99 9.22
7/19/2021 12:00:00 PM 18.81 65.858 0.036 6.94 4 9.17
7/19/2021 12:15:00 PM 19.04 66.272 0.036 6.96 3.91 9.15
7/19/2021 12:30:00 PM 19.27 66.686 0.036 6.96 3.88 9.13
7/19/2021 12:45:00 PM 19.48 67.064 0.036 6.96 4 9.08
7/19/2021 1:00:00 PM 19.68 67.424 0.036 6.96 3.7 9.05
7/19/2021 1:15:00 PM 19.87 67.766 0.036 6.97 3.75 9.03
7/19/2021 1:30:00 PM 20.03 68.054 0.036 6.97 3.86 8.99
7/19/2021 1:45:00 PM 20.16 68.288 0.036 6.97 3.6 8.95
7/19/2021 2:00:00 PM 20.26 68.468 0.036 6.97 3.69 8.92
7/19/2021 2:15:00 PM 20.38 68.684 0.036 6.97 3.87 8.91
7/19/2021 2:30:00 PM 20.5 68.9 0.036 6.97 3.36 8.88
7/19/2021 2:45:00 PM 20.57 69.026 0.036 6.98 3.82 8.86
7/19/2021 3:00:00 PM 20.64 69.152 0.036 6.97 3.54 8.83
7/19/2021 3:15:00 PM 20.74 69.332 0.036 6.97 3.78 8.8
7/19/2021 3:30:00 PM 20.75 69.35 0.036 6.97 3.55 8.74
7/19/2021 3:45:00 PM 20.72 69.296 0.036 6.95 3.23 8.72
7/19/2021 4:00:00 PM 20.76 69.368 0.036 6.97 3.47 8.73
7/19/2021 4:15:00 PM 20.68 69.224 0.036 6.95 3.53 8.71
7/19/2021 4:30:00 PM 20.75 69.35 0.036 6.96 3.51 8.7
7/19/2021 4:45:00 PM 20.76 69.368 0.036 6.96 3.37 8.68
7/19/2021 5:00:00 PM 20.77 69.386 0.036 6.95 3.41 8.67
7/19/2021 5:15:00 PM 20.78 69.404 0.037 6.95 3.42 8.64
7/19/2021 5:30:00 PM 20.75 69.35 0.037 6.95 3.56 8.62
7/19/2021 5:45:00 PM 20.73 69.314 0.037 6.93 3.22 8.61
7/19/2021 6:00:00 PM 20.7 69.26 0.037 6.93 3.34 8.61
7/19/2021 6:15:00 PM 20.66 69.188 0.037 6.92 3.18 8.59
7/19/2021 6:30:00 PM 20.62 69.116 0.037 6.91 3.3 8.57
7/19/2021 6:45:00 PM 20.57 69.026 0.037 6.9 3.36 8.55
7/19/2021 7:00:00 PM 20.51 68.918 0.037 6.89 3.25 8.53
7/19/2021 7:15:00 PM 20.45 68.81 0.037 6.88 3.58 8.5
7/19/2021 7:30:00 PM 20.38 68.684 0.037 6.87 3.52 8.47
7/19/2021 7:45:00 PM 20.31 68.558 0.037 6.85 3.16 8.44
7/19/2021 8:00:00 PM 20.23 68.414 0.037 6.84 3.28 8.41
7/19/2021 8:15:00 PM 20.16 68.288 0.038 6.83 3.27 8.39
7/19/2021 8:30:00 PM 20.08 68.144 0.038 6.82 3.18 8.39
7/19/2021 8:45:00 PM 19.99 67.982 0.038 6.81 3.26 8.38
7/19/2021 9:00:00 PM 19.91 67.838 0.038 6.81 3.18 8.39
7/19/2021 9:15:00 PM 19.82 67.676 0.038 6.8 3.22 8.39
7/19/2021 9:30:00 PM 19.73 67.514 0.038 6.8 2.93 8.4
7/19/2021 9:45:00 PM 19.65 67.37 0.038 6.8 3.61 8.41
7/19/2021 10:00:00 PM 19.57 67.226 0.038 6.79 3.67 8.42
7/19/2021 10:15:00 PM 19.5 67.1 0.038 6.78 3.13 8.42
7/19/2021 10:30:00 PM 19.42 66.956 0.038 6.79 2.92 8.44
7/19/2021 10:45:00 PM 19.34 66.812 0.038 6.78 3.22 8.46
7/19/2021 11:00:00 PM 19.26 66.668 0.038 6.79 3.11 8.48
7/19/2021 11:15:00 PM 19.19 66.542 0.038 6.79 3.09 8.5
7/19/2021 11:30:00 PM 19.11 66.398 0.038 6.78 3.15 8.51
7/19/2021 11:45:00 PM 19.03 66.254 0.038 6.78 3.07 8.52
7/20/2021 12:00:00 AM 18.96 66.128 0.038 6.78 3.02 8.53
7/20/2021 12:15:00 AM 18.89 66.002 0.038 6.78 2.94 8.54
7/20/2021 12:30:00 AM 18.81 65.858 0.039 6.78 3.11 8.55
7/20/2021 12:45:00 AM 18.74 65.732 0.039 6.78 2.93 8.56
7/20/2021 1:00:00 AM 18.67 65.606 0.039 6.79 3.4 8.59
7/20/2021 1:15:00 AM 18.6 65.48 0.039 6.78 2.92 8.6
7/20/2021 1:30:00 AM 18.53 65.354 0.039 6.79 2.88 8.62
7/20/2021 1:45:00 AM 18.46 65.228 0.039 6.79 3.01 8.63
7/20/2021 2:00:00 AM 18.39 65.102 0.039 6.78 3 8.63
7/20/2021 2:15:00 AM 18.33 64.994 0.039 6.78 2.84 8.65
7/20/2021 2:30:00 AM 18.26 64.868 0.039 6.78 2.73 8.65
7/20/2021 2:45:00 AM 18.2 64.76 0.039 6.78 2.74 8.66
7/20/2021 3:00:00 AM 18.13 64.634 0.039 6.78 2.84 8.67
7/20/2021 3:15:00 AM 18.07 64.526 0.039 6.78 2.85 8.68
7/20/2021 3:30:00 AM 18.01 64.418 0.039 6.78 2.92 8.7
7/20/2021 3:45:00 AM 17.94 64.292 0.039 6.77 2.72 8.71
7/20/2021 4:00:00 AM 17.89 64.202 0.039 6.77 2.86 8.73
7/20/2021 4:15:00 AM 17.83 64.094 0.039 6.77 2.64 8.73
7/20/2021 4:30:00 AM 17.77 63.986 0.039 6.77 2.82 8.76
7/20/2021 4:45:00 AM 17.72 63.896 0.039 6.77 2.71 8.75
7/20/2021 5:00:00 AM 17.67 63.806 0.039 6.77 2.77 8.77
7/20/2021 5:15:00 AM 17.62 63.716 0.039 6.77 2.83 8.78
7/20/2021 5:30:00 AM 17.57 63.626 0.039 6.77 2.68 8.78
7/20/2021 5:45:00 AM 17.52 63.536 0.039 6.77 2.79 8.78
7/20/2021 6:00:00 AM 17.48 63.464 0.039 6.77 2.68 8.79
7/20/2021 6:15:00 AM 17.43 63.374 0.039 6.77 2.83 8.81
7/20/2021 6:30:00 AM 17.4 63.32 0.039 6.77 2.72 8.84
7/20/2021 6:45:00 AM 17.36 63.248 0.039 6.78 2.9 8.87
7/20/2021 7:00:00 AM 17.34 63.212 0.039 6.78 2.63 8.91
7/20/2021 7:15:00 AM 17.32 63.176 0.039 6.79 2.81 8.95
7/20/2021 7:30:00 AM 17.31 63.158 0.039 6.8 2.75 9.01
7/20/2021 7:45:00 AM 17.3 63.14 0.039 6.82 2.75 9.05
7/20/2021 8:00:00 AM 17.31 63.158 0.039 6.83 2.67 9.1
7/20/2021 8:15:00 AM 17.33 63.194 0.039 6.84 2.57 9.13
7/20/2021 8:30:00 AM 17.35 63.23 0.039 6.85 2.94 9.17
7/20/2021 8:45:00 AM 17.39 63.302 0.039 6.86 2.81 9.2
7/20/2021 9:00:00 AM 17.44 63.392 0.039 6.87 2.63 9.22
7/20/2021 9:15:00 AM 17.5 63.5 0.039 6.88 2.59 9.23
7/20/2021 9:30:00 AM 17.57 63.626 0.039 6.88 2.67 9.25
7/20/2021 9:45:00 AM 17.65 63.77 0.038 6.89 2.68 9.27
7/20/2021 10:00:00 AM 17.74 63.932 0.038 6.9 2.57 9.29
7/20/2021 10:15:00 AM 17.85 64.13 0.038 6.91 2.53 9.29
7/20/2021 10:30:00 AM 17.96 64.328 0.038 6.92 2.45 9.29
7/20/2021 10:45:00 AM 18.1 64.58 0.038 6.93 2.44 9.28
7/20/2021 11:00:00 AM 18.25 64.85 0.038 6.94 2.48 9.26
7/20/2021 11:15:00 AM 18.4 65.12 0.038 6.95 2.67 9.25
7/20/2021 11:30:00 AM 18.43 65.174 0.038 6.95 2.58 9.21
7/20/2021 11:45:00 AM 18.4 65.12 0.038 6.94 2.6 9.18
7/20/2021 12:00:00 PM 18.48 65.264 0.038 6.94 2.4 9.19
7/20/2021 12:15:00 PM 18.64 65.552 0.038 6.95 2.47 9.18
7/20/2021 12:30:00 PM 18.83 65.894 0.038 6.96 2.58 9.15
7/20/2021 12:45:00 PM 19.1 66.38 0.038 6.98 2.63 9.16
7/20/2021 1:00:00 PM 19.3 66.74 0.038 6.99 2.41 9.13
7/20/2021 1:15:00 PM 19.45 67.01 0.038 6.99 2.57 9.1
7/20/2021 1:30:00 PM 19.68 67.424 0.038 7 2.42 9.06
7/20/2021 1:45:00 PM 19.89 67.802 0.038 7.01 2.65 9.04
7/20/2021 2:00:00 PM 20.07 68.126 0.038 7.02 2.47 9
7/20/2021 2:15:00 PM 20.22 68.396 0.038 7.01 2.51 8.96
7/20/2021 2:30:00 PM 20.33 68.594 0.038 7.01 2.41 8.94
7/20/2021 2:45:00 PM 20.42 68.756 0.038 7.01 2.46 8.91
7/20/2021 3:00:00 PM 20.44 68.792 0.038 7 2.52 8.88
7/20/2021 3:15:00 PM 20.44 68.792 0.038 7 2.43 8.85
7/20/2021 3:30:00 PM 20.47 68.846 0.038 6.99 2.47 8.83
7/20/2021 3:45:00 PM 20.47 68.846 0.038 6.99 2.46 8.81
7/20/2021 4:00:00 PM 20.52 68.936 0.038 6.98 2.42 8.81
7/20/2021 4:15:00 PM 20.59 69.062 0.038 6.98 2.51 8.77
7/20/2021 4:30:00 PM 20.67 69.206 0.038 6.98 2.37 8.75
7/20/2021 4:45:00 PM 20.71 69.278 0.038 6.98 2.34 8.73
7/20/2021 5:00:00 PM 20.71 69.278 0.038 6.98 2.47 8.7
7/20/2021 5:15:00 PM 20.7 69.26 0.038 6.97 2.35 8.68
7/20/2021 5:30:00 PM 20.7 69.26 0.038 6.96 2.63 8.66
7/20/2021 5:45:00 PM 20.69 69.242 0.038 6.95 2.46 8.63
7/20/2021 6:00:00 PM 20.66 69.188 0.038 6.94 2.36 8.62
7/20/2021 6:15:00 PM 20.61 69.098 0.038 6.94 2.42 8.6
7/20/2021 6:30:00 PM 20.56 69.008 0.038 6.93 2.24 8.58
7/20/2021 6:45:00 PM 20.51 68.918 0.038 6.92 2.24 8.55
7/20/2021 7:00:00 PM 20.47 68.846 0.038 6.91 2.2 8.53
7/20/2021 7:15:00 PM 20.42 68.756 0.038 6.9 2.29 8.5
7/20/2021 7:30:00 PM 20.37 68.666 0.038 6.88 2.3 8.46
7/20/2021 7:45:00 PM 20.32 68.576 0.038 6.87 2.52 8.44
7/20/2021 8:00:00 PM 20.26 68.468 0.039 6.86 2.31 8.4
7/20/2021 8:15:00 PM 20.19 68.342 0.039 6.84 2.31 8.37
7/20/2021 8:30:00 PM 20.12 68.216 0.039 6.83 2.26 8.33
7/20/2021 8:45:00 PM 20.05 68.09 0.039 6.82 2.26 8.31
7/20/2021 9:00:00 PM 19.97 67.946 0.039 6.81 2.27 8.31
7/20/2021 9:15:00 PM 19.89 67.802 0.039 6.8 2.25 8.31
7/20/2021 9:30:00 PM 19.82 67.676 0.039 6.79 2.26 8.31
7/20/2021 9:45:00 PM 19.74 67.532 0.039 6.8 2.41 8.32
7/20/2021 10:00:00 PM 19.66 67.388 0.039 6.79 2.44 8.32
7/20/2021 10:15:00 PM 19.59 67.262 0.039 6.79 2.18 8.34
7/20/2021 10:30:00 PM 19.51 67.118 0.039 6.79 2.3 8.32
7/20/2021 10:45:00 PM 19.44 66.992 0.039 6.79 2.35 8.37
7/20/2021 11:00:00 PM 19.37 66.866 0.039 6.79 2.27 8.37
7/20/2021 11:15:00 PM 19.31 66.758 0.039 6.79 2.22 8.4
7/20/2021 11:30:00 PM 19.25 66.65 0.039 6.8 2.35 8.42
7/20/2021 11:45:00 PM 19.18 66.524 0.039 6.8 2.29 8.44
7/21/2021 12:00:00 AM 19.11 66.398 0.039 6.81 2.36 8.45
7/21/2021 12:15:00 AM 19.04 66.272 0.04 6.81 2.17 8.46
7/21/2021 12:30:00 AM 18.98 66.164 0.04 6.81 2.33 8.47
7/21/2021 12:45:00 AM 18.92 66.056 0.04 6.82 2.55 8.47
7/21/2021 1:00:00 AM 18.85 65.93 0.04 6.82 2.28 8.48
7/21/2021 1:15:00 AM 18.79 65.82201 0.04 6.82 2.23 8.48
7/21/2021 1:30:00 AM 18.73 65.714 0.04 6.81 2.26 8.5
7/21/2021 1:45:00 AM 18.67 65.606 0.04 6.81 2.38 8.52
7/21/2021 2:00:00 AM 18.61 65.498 0.04 6.81 2.21 8.54
7/21/2021 2:15:00 AM 18.55 65.39 0.04 6.81 2.24 8.55
7/21/2021 2:30:00 AM 18.49 65.282 0.04 6.81 2.09 8.56
7/21/2021 2:45:00 AM 18.43 65.174 0.04 6.81 2.23 8.57
7/21/2021 3:00:00 AM 18.37 65.066 0.04 6.8 2.24 8.58
7/21/2021 3:15:00 AM 18.31 64.958 0.04 6.81 2.18 8.58
7/21/2021 3:30:00 AM 18.26 64.868 0.04 6.8 2.47 8.58
7/21/2021 3:45:00 AM 18.2 64.76 0.04 6.81 2.13 8.57
7/21/2021 4:00:00 AM 18.15 64.67 0.04 6.8 2.19 8.59
7/21/2021 4:15:00 AM 18.09 64.562 0.04 6.8 2.26 8.61
7/21/2021 4:30:00 AM 18.03 64.454 0.04 6.8 2.17 8.63
7/21/2021 4:45:00 AM 17.98 64.364 0.04 6.8 2.19 8.65
7/21/2021 5:00:00 AM 17.93 64.274 0.04 6.8 2.24 8.64
7/21/2021 5:15:00 AM 17.88 64.184 0.04 6.8 2.17 8.66
7/21/2021 5:30:00 AM 17.83 64.094 0.04 6.8 2.21 8.67
7/21/2021 5:45:00 AM 17.77 63.986 0.04 6.79 2.22 8.69
7/21/2021 6:00:00 AM 17.73 63.914 0.04 6.8 2.23 8.7
7/21/2021 6:15:00 AM 17.68 63.824 0.04 6.8 2.27 8.72
7/21/2021 6:30:00 AM 17.63 63.734 0.04 6.8 2.25 8.75
7/21/2021 6:45:00 AM 17.59 63.662 0.04 6.8 2.08 8.8
7/21/2021 7:00:00 AM 17.56 63.608 0.04 6.81 2.31 8.84
7/21/2021 7:15:00 AM 17.54 63.572 0.04 6.82 2.2 8.88
7/21/2021 7:30:00 AM 17.53 63.554 0.04 6.83 2.07 8.93
7/21/2021 7:45:00 AM 17.53 63.554 0.04 6.85 2.26 8.97
7/21/2021 8:00:00 AM 17.53 63.554 0.04 6.86 2.16 8.99
7/21/2021 8:15:00 AM 17.54 63.572 0.04 6.86 2.08 9.02
7/21/2021 8:30:00 AM 17.57 63.626 0.04 6.87 2.1 9.08
7/21/2021 8:45:00 AM 17.6 63.68 0.04 6.89 2.22 9.12
7/21/2021 9:00:00 AM 17.62 63.716 0.04 6.9 2.35 9.14
7/21/2021 9:15:00 AM 17.65 63.77 0.04 6.9 2.02 9.15
7/21/2021 9:30:00 AM 17.67 63.806 0.04 6.91 2.07 9.14
7/21/2021 9:45:00 AM 17.65 63.77 0.04 6.88 2.3 9.05
7/21/2021 10:00:00 AM 17.66 63.788 0.04 6.88 2.56 9.05
7/21/2021 10:15:00 AM 17.66 63.788 0.04 6.87 2.75 9.04
7/21/2021 10:30:00 AM 17.69 63.842 0.04 6.89 2.97 9.06
7/21/2021 10:45:00 AM 17.74 63.932 0.04 6.9 3.43 9.1
7/21/2021 11:00:00 AM 17.84 64.112 0.04 6.92 2.95 9.15
7/21/2021 11:15:00 AM 17.87 64.166 0.041 6.92 2.83 9.15
7/21/2021 11:30:00 AM 17.97 64.346 0.041 6.94 2.46 9.18
7/21/2021 11:45:00 AM 18.02 64.436 0.041 6.94 2.33 9.17
7/21/2021 12:00:00 PM 17.98 64.364 0.041 6.94 2.42 9.1
7/21/2021 12:15:00 PM 17.96 64.328 0.041 6.92 2.21 9.02
7/21/2021 12:30:00 PM 18.01 64.418 0.041 6.92 2.37 9.03
7/21/2021 12:45:00 PM 18.16 64.688 0.041 6.95 2.15 9.12
7/21/2021 1:00:00 PM 18.47 65.246 0.041 6.97 2.19 9.15
7/21/2021 1:15:00 PM 18.79 65.82201 0.041 6.99 2.18 9.16
7/21/2021 1:30:00 PM 19.03 66.254 0.041 7 2.25 9.14
7/21/2021 1:45:00 PM 19.26 66.668 0.041 7 2.46 9.12
7/21/2021 2:00:00 PM 19.23 66.614 0.041 7 2.45 9.09
7/21/2021 2:15:00 PM 19.28 66.704 0.041 7 2.47 9.1
7/21/2021 2:30:00 PM 19.29 66.722 0.041 6.99 2.47 9.03
7/21/2021 2:45:00 PM 19.3 66.74 0.041 6.99 2.48 9
7/21/2021 3:00:00 PM 19.54 67.172 0.041 7.01 2.23 8.99
7/21/2021 3:15:00 PM 19.54 67.172 0.041 7 2.24 8.95
7/21/2021 3:30:00 PM 19.51 67.118 0.041 6.98 2.33 8.92
7/21/2021 3:45:00 PM 19.52 67.136 0.041 7 2.1 8.93
7/21/2021 4:00:00 PM 19.56 67.208 0.041 7 2.11 8.95
7/21/2021 4:15:00 PM 19.54 67.172 0.041 6.99 2.08 8.92
7/21/2021 4:30:00 PM 19.5 67.1 0.041 6.99 2.07 8.91
7/21/2021 4:45:00 PM 19.5 67.1 0.041 6.99 2.08 8.89
7/21/2021 5:00:00 PM 19.44 66.992 0.041 6.99 2.02 8.88
7/21/2021 5:15:00 PM 19.45 67.01 0.041 6.99 2.01 8.86
7/21/2021 5:30:00 PM 19.43 66.974 0.041 6.98 2.05 8.85
7/21/2021 5:45:00 PM 19.4 66.92 0.041 6.97 2.15 8.85
7/21/2021 6:00:00 PM 19.39 66.902 0.041 6.97 2.04 8.83
7/21/2021 6:15:00 PM 19.38 66.884 0.041 6.97 1.9 8.82
7/21/2021 6:30:00 PM 19.36 66.848 0.041 6.97 1.96 8.8
7/21/2021 6:45:00 PM 19.33 66.794 0.041 6.95 2.05 8.75
7/21/2021 7:00:00 PM 19.29 66.722 0.041 6.94 2 8.71
7/21/2021 7:15:00 PM 19.24 66.632 0.041 6.93 2.02 8.69
7/21/2021 7:30:00 PM 19.18 66.524 0.041 6.91 2.09 8.66
7/21/2021 7:45:00 PM 19.11 66.398 0.041 6.9 1.91 8.62
7/21/2021 8:00:00 PM 19.07 66.326 0.041 6.89 2.11 8.59
7/21/2021 8:15:00 PM 19.02 66.236 0.041 6.88 1.96 8.57
7/21/2021 8:30:00 PM 18.97 66.146 0.041 6.87 2.02 8.56
7/21/2021 8:45:00 PM 18.91 66.038 0.041 6.86 1.98 8.53
7/21/2021 9:00:00 PM 18.84 65.912 0.041 6.85 1.88 8.51
7/21/2021 9:15:00 PM 18.77 65.786 0.041 6.85 1.89 8.51
7/21/2021 9:30:00 PM 18.69 65.642 0.041 6.85 2.03 8.52
7/21/2021 9:45:00 PM 18.6 65.48 0.042 6.84 1.92 8.53
7/21/2021 10:00:00 PM 18.52 65.336 0.042 6.84 2.16 8.56
7/21/2021 10:15:00 PM 18.42 65.156 0.042 6.84 1.82 8.57
7/21/2021 10:30:00 PM 18.34 65.012 0.042 6.83 1.76 8.58
7/21/2021 10:45:00 PM 18.24 64.832 0.042 6.83 1.87 8.59
7/21/2021 11:00:00 PM 18.16 64.688 0.042 6.83 1.95 8.6
7/21/2021 11:15:00 PM 18.06 64.508 0.042 6.83 1.88 8.63
7/21/2021 11:30:00 PM 17.98 64.364 0.042 6.83 1.95 8.65
7/21/2021 11:45:00 PM 17.89 64.202 0.042 6.82 1.91 8.66
7/22/2021 12:00:00 AM 17.81 64.058 0.042 6.82 1.86 8.69
7/22/2021 12:15:00 AM 17.72 63.896 0.042 6.82 1.97 8.71
7/22/2021 12:30:00 AM 17.64 63.752 0.042 6.82 1.97 8.72
7/22/2021 12:45:00 AM 17.56 63.608 0.042 6.82 1.88 8.73
7/22/2021 1:00:00 AM 17.48 63.464 0.042 6.82 2.03 8.75
7/22/2021 1:15:00 AM 17.4 63.32 0.042 6.82 2.01 8.75
7/22/2021 1:30:00 AM 17.32 63.176 0.042 6.82 1.96 8.77
7/22/2021 1:45:00 AM 17.24 63.032 0.042 6.81 1.94 8.78
7/22/2021 2:00:00 AM 17.17 62.906 0.042 6.82 1.99 8.81
7/22/2021 2:15:00 AM 17.1 62.78 0.042 6.82 1.9 8.84
7/22/2021 2:30:00 AM 17.02 62.636 0.042 6.82 2.06 8.86
7/22/2021 2:45:00 AM 16.94 62.492 0.042 6.82 1.95 8.86
7/22/2021 3:00:00 AM 16.87 62.366 0.042 6.81 2.02 8.87
7/22/2021 3:15:00 AM 16.8 62.24 0.042 6.81 1.95 8.88
7/22/2021 3:30:00 AM 16.73 62.114 0.042 6.81 1.93 8.9
7/22/2021 3:45:00 AM 16.66 61.988 0.042 6.81 1.94 8.92
7/22/2021 4:00:00 AM 16.6 61.88 0.042 6.81 1.93 8.94
7/22/2021 4:15:00 AM 16.53 61.754 0.042 6.81 1.82 8.95
7/22/2021 4:30:00 AM 16.46 61.628 0.042 6.81 1.91 8.97
7/22/2021 4:45:00 AM 16.39 61.502 0.042 6.81 1.96 8.98
7/22/2021 5:00:00 AM 16.33 61.394 0.042 6.81 2.05 8.99
7/22/2021 5:15:00 AM 16.26 61.268 0.042 6.81 1.93 8.99
7/22/2021 5:30:00 AM 16.19 61.142 0.042 6.8 1.86 9.01
7/22/2021 5:45:00 AM 16.12 61.016 0.042 6.8 2.12 9.01
7/22/2021 6:00:00 AM 16.06 60.908 0.042 6.8 1.89 9.04
7/22/2021 6:15:00 AM 16 60.8 0.042 6.81 2.03 9.08
7/22/2021 6:30:00 AM 15.94 60.692 0.043 6.81 1.88 9.12
7/22/2021 6:45:00 AM 15.9 60.62 0.043 6.83 1.93 9.18
7/22/2021 7:00:00 AM 15.86 60.548 0.043 6.84 1.88 9.23
7/22/2021 7:15:00 AM 15.82 60.476 0.043 6.84 1.86 9.28
7/22/2021 7:30:00 AM 15.8 60.44 0.042 6.85 1.84 9.34
7/22/2021 7:45:00 AM 15.78 60.404 0.042 6.86 1.81 9.39
7/22/2021 8:00:00 AM 15.78 60.404 0.042 6.88 1.87 9.44
7/22/2021 8:15:00 AM 15.79 60.422 0.042 6.88 1.84 9.48
7/22/2021 8:30:00 AM 15.83 60.494 0.042 6.9 1.82 9.53
7/22/2021 8:45:00 AM 15.89 60.602 0.042 6.91 1.87 9.57
7/22/2021 9:00:00 AM 15.97 60.746 0.042 6.92 1.86 9.6
7/22/2021 9:15:00 AM 16.07 60.926 0.042 6.94 1.9 9.61
7/22/2021 9:30:00 AM 16.14 61.052 0.042 6.95 1.84 9.61
7/22/2021 9:45:00 AM 16.22 61.196 0.043 6.95 1.81 9.63
7/22/2021 10:00:00 AM 16.35 61.43 0.042 6.96 2.02 9.63
7/22/2021 10:15:00 AM 16.47 61.646 0.042 6.97 1.76 9.65
7/22/2021 10:30:00 AM 16.57 61.826 0.042 6.98 1.74 9.66
7/22/2021 10:45:00 AM 16.72 62.096 0.042 6.99 1.84 9.64
7/22/2021 11:00:00 AM 16.85 62.33 0.042 7 1.86 9.61
7/22/2021 11:15:00 AM 17.08 62.744 0.042 7 1.92 9.61
7/22/2021 11:30:00 AM 17.24 63.032 0.042 7.01 1.8 9.58
7/22/2021 11:45:00 AM 17.34 63.212 0.042 7.01 1.92 9.56
7/22/2021 12:00:00 PM 17.5 63.5 0.042 7.02 1.97 9.53
7/22/2021 12:15:00 PM 17.67 63.806 0.042 7.03 1.87 9.51
7/22/2021 12:30:00 PM 17.84 64.112 0.042 7.03 1.82 9.49
7/22/2021 12:45:00 PM 18.02 64.436 0.042 7.03 1.76 9.46
7/22/2021 1:00:00 PM 18.09 64.562 0.042 7.03 1.72 9.42
7/22/2021 1:15:00 PM 18.25 64.85 0.042 7.03 1.77 9.39
7/22/2021 1:30:00 PM 18.46 65.228 0.042 7.04 1.89 9.38
7/22/2021 1:45:00 PM 18.51 65.318 0.042 7.03 1.81 9.35
7/22/2021 2:00:00 PM 18.71 65.67799 0.042 7.04 1.84 9.33
7/22/2021 2:15:00 PM 18.86 65.948 0.042 7.03 1.81 9.28
7/22/2021 2:30:00 PM 18.81 65.858 0.042 7.04 1.84 9.24
7/22/2021 2:45:00 PM 19.02 66.236 0.042 7.04 1.78 9.25
7/22/2021 3:00:00 PM 19.18 66.524 0.042 7.04 1.76 9.22
7/22/2021 3:15:00 PM 19.23 66.614 0.042 7.03 1.78 9.19
7/22/2021 3:30:00 PM 19.37 66.866 0.042 7.03 1.96 9.15
7/22/2021 3:45:00 PM 19.49 67.082 0.042 7.04 2 9.1
7/22/2021 4:00:00 PM 19.58 67.244 0.042 7.03 1.81 9.08
7/22/2021 4:15:00 PM 19.58 67.244 0.042 7.03 1.89 9.02
7/22/2021 4:30:00 PM 19.51 67.118 0.042 7.01 1.88 8.95
7/22/2021 4:45:00 PM 19.55 67.19 0.042 7.01 1.83 8.98
7/22/2021 5:00:00 PM 19.51 67.118 0.042 7.02 1.71 8.99
7/22/2021 5:15:00 PM 19.43 66.974 0.042 7 1.86 8.96
7/22/2021 5:30:00 PM 19.39 66.902 0.042 7.01 1.83 8.98
7/22/2021 5:45:00 PM 19.38 66.884 0.042 7.01 1.9 8.95
7/22/2021 6:00:00 PM 19.35 66.83 0.042 7 1.83 8.93
7/22/2021 6:15:00 PM 19.27 66.686 0.042 6.99 1.78 8.91
7/22/2021 6:30:00 PM 19.18 66.524 0.042 6.97 1.93 8.89
7/22/2021 6:45:00 PM 19.09 66.362 0.042 6.97 1.79 8.86
7/22/2021 7:00:00 PM 19 66.2 0.042 6.96 1.78 8.82
7/22/2021 7:15:00 PM 18.91 66.038 0.042 6.95 1.82 8.81
7/22/2021 7:30:00 PM 18.84 65.912 0.042 6.93 1.84 8.74
7/22/2021 7:45:00 PM 18.76 65.768 0.042 6.92 1.75 8.76
7/22/2021 8:00:00 PM 18.7 65.66 0.042 6.92 1.81 8.73
7/22/2021 8:15:00 PM 18.63 65.534 0.043 6.9 1.86 8.71
7/22/2021 8:30:00 PM 18.55 65.39 0.043 6.89 1.77 8.69
7/22/2021 8:45:00 PM 18.48 65.264 0.043 6.88 1.73 8.67
7/22/2021 9:00:00 PM 18.4 65.12 0.043 6.87 1.74 8.65
7/22/2021 9:15:00 PM 18.31 64.958 0.043 6.87 1.71 8.64
7/22/2021 9:30:00 PM 18.22 64.796 0.043 6.86 1.75 8.64
7/22/2021 9:45:00 PM 18.14 64.652 0.043 6.85 1.74 8.63
7/22/2021 10:00:00 PM 18.05 64.49 0.043 6.84 1.8 8.66
7/22/2021 10:15:00 PM 17.96 64.328 0.043 6.84 1.72 8.67
7/22/2021 10:30:00 PM 17.87 64.166 0.043 6.84 1.73 8.69
7/22/2021 10:45:00 PM 17.77 63.986 0.043 6.84 1.72 8.69
7/22/2021 11:00:00 PM 17.68 63.824 0.043 6.84 1.75 8.7
7/22/2021 11:15:00 PM 17.59 63.662 0.043 6.84 1.87 8.74
7/22/2021 11:30:00 PM 17.51 63.518 0.043 6.84 1.73 8.74
7/22/2021 11:45:00 PM 17.41 63.338 0.043 6.84 1.63 8.73
7/23/2021 12:00:00 AM 17.32 63.176 0.044 6.83 1.8 8.77
7/23/2021 12:15:00 AM 17.24 63.032 0.044 6.83 1.75 8.79
7/23/2021 12:30:00 AM 17.15 62.87 0.044 6.83 1.68 8.81
7/23/2021 12:45:00 AM 17.06 62.708 0.044 6.83 1.86 8.83
7/23/2021 1:00:00 AM 16.97 62.546 0.044 6.83 1.69 8.85
7/23/2021 1:15:00 AM 16.89 62.402 0.044 6.83 1.83 8.86
7/23/2021 1:30:00 AM 16.8 62.24 0.044 6.83 1.67 8.87
7/23/2021 1:45:00 AM 16.72 62.096 0.044 6.83 1.8 8.91
7/23/2021 2:00:00 AM 16.64 61.952 0.044 6.83 1.75 8.92
7/23/2021 2:15:00 AM 16.56 61.808 0.044 6.83 1.69 8.93
7/23/2021 2:30:00 AM 16.48 61.664 0.044 6.83 1.74 8.96
7/23/2021 2:45:00 AM 16.4 61.52 0.044 6.82 1.72 8.97
7/23/2021 3:00:00 AM 16.32 61.376 0.044 6.82 1.84 8.98
7/23/2021 3:15:00 AM 16.24 61.232 0.044 6.82 1.68 8.99
7/23/2021 3:30:00 AM 16.17 61.106 0.044 6.82 1.78 9
7/23/2021 3:45:00 AM 16.1 60.98 0.044 6.82 1.72 9.02
7/23/2021 4:00:00 AM 16.02 60.836 0.044 6.83 1.8 9.03
7/23/2021 4:15:00 AM 15.95 60.71 0.044 6.83 1.73 9.06
7/23/2021 4:30:00 AM 15.87 60.566 0.044 6.82 1.64 9.07
7/23/2021 4:45:00 AM 15.8 60.44 0.044 6.82 1.72 9.09
7/23/2021 5:00:00 AM 15.73 60.314 0.044 6.82 1.71 9.12
7/23/2021 5:15:00 AM 15.66 60.188 0.044 6.82 1.66 9.13
7/23/2021 5:30:00 AM 15.59 60.062 0.044 6.82 1.78 9.14
7/23/2021 5:45:00 AM 15.53 59.954 0.044 6.82 1.69 9.16
7/23/2021 6:00:00 AM 15.46 59.828 0.044 6.82 1.82 9.16
7/23/2021 6:15:00 AM 15.4 59.72 0.044 6.82 1.72 9.2
7/23/2021 6:30:00 AM 15.34 59.612 0.044 6.83 1.74 9.26
7/23/2021 6:45:00 AM 15.29 59.522 0.044 6.83 1.75 9.3
7/23/2021 7:00:00 AM 15.25 59.45 0.044 6.83 1.72 9.36
7/23/2021 7:15:00 AM 15.22 59.396 0.044 6.85 1.7 9.42
7/23/2021 7:30:00 AM 15.19 59.342 0.044 6.86 1.82 9.47
7/23/2021 7:45:00 AM 15.18 59.324 0.043 6.87 1.83 9.53
7/23/2021 8:00:00 AM 15.18 59.324 0.043 6.88 1.79 9.58
7/23/2021 8:15:00 AM 15.19 59.342 0.043 6.89 1.84 9.62
7/23/2021 8:30:00 AM 15.22 59.396 0.043 6.9 1.73 9.65
7/23/2021 8:45:00 AM 15.28 59.504 0.043 6.91 1.76 9.68
7/23/2021 9:00:00 AM 15.37 59.666 0.043 6.93 1.79 9.71
7/23/2021 9:15:00 AM 15.46 59.828 0.043 6.93 1.71 9.73
7/23/2021 9:30:00 AM 15.55 59.99 0.043 6.94 1.59 9.74
7/23/2021 9:45:00 AM 15.68 60.224 0.043 6.95 1.8 9.76
7/23/2021 10:00:00 AM 15.82 60.476 0.043 6.96 1.72 9.76
7/23/2021 10:15:00 AM 15.97 60.746 0.043 6.97 1.71 9.76
7/23/2021 10:30:00 AM 16.15 61.07 0.043 6.98 1.74 9.74
7/23/2021 10:45:00 AM 16.34 61.412 0.043 6.98 1.76 9.74